<?xml version="1.0" encoding="UTF-8" standalone="no" ?>
<gpx xmlns="http://www.topografix.com/GPX/1/1" xmlns:xsi="http://www.w3.org/2001/XMLSchema-instance" xsi:schemaLocation="http://www.topografix.com/GPX/1/1 http://www.topografix.com/GPX/1/1/gpx.xsd" version="1.1" creator="VisuGPX - https://www.visugpx.com">
  <metadata>
    <name>Tour d'Europe: étape 522</name>
    <desc><![CDATA[Étape 522]]></desc>
  </metadata>
  <trk>
    <name><![CDATA[Tour d'Europe: étape 522]]></name>
    <trkseg>
      <trkpt lat="41.18818" lon="41.82696">
        <ele>221.578971</ele>
        <time>2021-12-02T05:29:33.501Z</time>
      </trkpt>
      <trkpt lat="41.18829" lon="41.82699">
        <ele>221.578971</ele>
        <time>2021-12-02T05:29:37.517Z</time>
      </trkpt>
      <trkpt lat="41.18838" lon="41.82705">
        <ele>221.578971</ele>
        <time>2021-12-02T05:29:41.505Z</time>
      </trkpt>
      <trkpt lat="41.18843" lon="41.82718">
        <ele>221.578971</ele>
        <time>2021-12-02T05:29:45.490Z</time>
      </trkpt>
      <trkpt lat="41.18843" lon="41.82732">
        <ele>221.578971</ele>
        <time>2021-12-02T05:29:49.497Z</time>
      </trkpt>
      <trkpt lat="41.1884" lon="41.82746">
        <ele>221.578971</ele>
        <time>2021-12-02T05:29:53.491Z</time>
      </trkpt>
      <trkpt lat="41.18836" lon="41.8276">
        <ele>221.578971</ele>
        <time>2021-12-02T05:29:57.493Z</time>
      </trkpt>
      <trkpt lat="41.18832" lon="41.82773">
        <ele>221.578971</ele>
        <time>2021-12-02T05:30:00.522Z</time>
      </trkpt>
      <trkpt lat="41.18828" lon="41.82784">
        <ele>221.578971</ele>
        <time>2021-12-02T05:30:03.484Z</time>
      </trkpt>
      <trkpt lat="41.18825" lon="41.82795">
        <ele>221.865491</ele>
        <time>2021-12-02T05:30:06.482Z</time>
      </trkpt>
      <trkpt lat="41.1882" lon="41.8281">
        <ele>222.773894</ele>
        <time>2021-12-02T05:30:10.493Z</time>
      </trkpt>
      <trkpt lat="41.18816" lon="41.82824">
        <ele>223.602597</ele>
        <time>2021-12-02T05:30:14.487Z</time>
      </trkpt>
      <trkpt lat="41.18813" lon="41.82838">
        <ele>224.4429</ele>
        <time>2021-12-02T05:30:18.534Z</time>
      </trkpt>
      <trkpt lat="41.1881" lon="41.8285">
        <ele>225.189206</ele>
        <time>2021-12-02T05:30:22.520Z</time>
      </trkpt>
      <trkpt lat="41.18806" lon="41.82862">
        <ele>225.914707</ele>
        <time>2021-12-02T05:30:26.509Z</time>
      </trkpt>
      <trkpt lat="41.18803" lon="41.82874">
        <ele>226.626964</ele>
        <time>2021-12-02T05:30:32.489Z</time>
      </trkpt>
      <trkpt lat="41.18802" lon="41.82886">
        <ele>227.327637</ele>
        <time>2021-12-02T05:30:39.510Z</time>
      </trkpt>
      <trkpt lat="41.18801" lon="41.82899">
        <ele>228.02694</ele>
        <time>2021-12-02T05:30:45.499Z</time>
      </trkpt>
      <trkpt lat="41.18799" lon="41.82911">
        <ele>228.731862</ele>
        <time>2021-12-02T05:30:52.491Z</time>
      </trkpt>
      <trkpt lat="41.18798" lon="41.82924">
        <ele>229.463926</ele>
        <time>2021-12-02T05:30:58.498Z</time>
      </trkpt>
      <trkpt lat="41.18796" lon="41.82937">
        <ele>230.245668</ele>
        <time>2021-12-02T05:31:05.494Z</time>
      </trkpt>
      <trkpt lat="41.18796" lon="41.82951">
        <ele>231.017667</ele>
        <time>2021-12-02T05:31:12.512Z</time>
      </trkpt>
      <trkpt lat="41.18795" lon="41.82963">
        <ele>231.702087</ele>
        <time>2021-12-02T05:31:18.480Z</time>
      </trkpt>
      <trkpt lat="41.18797" lon="41.82975">
        <ele>232.431399</ele>
        <time>2021-12-02T05:31:24.505Z</time>
      </trkpt>
      <trkpt lat="41.18799" lon="41.82988">
        <ele>233.18741</ele>
        <time>2021-12-02T05:31:31.495Z</time>
      </trkpt>
      <trkpt lat="41.188" lon="41.83001">
        <ele>233.942947</ele>
        <time>2021-12-02T05:31:39.511Z</time>
      </trkpt>
      <trkpt lat="41.18798" lon="41.83015">
        <ele>234.719169</ele>
        <time>2021-12-02T05:31:47.518Z</time>
      </trkpt>
      <trkpt lat="41.18797" lon="41.83028">
        <ele>234.750689</ele>
        <time>2021-12-02T05:31:55.495Z</time>
      </trkpt>
      <trkpt lat="41.18791" lon="41.83038">
        <ele>233.838227</ele>
        <time>2021-12-02T05:32:02.505Z</time>
      </trkpt>
      <trkpt lat="41.18787" lon="41.83027">
        <ele>232.984557</ele>
        <time>2021-12-02T05:32:08.500Z</time>
      </trkpt>
      <trkpt lat="41.1879" lon="41.83013">
        <ele>231.935853</ele>
        <time>2021-12-02T05:32:11.490Z</time>
      </trkpt>
      <trkpt lat="41.1879" lon="41.82998">
        <ele>230.898664</ele>
        <time>2021-12-02T05:32:14.485Z</time>
      </trkpt>
      <trkpt lat="41.18789" lon="41.82983">
        <ele>229.859433</ele>
        <time>2021-12-02T05:32:17.541Z</time>
      </trkpt>
      <trkpt lat="41.18787" lon="41.82968">
        <ele>228.759896</ele>
        <time>2021-12-02T05:32:20.510Z</time>
      </trkpt>
      <trkpt lat="41.18786" lon="41.82952">
        <ele>227.654375</ele>
        <time>2021-12-02T05:32:23.558Z</time>
      </trkpt>
      <trkpt lat="41.18785" lon="41.8294">
        <ele>226.809551</ele>
        <time>2021-12-02T05:32:25.516Z</time>
      </trkpt>
      <trkpt lat="41.18785" lon="41.82927">
        <ele>225.884778</ele>
        <time>2021-12-02T05:32:27.506Z</time>
      </trkpt>
      <trkpt lat="41.18785" lon="41.82913">
        <ele>224.953001</ele>
        <time>2021-12-02T05:32:29.494Z</time>
      </trkpt>
      <trkpt lat="41.18786" lon="41.82899">
        <ele>223.956653</ele>
        <time>2021-12-02T05:32:31.490Z</time>
      </trkpt>
      <trkpt lat="41.18786" lon="41.82884">
        <ele>222.919464</ele>
        <time>2021-12-02T05:32:33.486Z</time>
      </trkpt>
      <trkpt lat="41.18786" lon="41.82872">
        <ele>222.050782</ele>
        <time>2021-12-02T05:32:35.481Z</time>
      </trkpt>
      <trkpt lat="41.18781" lon="41.82861">
        <ele>221.151628</ele>
        <time>2021-12-02T05:32:39.502Z</time>
      </trkpt>
      <trkpt lat="41.18774" lon="41.8287">
        <ele>220.238799</ele>
        <time>2021-12-02T05:32:43.481Z</time>
      </trkpt>
      <trkpt lat="41.18771" lon="41.82884">
        <ele>219.203657</ele>
        <time>2021-12-02T05:32:48.483Z</time>
      </trkpt>
      <trkpt lat="41.18766" lon="41.82897">
        <ele>218.402973</ele>
        <time>2021-12-02T05:32:53.505Z</time>
      </trkpt>
      <trkpt lat="41.18759" lon="41.82905">
        <ele>218.41926</ele>
        <time>2021-12-02T05:33:00.490Z</time>
      </trkpt>
      <trkpt lat="41.18756" lon="41.82919">
        <ele>218.436881</ele>
        <time>2021-12-02T05:33:04.518Z</time>
      </trkpt>
      <trkpt lat="41.18754" lon="41.82931">
        <ele>218.453432</ele>
        <time>2021-12-02T05:33:08.493Z</time>
      </trkpt>
      <trkpt lat="41.18753" lon="41.82944">
        <ele>218.470126</ele>
        <time>2021-12-02T05:33:12.510Z</time>
      </trkpt>
      <trkpt lat="41.18751" lon="41.82959">
        <ele>218.488776</ele>
        <time>2021-12-02T05:33:16.558Z</time>
      </trkpt>
      <trkpt lat="41.18749" lon="41.82972">
        <ele>218.505707</ele>
        <time>2021-12-02T05:33:20.494Z</time>
      </trkpt>
      <trkpt lat="41.18748" lon="41.82986">
        <ele>218.523949</ele>
        <time>2021-12-02T05:33:27.511Z</time>
      </trkpt>
      <trkpt lat="41.18744" lon="41.82998">
        <ele>218.539928</ele>
        <time>2021-12-02T05:33:30.480Z</time>
      </trkpt>
      <trkpt lat="41.18741" lon="41.8301">
        <ele>218.5561</ele>
        <time>2021-12-02T05:33:33.527Z</time>
      </trkpt>
      <trkpt lat="41.18737" lon="41.83021">
        <ele>218.57166</ele>
        <time>2021-12-02T05:33:36.504Z</time>
      </trkpt>
      <trkpt lat="41.18734" lon="41.83032">
        <ele>218.587415</ele>
        <time>2021-12-02T05:33:39.489Z</time>
      </trkpt>
      <trkpt lat="41.18728" lon="41.83047">
        <ele>218.607571</ele>
        <time>2021-12-02T05:33:43.541Z</time>
      </trkpt>
      <trkpt lat="41.18725" lon="41.83058">
        <ele>218.623463</ele>
        <time>2021-12-02T05:33:46.506Z</time>
      </trkpt>
      <trkpt lat="41.18721" lon="41.8307">
        <ele>218.639286</ele>
        <time>2021-12-02T05:33:49.561Z</time>
      </trkpt>
      <trkpt lat="41.18718" lon="41.83081">
        <ele>218.654846</ele>
        <time>2021-12-02T05:33:52.537Z</time>
      </trkpt>
      <trkpt lat="41.18714" lon="41.83093">
        <ele>218.670526</ele>
        <time>2021-12-02T05:33:55.489Z</time>
      </trkpt>
      <trkpt lat="41.1871" lon="41.83104">
        <ele>218.68635</ele>
        <time>2021-12-02T05:33:58.485Z</time>
      </trkpt>
      <trkpt lat="41.18706" lon="41.83118">
        <ele>218.730406</ele>
        <time>2021-12-02T05:34:02.485Z</time>
      </trkpt>
      <trkpt lat="41.18701" lon="41.83129">
        <ele>218.915569</ele>
        <time>2021-12-02T05:34:05.519Z</time>
      </trkpt>
      <trkpt lat="41.18698" lon="41.8314">
        <ele>219.099713</ele>
        <time>2021-12-02T05:34:08.513Z</time>
      </trkpt>
      <trkpt lat="41.18695" lon="41.83154">
        <ele>219.316123</ele>
        <time>2021-12-02T05:34:12.490Z</time>
      </trkpt>
      <trkpt lat="41.18695" lon="41.83166">
        <ele>219.496468</ele>
        <time>2021-12-02T05:34:15.481Z</time>
      </trkpt>
      <trkpt lat="41.18695" lon="41.83179">
        <ele>219.690307</ele>
        <time>2021-12-02T05:34:18.475Z</time>
      </trkpt>
      <trkpt lat="41.18695" lon="41.83193">
        <ele>219.887075</ele>
        <time>2021-12-02T05:34:21.496Z</time>
      </trkpt>
      <trkpt lat="41.18694" lon="41.83205">
        <ele>220.07488</ele>
        <time>2021-12-02T05:34:24.530Z</time>
      </trkpt>
      <trkpt lat="41.18692" lon="41.83221">
        <ele>220.310093</ele>
        <time>2021-12-02T05:34:28.498Z</time>
      </trkpt>
      <trkpt lat="41.18689" lon="41.83233">
        <ele>220.507053</ele>
        <time>2021-12-02T05:34:31.505Z</time>
      </trkpt>
      <trkpt lat="41.18686" lon="41.83246">
        <ele>220.701013</ele>
        <time>2021-12-02T05:34:34.498Z</time>
      </trkpt>
      <trkpt lat="41.18682" lon="41.83258">
        <ele>220.899174</ele>
        <time>2021-12-02T05:34:37.498Z</time>
      </trkpt>
      <trkpt lat="41.18678" lon="41.83271">
        <ele>221.107749</ele>
        <time>2021-12-02T05:34:40.495Z</time>
      </trkpt>
      <trkpt lat="41.18675" lon="41.83283">
        <ele>221.299658</ele>
        <time>2021-12-02T05:34:43.485Z</time>
      </trkpt>
      <trkpt lat="41.18672" lon="41.83295">
        <ele>221.484335</ele>
        <time>2021-12-02T05:34:46.489Z</time>
      </trkpt>
      <trkpt lat="41.18669" lon="41.83307">
        <ele>221.669574</ele>
        <time>2021-12-02T05:34:49.498Z</time>
      </trkpt>
      <trkpt lat="41.18667" lon="41.83319">
        <ele>221.855394</ele>
        <time>2021-12-02T05:34:52.520Z</time>
      </trkpt>
      <trkpt lat="41.18663" lon="41.83331">
        <ele>222.041612</ele>
        <time>2021-12-02T05:34:55.493Z</time>
      </trkpt>
      <trkpt lat="41.1866" lon="41.83342">
        <ele>222.224713</ele>
        <time>2021-12-02T05:34:58.517Z</time>
      </trkpt>
      <trkpt lat="41.18655" lon="41.83354">
        <ele>222.19719</ele>
        <time>2021-12-02T05:35:01.498Z</time>
      </trkpt>
      <trkpt lat="41.1865" lon="41.83367">
        <ele>222.110734</ele>
        <time>2021-12-02T05:35:04.480Z</time>
      </trkpt>
      <trkpt lat="41.18646" lon="41.8338">
        <ele>222.025586</ele>
        <time>2021-12-02T05:35:07.494Z</time>
      </trkpt>
      <trkpt lat="41.18642" lon="41.83393">
        <ele>221.938357</ele>
        <time>2021-12-02T05:35:10.508Z</time>
      </trkpt>
      <trkpt lat="41.18638" lon="41.83407">
        <ele>221.847868</ele>
        <time>2021-12-02T05:35:13.489Z</time>
      </trkpt>
      <trkpt lat="41.18635" lon="41.8342">
        <ele>221.765904</ele>
        <time>2021-12-02T05:35:16.486Z</time>
      </trkpt>
      <trkpt lat="41.18631" lon="41.83432">
        <ele>221.685865</ele>
        <time>2021-12-02T05:35:19.479Z</time>
      </trkpt>
      <trkpt lat="41.18626" lon="41.83444">
        <ele>221.604884</ele>
        <time>2021-12-02T05:35:22.490Z</time>
      </trkpt>
      <trkpt lat="41.18622" lon="41.83457">
        <ele>221.514933</ele>
        <time>2021-12-02T05:35:26.489Z</time>
      </trkpt>
      <trkpt lat="41.18609" lon="41.83486">
        <ele>221.311447</ele>
        <time>2021-12-02T05:35:56.489Z</time>
      </trkpt>
      <trkpt lat="41.18602" lon="41.83495">
        <ele>221.233412</ele>
        <time>2021-12-02T05:36:02.484Z</time>
      </trkpt>
      <trkpt lat="41.18581" lon="41.83501">
        <ele>221.064408</ele>
        <time>2021-12-02T05:44:44.522Z</time>
      </trkpt>
      <trkpt lat="41.18574" lon="41.83509">
        <ele>220.990863</ele>
        <time>2021-12-02T05:44:48.504Z</time>
      </trkpt>
      <trkpt lat="41.18567" lon="41.83516">
        <ele>220.914284</ele>
        <time>2021-12-02T05:44:52.497Z</time>
      </trkpt>
      <trkpt lat="41.18559" lon="41.83526">
        <ele>220.831624</ele>
        <time>2021-12-02T05:44:56.500Z</time>
      </trkpt>
      <trkpt lat="41.18551" lon="41.83536">
        <ele>220.74408</ele>
        <time>2021-12-02T05:45:00.509Z</time>
      </trkpt>
      <trkpt lat="41.18543" lon="41.83544">
        <ele>220.663235</ele>
        <time>2021-12-02T05:45:04.515Z</time>
      </trkpt>
      <trkpt lat="41.18535" lon="41.83552">
        <ele>220.590794</ele>
        <time>2021-12-02T05:45:08.506Z</time>
      </trkpt>
      <trkpt lat="41.18526" lon="41.83558">
        <ele>220.505003</ele>
        <time>2021-12-02T05:45:13.509Z</time>
      </trkpt>
      <trkpt lat="41.18517" lon="41.83566">
        <ele>220.419922</ele>
        <time>2021-12-02T05:45:18.495Z</time>
      </trkpt>
      <trkpt lat="41.18507" lon="41.83572">
        <ele>220.339582</ele>
        <time>2021-12-02T05:45:23.490Z</time>
      </trkpt>
      <trkpt lat="41.18498" lon="41.83577">
        <ele>220.26329</ele>
        <time>2021-12-02T05:45:27.497Z</time>
      </trkpt>
      <trkpt lat="41.18489" lon="41.83583">
        <ele>220.183817</ele>
        <time>2021-12-02T05:45:31.550Z</time>
      </trkpt>
      <trkpt lat="41.18479" lon="41.83589">
        <ele>220.100389</ele>
        <time>2021-12-02T05:45:35.480Z</time>
      </trkpt>
      <trkpt lat="41.1847" lon="41.83594">
        <ele>220.024471</ele>
        <time>2021-12-02T05:45:39.495Z</time>
      </trkpt>
      <trkpt lat="41.1846" lon="41.83598">
        <ele>219.9378</ele>
        <time>2021-12-02T05:45:46.505Z</time>
      </trkpt>
      <trkpt lat="41.18451" lon="41.83601">
        <ele>219.867089</ele>
        <time>2021-12-02T05:45:50.476Z</time>
      </trkpt>
      <trkpt lat="41.18441" lon="41.83606">
        <ele>219.78754</ele>
        <time>2021-12-02T05:45:55.491Z</time>
      </trkpt>
      <trkpt lat="41.18432" lon="41.83609">
        <ele>219.714571</ele>
        <time>2021-12-02T05:45:59.532Z</time>
      </trkpt>
      <trkpt lat="41.18421" lon="41.8361">
        <ele>219.627779</ele>
        <time>2021-12-02T05:46:04.494Z</time>
      </trkpt>
      <trkpt lat="41.18412" lon="41.83609">
        <ele>219.554399</ele>
        <time>2021-12-02T05:46:08.495Z</time>
      </trkpt>
      <trkpt lat="41.18401" lon="41.83611">
        <ele>219.471771</ele>
        <time>2021-12-02T05:46:13.510Z</time>
      </trkpt>
      <trkpt lat="41.18392" lon="41.83612">
        <ele>219.401514</ele>
        <time>2021-12-02T05:46:19.496Z</time>
      </trkpt>
      <trkpt lat="41.18383" lon="41.83608">
        <ele>219.349462</ele>
        <time>2021-12-02T05:46:24.493Z</time>
      </trkpt>
      <trkpt lat="41.18373" lon="41.83609">
        <ele>219.297223</ele>
        <time>2021-12-02T05:46:28.502Z</time>
      </trkpt>
      <trkpt lat="41.18363" lon="41.83612">
        <ele>219.240076</ele>
        <time>2021-12-02T05:46:32.498Z</time>
      </trkpt>
      <trkpt lat="41.18353" lon="41.83613">
        <ele>219.184624</ele>
        <time>2021-12-02T05:46:36.508Z</time>
      </trkpt>
      <trkpt lat="41.18343" lon="41.8361">
        <ele>219.129464</ele>
        <time>2021-12-02T05:46:40.484Z</time>
      </trkpt>
      <trkpt lat="41.18333" lon="41.83606">
        <ele>219.073585</ele>
        <time>2021-12-02T05:46:44.546Z</time>
      </trkpt>
      <trkpt lat="41.18324" lon="41.83603">
        <ele>219.021094</ele>
        <time>2021-12-02T05:46:49.497Z</time>
      </trkpt>
      <trkpt lat="41.18315" lon="41.83603">
        <ele>218.968986</ele>
        <time>2021-12-02T05:46:53.511Z</time>
      </trkpt>
      <trkpt lat="41.18303" lon="41.83601">
        <ele>218.905373</ele>
        <time>2021-12-02T05:46:57.509Z</time>
      </trkpt>
      <trkpt lat="41.18292" lon="41.83599">
        <ele>218.842303</ele>
        <time>2021-12-02T05:47:01.490Z</time>
      </trkpt>
      <trkpt lat="41.1828" lon="41.83596">
        <ele>218.778219</ele>
        <time>2021-12-02T05:47:05.509Z</time>
      </trkpt>
      <trkpt lat="41.1827" lon="41.83592">
        <ele>218.720755</ele>
        <time>2021-12-02T05:47:09.501Z</time>
      </trkpt>
      <trkpt lat="41.18259" lon="41.83589">
        <ele>218.659784</ele>
        <time>2021-12-02T05:47:16.501Z</time>
      </trkpt>
      <trkpt lat="41.18249" lon="41.83587">
        <ele>218.603895</ele>
        <time>2021-12-02T05:47:20.539Z</time>
      </trkpt>
      <trkpt lat="41.18241" lon="41.8359">
        <ele>218.553269</ele>
        <time>2021-12-02T05:47:24.507Z</time>
      </trkpt>
      <trkpt lat="41.18232" lon="41.83596">
        <ele>218.500425</ele>
        <time>2021-12-02T05:47:28.483Z</time>
      </trkpt>
      <trkpt lat="41.18224" lon="41.83606">
        <ele>218.441023</ele>
        <time>2021-12-02T05:47:33.486Z</time>
      </trkpt>
      <trkpt lat="41.18218" lon="41.83617">
        <ele>218.404699</ele>
        <time>2021-12-02T05:47:38.485Z</time>
      </trkpt>
      <trkpt lat="41.18212" lon="41.83629">
        <ele>218.376399</ele>
        <time>2021-12-02T05:47:42.566Z</time>
      </trkpt>
      <trkpt lat="41.18204" lon="41.83637">
        <ele>218.350353</ele>
        <time>2021-12-02T05:47:46.499Z</time>
      </trkpt>
      <trkpt lat="41.18185" lon="41.83653">
        <ele>218.29131</ele>
        <time>2021-12-02T05:48:36.497Z</time>
      </trkpt>
      <trkpt lat="41.18175" lon="41.83661">
        <ele>218.259475</ele>
        <time>2021-12-02T05:48:40.490Z</time>
      </trkpt>
      <trkpt lat="41.18167" lon="41.83669">
        <ele>218.23253</ele>
        <time>2021-12-02T05:48:43.487Z</time>
      </trkpt>
      <trkpt lat="41.18157" lon="41.83679">
        <ele>218.201234</ele>
        <time>2021-12-02T05:48:46.492Z</time>
      </trkpt>
      <trkpt lat="41.18148" lon="41.83687">
        <ele>218.170728</ele>
        <time>2021-12-02T05:48:49.497Z</time>
      </trkpt>
      <trkpt lat="41.18137" lon="41.83695">
        <ele>218.13783</ele>
        <time>2021-12-02T05:48:52.500Z</time>
      </trkpt>
      <trkpt lat="41.18126" lon="41.83702">
        <ele>218.104753</ele>
        <time>2021-12-02T05:48:55.492Z</time>
      </trkpt>
      <trkpt lat="41.18114" lon="41.83707">
        <ele>218.073749</ele>
        <time>2021-12-02T05:48:58.562Z</time>
      </trkpt>
      <trkpt lat="41.18103" lon="41.83712">
        <ele>218.043125</ele>
        <time>2021-12-02T05:49:01.500Z</time>
      </trkpt>
      <trkpt lat="41.18092" lon="41.83719">
        <ele>218.010844</ele>
        <time>2021-12-02T05:49:04.505Z</time>
      </trkpt>
      <trkpt lat="41.18085" lon="41.83725">
        <ele>217.987229</ele>
        <time>2021-12-02T05:49:06.495Z</time>
      </trkpt>
      <trkpt lat="41.18074" lon="41.83735">
        <ele>217.952778</ele>
        <time>2021-12-02T05:49:09.539Z</time>
      </trkpt>
      <trkpt lat="41.18064" lon="41.83746">
        <ele>218.061375</ele>
        <time>2021-12-02T05:49:12.499Z</time>
      </trkpt>
      <trkpt lat="41.18056" lon="41.8376">
        <ele>218.189756</ele>
        <time>2021-12-02T05:49:15.548Z</time>
      </trkpt>
      <trkpt lat="41.18047" lon="41.83772">
        <ele>218.322475</ele>
        <time>2021-12-02T05:49:18.496Z</time>
      </trkpt>
      <trkpt lat="41.1804" lon="41.83781">
        <ele>218.412349</ele>
        <time>2021-12-02T05:49:20.493Z</time>
      </trkpt>
      <trkpt lat="41.18034" lon="41.83789">
        <ele>218.502637</ele>
        <time>2021-12-02T05:49:22.477Z</time>
      </trkpt>
      <trkpt lat="41.18027" lon="41.83797">
        <ele>218.593897</ele>
        <time>2021-12-02T05:49:24.507Z</time>
      </trkpt>
      <trkpt lat="41.18019" lon="41.83805">
        <ele>218.690211</ele>
        <time>2021-12-02T05:49:26.493Z</time>
      </trkpt>
      <trkpt lat="41.1801" lon="41.83812">
        <ele>218.790521</ele>
        <time>2021-12-02T05:49:28.492Z</time>
      </trkpt>
      <trkpt lat="41.18002" lon="41.83819">
        <ele>218.887531</ele>
        <time>2021-12-02T05:49:30.494Z</time>
      </trkpt>
      <trkpt lat="41.17993" lon="41.83826">
        <ele>218.989063</ele>
        <time>2021-12-02T05:49:32.500Z</time>
      </trkpt>
      <trkpt lat="41.17984" lon="41.83831">
        <ele>219.089364</ele>
        <time>2021-12-02T05:49:34.498Z</time>
      </trkpt>
      <trkpt lat="41.17975" lon="41.83836">
        <ele>219.181631</ele>
        <time>2021-12-02T05:49:36.494Z</time>
      </trkpt>
      <trkpt lat="41.17967" lon="41.83839">
        <ele>219.271496</ele>
        <time>2021-12-02T05:49:38.503Z</time>
      </trkpt>
      <trkpt lat="41.17954" lon="41.83842">
        <ele>219.402965</ele>
        <time>2021-12-02T05:49:41.503Z</time>
      </trkpt>
      <trkpt lat="41.17941" lon="41.83846">
        <ele>219.53393</ele>
        <time>2021-12-02T05:49:44.500Z</time>
      </trkpt>
      <trkpt lat="41.17932" lon="41.83849">
        <ele>219.626861</ele>
        <time>2021-12-02T05:49:46.507Z</time>
      </trkpt>
      <trkpt lat="41.17922" lon="41.83851">
        <ele>219.725371</ele>
        <time>2021-12-02T05:49:48.481Z</time>
      </trkpt>
      <trkpt lat="41.17912" lon="41.83853">
        <ele>219.627829</ele>
        <time>2021-12-02T05:49:50.494Z</time>
      </trkpt>
      <trkpt lat="41.17902" lon="41.83855">
        <ele>219.509538</ele>
        <time>2021-12-02T05:49:52.499Z</time>
      </trkpt>
      <trkpt lat="41.17892" lon="41.83858">
        <ele>219.385158</ele>
        <time>2021-12-02T05:49:54.508Z</time>
      </trkpt>
      <trkpt lat="41.17882" lon="41.83861">
        <ele>219.263757</ele>
        <time>2021-12-02T05:49:56.509Z</time>
      </trkpt>
      <trkpt lat="41.17872" lon="41.83863">
        <ele>219.145968</ele>
        <time>2021-12-02T05:49:58.497Z</time>
      </trkpt>
      <trkpt lat="41.17862" lon="41.83865">
        <ele>219.035154</ele>
        <time>2021-12-02T05:50:00.511Z</time>
      </trkpt>
      <trkpt lat="41.17853" lon="41.83866">
        <ele>218.923372</ele>
        <time>2021-12-02T05:50:02.501Z</time>
      </trkpt>
      <trkpt lat="41.17843" lon="41.83867">
        <ele>218.810512</ele>
        <time>2021-12-02T05:50:04.483Z</time>
      </trkpt>
      <trkpt lat="41.17834" lon="41.8387">
        <ele>218.698475</ele>
        <time>2021-12-02T05:50:06.506Z</time>
      </trkpt>
      <trkpt lat="41.17825" lon="41.83873">
        <ele>218.586249</ele>
        <time>2021-12-02T05:50:08.503Z</time>
      </trkpt>
      <trkpt lat="41.17816" lon="41.83876">
        <ele>218.479057</ele>
        <time>2021-12-02T05:50:10.485Z</time>
      </trkpt>
      <trkpt lat="41.17807" lon="41.83882">
        <ele>218.36878</ele>
        <time>2021-12-02T05:50:12.497Z</time>
      </trkpt>
      <trkpt lat="41.17799" lon="41.83889">
        <ele>218.255681</ele>
        <time>2021-12-02T05:50:14.561Z</time>
      </trkpt>
      <trkpt lat="41.17792" lon="41.83896">
        <ele>218.14581</ele>
        <time>2021-12-02T05:50:16.526Z</time>
      </trkpt>
      <trkpt lat="41.17785" lon="41.83904">
        <ele>218.037413</ele>
        <time>2021-12-02T05:50:18.515Z</time>
      </trkpt>
      <trkpt lat="41.17778" lon="41.83913">
        <ele>217.927278</ele>
        <time>2021-12-02T05:50:20.506Z</time>
      </trkpt>
      <trkpt lat="41.17772" lon="41.83922">
        <ele>217.818488</ele>
        <time>2021-12-02T05:50:22.494Z</time>
      </trkpt>
      <trkpt lat="41.17765" lon="41.83936">
        <ele>217.666095</ele>
        <time>2021-12-02T05:50:25.567Z</time>
      </trkpt>
      <trkpt lat="41.17759" lon="41.83951">
        <ele>218.012409</ele>
        <time>2021-12-02T05:50:28.510Z</time>
      </trkpt>
      <trkpt lat="41.17756" lon="41.83967">
        <ele>218.550455</ele>
        <time>2021-12-02T05:50:31.514Z</time>
      </trkpt>
      <trkpt lat="41.17753" lon="41.83984">
        <ele>219.107907</ele>
        <time>2021-12-02T05:50:34.491Z</time>
      </trkpt>
      <trkpt lat="41.17751" lon="41.84001">
        <ele>219.65492</ele>
        <time>2021-12-02T05:50:37.503Z</time>
      </trkpt>
      <trkpt lat="41.17749" lon="41.84015">
        <ele>220.115053</ele>
        <time>2021-12-02T05:50:40.495Z</time>
      </trkpt>
      <trkpt lat="41.17747" lon="41.8403">
        <ele>220.582256</ele>
        <time>2021-12-02T05:50:43.504Z</time>
      </trkpt>
      <trkpt lat="41.17746" lon="41.84046">
        <ele>221.114892</ele>
        <time>2021-12-02T05:50:46.495Z</time>
      </trkpt>
      <trkpt lat="41.17745" lon="41.84061">
        <ele>221.591759</ele>
        <time>2021-12-02T05:50:49.499Z</time>
      </trkpt>
      <trkpt lat="41.17745" lon="41.84078">
        <ele>222.135518</ele>
        <time>2021-12-02T05:50:52.499Z</time>
      </trkpt>
      <trkpt lat="41.17747" lon="41.84094">
        <ele>222.662768</ele>
        <time>2021-12-02T05:50:55.493Z</time>
      </trkpt>
      <trkpt lat="41.1775" lon="41.84109">
        <ele>223.157931</ele>
        <time>2021-12-02T05:50:58.561Z</time>
      </trkpt>
      <trkpt lat="41.17756" lon="41.84123">
        <ele>223.664069</ele>
        <time>2021-12-02T05:51:01.507Z</time>
      </trkpt>
      <trkpt lat="41.17762" lon="41.84136">
        <ele>224.17289</ele>
        <time>2021-12-02T05:51:04.494Z</time>
      </trkpt>
      <trkpt lat="41.17768" lon="41.84148">
        <ele>224.648479</ele>
        <time>2021-12-02T05:51:07.495Z</time>
      </trkpt>
      <trkpt lat="41.17775" lon="41.8416">
        <ele>225.137112</ele>
        <time>2021-12-02T05:51:10.511Z</time>
      </trkpt>
      <trkpt lat="41.17782" lon="41.84174">
        <ele>225.799049</ele>
        <time>2021-12-02T05:51:13.498Z</time>
      </trkpt>
      <trkpt lat="41.17789" lon="41.84188">
        <ele>226.539037</ele>
        <time>2021-12-02T05:51:16.501Z</time>
      </trkpt>
      <trkpt lat="41.17794" lon="41.84201">
        <ele>227.229842</ele>
        <time>2021-12-02T05:51:19.493Z</time>
      </trkpt>
      <trkpt lat="41.178" lon="41.84216">
        <ele>227.997223</ele>
        <time>2021-12-02T05:51:22.493Z</time>
      </trkpt>
      <trkpt lat="41.17806" lon="41.8423">
        <ele>228.71542</ele>
        <time>2021-12-02T05:51:25.521Z</time>
      </trkpt>
      <trkpt lat="41.17811" lon="41.84244">
        <ele>229.429159</ele>
        <time>2021-12-02T05:51:28.488Z</time>
      </trkpt>
      <trkpt lat="41.17816" lon="41.84259">
        <ele>230.150522</ele>
        <time>2021-12-02T05:51:31.514Z</time>
      </trkpt>
      <trkpt lat="41.17819" lon="41.84274">
        <ele>230.832278</ele>
        <time>2021-12-02T05:51:34.496Z</time>
      </trkpt>
      <trkpt lat="41.17823" lon="41.84288">
        <ele>231.488455</ele>
        <time>2021-12-02T05:51:37.496Z</time>
      </trkpt>
      <trkpt lat="41.17825" lon="41.84303">
        <ele>232.194706</ele>
        <time>2021-12-02T05:51:40.507Z</time>
      </trkpt>
      <trkpt lat="41.17828" lon="41.84319">
        <ele>232.913529</ele>
        <time>2021-12-02T05:51:43.515Z</time>
      </trkpt>
      <trkpt lat="41.17829" lon="41.84331">
        <ele>233.493242</ele>
        <time>2021-12-02T05:51:46.506Z</time>
      </trkpt>
      <trkpt lat="41.17832" lon="41.84345">
        <ele>234.126777</ele>
        <time>2021-12-02T05:51:49.495Z</time>
      </trkpt>
      <trkpt lat="41.17836" lon="41.84359">
        <ele>234.799849</ele>
        <time>2021-12-02T05:51:52.483Z</time>
      </trkpt>
      <trkpt lat="41.1784" lon="41.84372">
        <ele>235.429797</ele>
        <time>2021-12-02T05:51:55.497Z</time>
      </trkpt>
      <trkpt lat="41.17846" lon="41.84381">
        <ele>235.968798</ele>
        <time>2021-12-02T05:51:58.493Z</time>
      </trkpt>
      <trkpt lat="41.17852" lon="41.84392">
        <ele>235.683845</ele>
        <time>2021-12-02T05:52:01.511Z</time>
      </trkpt>
      <trkpt lat="41.1786" lon="41.84405">
        <ele>235.191366</ele>
        <time>2021-12-02T05:52:04.494Z</time>
      </trkpt>
      <trkpt lat="41.17867" lon="41.84415">
        <ele>234.770147</ele>
        <time>2021-12-02T05:52:07.494Z</time>
      </trkpt>
      <trkpt lat="41.17875" lon="41.84425">
        <ele>234.316797</ele>
        <time>2021-12-02T05:52:10.481Z</time>
      </trkpt>
      <trkpt lat="41.17883" lon="41.84436">
        <ele>233.847022</ele>
        <time>2021-12-02T05:52:13.550Z</time>
      </trkpt>
      <trkpt lat="41.17892" lon="41.84448">
        <ele>233.367928</ele>
        <time>2021-12-02T05:52:16.510Z</time>
      </trkpt>
      <trkpt lat="41.179" lon="41.8446">
        <ele>232.860737</ele>
        <time>2021-12-02T05:52:19.519Z</time>
      </trkpt>
      <trkpt lat="41.17909" lon="41.84471">
        <ele>232.381577</ele>
        <time>2021-12-02T05:52:22.506Z</time>
      </trkpt>
      <trkpt lat="41.17917" lon="41.84483">
        <ele>231.868568</ele>
        <time>2021-12-02T05:52:25.494Z</time>
      </trkpt>
      <trkpt lat="41.17926" lon="41.84497">
        <ele>231.333513</ele>
        <time>2021-12-02T05:52:28.503Z</time>
      </trkpt>
      <trkpt lat="41.17934" lon="41.84508">
        <ele>230.885847</ele>
        <time>2021-12-02T05:52:31.536Z</time>
      </trkpt>
      <trkpt lat="41.17939" lon="41.84517">
        <ele>230.514827</ele>
        <time>2021-12-02T05:52:34.509Z</time>
      </trkpt>
      <trkpt lat="41.17945" lon="41.84527">
        <ele>230.119523</ele>
        <time>2021-12-02T05:52:37.496Z</time>
      </trkpt>
      <trkpt lat="41.17954" lon="41.8454">
        <ele>229.6141</ele>
        <time>2021-12-02T05:52:40.494Z</time>
      </trkpt>
      <trkpt lat="41.17962" lon="41.84552">
        <ele>229.115701</ele>
        <time>2021-12-02T05:52:43.499Z</time>
      </trkpt>
      <trkpt lat="41.17971" lon="41.84562">
        <ele>228.656333</ele>
        <time>2021-12-02T05:52:46.494Z</time>
      </trkpt>
      <trkpt lat="41.17981" lon="41.84572">
        <ele>228.182385</ele>
        <time>2021-12-02T05:52:49.498Z</time>
      </trkpt>
      <trkpt lat="41.17991" lon="41.84581">
        <ele>227.702653</ele>
        <time>2021-12-02T05:52:52.477Z</time>
      </trkpt>
      <trkpt lat="41.18001" lon="41.84588">
        <ele>227.278887</ele>
        <time>2021-12-02T05:52:55.550Z</time>
      </trkpt>
      <trkpt lat="41.18012" lon="41.84593">
        <ele>226.847209</ele>
        <time>2021-12-02T05:52:58.498Z</time>
      </trkpt>
      <trkpt lat="41.18023" lon="41.84601">
        <ele>226.380809</ele>
        <time>2021-12-02T05:53:01.508Z</time>
      </trkpt>
      <trkpt lat="41.18034" lon="41.84609">
        <ele>225.872741</ele>
        <time>2021-12-02T05:53:04.498Z</time>
      </trkpt>
      <trkpt lat="41.18045" lon="41.84618">
        <ele>225.373501</ele>
        <time>2021-12-02T05:53:07.512Z</time>
      </trkpt>
      <trkpt lat="41.18053" lon="41.84624">
        <ele>225.029733</ele>
        <time>2021-12-02T05:53:09.500Z</time>
      </trkpt>
      <trkpt lat="41.18064" lon="41.84632">
        <ele>224.549446</ele>
        <time>2021-12-02T05:53:12.505Z</time>
      </trkpt>
      <trkpt lat="41.18074" lon="41.84641">
        <ele>224.098297</ele>
        <time>2021-12-02T05:53:15.511Z</time>
      </trkpt>
      <trkpt lat="41.18084" lon="41.84649">
        <ele>223.650089</ele>
        <time>2021-12-02T05:53:18.500Z</time>
      </trkpt>
      <trkpt lat="41.18095" lon="41.84657">
        <ele>223.188427</ele>
        <time>2021-12-02T05:53:21.501Z</time>
      </trkpt>
      <trkpt lat="41.18104" lon="41.84666">
        <ele>222.75605</ele>
        <time>2021-12-02T05:53:24.518Z</time>
      </trkpt>
      <trkpt lat="41.18112" lon="41.84677">
        <ele>222.306202</ele>
        <time>2021-12-02T05:53:27.505Z</time>
      </trkpt>
      <trkpt lat="41.1812" lon="41.84689">
        <ele>222.083906</ele>
        <time>2021-12-02T05:53:30.511Z</time>
      </trkpt>
      <trkpt lat="41.18127" lon="41.84701">
        <ele>222.71273</ele>
        <time>2021-12-02T05:53:33.515Z</time>
      </trkpt>
      <trkpt lat="41.18134" lon="41.84716">
        <ele>223.39534</ele>
        <time>2021-12-02T05:53:36.493Z</time>
      </trkpt>
      <trkpt lat="41.1814" lon="41.8473">
        <ele>224.043786</ele>
        <time>2021-12-02T05:53:39.490Z</time>
      </trkpt>
      <trkpt lat="41.18145" lon="41.84745">
        <ele>224.713905</ele>
        <time>2021-12-02T05:53:42.528Z</time>
      </trkpt>
      <trkpt lat="41.1815" lon="41.8476">
        <ele>225.373319</ele>
        <time>2021-12-02T05:53:45.497Z</time>
      </trkpt>
      <trkpt lat="41.18154" lon="41.84775">
        <ele>226.039981</ele>
        <time>2021-12-02T05:53:48.495Z</time>
      </trkpt>
      <trkpt lat="41.18159" lon="41.84791">
        <ele>226.717994</ele>
        <time>2021-12-02T05:53:51.518Z</time>
      </trkpt>
      <trkpt lat="41.18163" lon="41.84807">
        <ele>227.398361</ele>
        <time>2021-12-02T05:53:54.531Z</time>
      </trkpt>
      <trkpt lat="41.18167" lon="41.84822">
        <ele>228.05</ele>
        <time>2021-12-02T05:53:57.494Z</time>
      </trkpt>
      <trkpt lat="41.18171" lon="41.84837">
        <ele>228.659035</ele>
        <time>2021-12-02T05:54:00.521Z</time>
      </trkpt>
      <trkpt lat="41.18174" lon="41.84851">
        <ele>229.267218</ele>
        <time>2021-12-02T05:54:03.510Z</time>
      </trkpt>
      <trkpt lat="41.18178" lon="41.84865">
        <ele>229.879548</ele>
        <time>2021-12-02T05:54:06.486Z</time>
      </trkpt>
      <trkpt lat="41.18182" lon="41.84878">
        <ele>230.430977</ele>
        <time>2021-12-02T05:54:09.510Z</time>
      </trkpt>
      <trkpt lat="41.18186" lon="41.84891">
        <ele>231.016749</ele>
        <time>2021-12-02T05:54:12.517Z</time>
      </trkpt>
      <trkpt lat="41.1819" lon="41.84905">
        <ele>231.590215</ele>
        <time>2021-12-02T05:54:15.510Z</time>
      </trkpt>
      <trkpt lat="41.18194" lon="41.84919">
        <ele>232.102763</ele>
        <time>2021-12-02T05:54:18.506Z</time>
      </trkpt>
      <trkpt lat="41.18198" lon="41.84935">
        <ele>232.639758</ele>
        <time>2021-12-02T05:54:21.551Z</time>
      </trkpt>
      <trkpt lat="41.18202" lon="41.8495">
        <ele>233.169728</ele>
        <time>2021-12-02T05:54:24.506Z</time>
      </trkpt>
      <trkpt lat="41.18205" lon="41.84966">
        <ele>233.694502</ele>
        <time>2021-12-02T05:54:27.488Z</time>
      </trkpt>
      <trkpt lat="41.18206" lon="41.84981">
        <ele>234.205422</ele>
        <time>2021-12-02T05:54:30.516Z</time>
      </trkpt>
      <trkpt lat="41.18208" lon="41.84993">
        <ele>234.608784</ele>
        <time>2021-12-02T05:54:33.524Z</time>
      </trkpt>
      <trkpt lat="41.18209" lon="41.85006">
        <ele>235.041967</ele>
        <time>2021-12-02T05:54:36.490Z</time>
      </trkpt>
      <trkpt lat="41.18208" lon="41.85021">
        <ele>235.511764</ele>
        <time>2021-12-02T05:54:39.491Z</time>
      </trkpt>
      <trkpt lat="41.18207" lon="41.85036">
        <ele>236.01607</ele>
        <time>2021-12-02T05:54:42.507Z</time>
      </trkpt>
      <trkpt lat="41.18206" lon="41.85053">
        <ele>236.564181</ele>
        <time>2021-12-02T05:54:45.498Z</time>
      </trkpt>
      <trkpt lat="41.18206" lon="41.8507">
        <ele>237.121928</ele>
        <time>2021-12-02T05:54:48.492Z</time>
      </trkpt>
      <trkpt lat="41.18205" lon="41.85087">
        <ele>237.683358</ele>
        <time>2021-12-02T05:54:51.514Z</time>
      </trkpt>
      <trkpt lat="41.18204" lon="41.85104">
        <ele>238.259069</ele>
        <time>2021-12-02T05:54:54.511Z</time>
      </trkpt>
      <trkpt lat="41.18201" lon="41.85122">
        <ele>238.853698</ele>
        <time>2021-12-02T05:54:57.496Z</time>
      </trkpt>
      <trkpt lat="41.18197" lon="41.85138">
        <ele>239.410676</ele>
        <time>2021-12-02T05:55:00.469Z</time>
      </trkpt>
      <trkpt lat="41.18191" lon="41.85152">
        <ele>239.44629</ele>
        <time>2021-12-02T05:55:03.511Z</time>
      </trkpt>
      <trkpt lat="41.18187" lon="41.85163">
        <ele>239.467384</ele>
        <time>2021-12-02T05:55:06.502Z</time>
      </trkpt>
      <trkpt lat="41.18182" lon="41.85177">
        <ele>239.491676</ele>
        <time>2021-12-02T05:55:09.538Z</time>
      </trkpt>
      <trkpt lat="41.18176" lon="41.8519">
        <ele>239.516377</ele>
        <time>2021-12-02T05:55:12.495Z</time>
      </trkpt>
      <trkpt lat="41.18176" lon="41.85202">
        <ele>239.535937</ele>
        <time>2021-12-02T05:55:16.496Z</time>
      </trkpt>
      <trkpt lat="41.18175" lon="41.8524">
        <ele>239.595918</ele>
        <time>2021-12-02T05:55:25.486Z</time>
      </trkpt>
      <trkpt lat="41.18165" lon="41.85253">
        <ele>239.625902</ele>
        <time>2021-12-02T05:55:26.496Z</time>
      </trkpt>
      <trkpt lat="41.18154" lon="41.85265">
        <ele>239.656898</ele>
        <time>2021-12-02T05:55:27.496Z</time>
      </trkpt>
      <trkpt lat="41.18145" lon="41.85272">
        <ele>239.677735</ele>
        <time>2021-12-02T05:55:28.508Z</time>
      </trkpt>
      <trkpt lat="41.18134" lon="41.85288">
        <ele>239.713354</ele>
        <time>2021-12-02T05:55:30.512Z</time>
      </trkpt>
      <trkpt lat="41.18127" lon="41.85299">
        <ele>239.736649</ele>
        <time>2021-12-02T05:55:32.503Z</time>
      </trkpt>
      <trkpt lat="41.18119" lon="41.85312">
        <ele>239.762918</ele>
        <time>2021-12-02T05:55:35.499Z</time>
      </trkpt>
      <trkpt lat="41.18111" lon="41.85323">
        <ele>239.786954</ele>
        <time>2021-12-02T05:55:39.489Z</time>
      </trkpt>
      <trkpt lat="41.18106" lon="41.85333">
        <ele>239.761638</ele>
        <time>2021-12-02T05:55:42.484Z</time>
      </trkpt>
      <trkpt lat="41.18101" lon="41.85346">
        <ele>239.221886</ele>
        <time>2021-12-02T05:55:46.499Z</time>
      </trkpt>
      <trkpt lat="41.18097" lon="41.85357">
        <ele>238.756982</ele>
        <time>2021-12-02T05:55:49.490Z</time>
      </trkpt>
      <trkpt lat="41.18092" lon="41.85369">
        <ele>238.270006</ele>
        <time>2021-12-02T05:55:52.495Z</time>
      </trkpt>
      <trkpt lat="41.18088" lon="41.85382">
        <ele>237.735222</ele>
        <time>2021-12-02T05:55:55.509Z</time>
      </trkpt>
      <trkpt lat="41.18086" lon="41.85394">
        <ele>237.2663</ele>
        <time>2021-12-02T05:55:58.496Z</time>
      </trkpt>
      <trkpt lat="41.18083" lon="41.85409">
        <ele>236.674464</ele>
        <time>2021-12-02T05:56:02.503Z</time>
      </trkpt>
      <trkpt lat="41.18081" lon="41.85424">
        <ele>236.095231</ele>
        <time>2021-12-02T05:56:06.496Z</time>
      </trkpt>
      <trkpt lat="41.1808" lon="41.85438">
        <ele>235.554803</ele>
        <time>2021-12-02T05:56:10.498Z</time>
      </trkpt>
      <trkpt lat="41.1808" lon="41.85453">
        <ele>235.004865</ele>
        <time>2021-12-02T05:56:14.514Z</time>
      </trkpt>
      <trkpt lat="41.1808" lon="41.85467">
        <ele>234.453904</ele>
        <time>2021-12-02T05:56:18.498Z</time>
      </trkpt>
      <trkpt lat="41.18081" lon="41.85483">
        <ele>233.857834</ele>
        <time>2021-12-02T05:56:22.513Z</time>
      </trkpt>
      <trkpt lat="41.18081" lon="41.85497">
        <ele>233.352561</ele>
        <time>2021-12-02T05:56:25.499Z</time>
      </trkpt>
      <trkpt lat="41.18079" lon="41.85509">
        <ele>232.875856</ele>
        <time>2021-12-02T05:56:28.499Z</time>
      </trkpt>
      <trkpt lat="41.18075" lon="41.85522">
        <ele>232.345019</ele>
        <time>2021-12-02T05:56:31.501Z</time>
      </trkpt>
      <trkpt lat="41.1807" lon="41.85533">
        <ele>231.873893</ele>
        <time>2021-12-02T05:56:34.549Z</time>
      </trkpt>
      <trkpt lat="41.18064" lon="41.85543">
        <ele>231.379533</ele>
        <time>2021-12-02T05:56:37.509Z</time>
      </trkpt>
      <trkpt lat="41.18055" lon="41.85551">
        <ele>230.839171</ele>
        <time>2021-12-02T05:56:40.498Z</time>
      </trkpt>
      <trkpt lat="41.18045" lon="41.85557">
        <ele>230.835055</ele>
        <time>2021-12-02T05:56:43.495Z</time>
      </trkpt>
      <trkpt lat="41.18035" lon="41.8556">
        <ele>230.864059</ele>
        <time>2021-12-02T05:56:46.501Z</time>
      </trkpt>
      <trkpt lat="41.18025" lon="41.85558">
        <ele>230.891423</ele>
        <time>2021-12-02T05:56:49.504Z</time>
      </trkpt>
      <trkpt lat="41.18016" lon="41.85555">
        <ele>230.91788</ele>
        <time>2021-12-02T05:56:52.504Z</time>
      </trkpt>
      <trkpt lat="41.18007" lon="41.85551">
        <ele>230.945933</ele>
        <time>2021-12-02T05:56:55.534Z</time>
      </trkpt>
      <trkpt lat="41.17997" lon="41.85548">
        <ele>230.97398</ele>
        <time>2021-12-02T05:56:58.502Z</time>
      </trkpt>
      <trkpt lat="41.17987" lon="41.85545">
        <ele>231.003631</ele>
        <time>2021-12-02T05:57:01.497Z</time>
      </trkpt>
      <trkpt lat="41.17976" lon="41.85543">
        <ele>231.035153</ele>
        <time>2021-12-02T05:57:04.494Z</time>
      </trkpt>
      <trkpt lat="41.17965" lon="41.85541">
        <ele>231.066895</ele>
        <time>2021-12-02T05:57:07.483Z</time>
      </trkpt>
      <trkpt lat="41.17953" lon="41.85538">
        <ele>231.101194</ele>
        <time>2021-12-02T05:57:10.501Z</time>
      </trkpt>
      <trkpt lat="41.17941" lon="41.85534">
        <ele>231.135106</ele>
        <time>2021-12-02T05:57:13.519Z</time>
      </trkpt>
      <trkpt lat="41.17932" lon="41.85525">
        <ele>231.167106</ele>
        <time>2021-12-02T05:57:16.491Z</time>
      </trkpt>
      <trkpt lat="41.17926" lon="41.85514">
        <ele>231.196858</ele>
        <time>2021-12-02T05:57:19.499Z</time>
      </trkpt>
      <trkpt lat="41.17925" lon="41.85501">
        <ele>231.22484</ele>
        <time>2021-12-02T05:57:22.510Z</time>
      </trkpt>
      <trkpt lat="41.17924" lon="41.85489">
        <ele>231.250654</ele>
        <time>2021-12-02T05:57:25.520Z</time>
      </trkpt>
      <trkpt lat="41.17924" lon="41.85476">
        <ele>231.277541</ele>
        <time>2021-12-02T05:57:29.497Z</time>
      </trkpt>
      <trkpt lat="41.17926" lon="41.85464">
        <ele>231.304327</ele>
        <time>2021-12-02T05:57:35.523Z</time>
      </trkpt>
      <trkpt lat="41.17928" lon="41.85452">
        <ele>231.775687</ele>
        <time>2021-12-02T05:57:41.504Z</time>
      </trkpt>
      <trkpt lat="41.17931" lon="41.8544">
        <ele>232.540409</ele>
        <time>2021-12-02T05:57:46.492Z</time>
      </trkpt>
      <trkpt lat="41.17934" lon="41.85428">
        <ele>233.356909</ele>
        <time>2021-12-02T05:57:52.496Z</time>
      </trkpt>
      <trkpt lat="41.17937" lon="41.85415">
        <ele>234.153048</ele>
        <time>2021-12-02T05:58:01.499Z</time>
      </trkpt>
      <trkpt lat="41.1794" lon="41.85404">
        <ele>234.902977</ele>
        <time>2021-12-02T05:58:08.497Z</time>
      </trkpt>
      <trkpt lat="41.17943" lon="41.85393">
        <ele>235.657426</ele>
        <time>2021-12-02T05:58:13.492Z</time>
      </trkpt>
      <trkpt lat="41.17948" lon="41.85381">
        <ele>236.431603</ele>
        <time>2021-12-02T05:58:18.495Z</time>
      </trkpt>
      <trkpt lat="41.17951" lon="41.85369">
        <ele>237.219107</ele>
        <time>2021-12-02T05:58:23.506Z</time>
      </trkpt>
      <trkpt lat="41.17954" lon="41.85357">
        <ele>238.027496</ele>
        <time>2021-12-02T05:58:29.504Z</time>
      </trkpt>
      <trkpt lat="41.17956" lon="41.85345">
        <ele>238.79395</ele>
        <time>2021-12-02T05:58:35.500Z</time>
      </trkpt>
      <trkpt lat="41.17959" lon="41.85332">
        <ele>239.634272</ele>
        <time>2021-12-02T05:58:42.506Z</time>
      </trkpt>
      <trkpt lat="41.17962" lon="41.85319">
        <ele>240.47797</ele>
        <time>2021-12-02T05:58:48.490Z</time>
      </trkpt>
      <trkpt lat="41.17965" lon="41.85307">
        <ele>241.274215</ele>
        <time>2021-12-02T05:58:54.506Z</time>
      </trkpt>
      <trkpt lat="41.17966" lon="41.85295">
        <ele>242.029417</ele>
        <time>2021-12-02T05:59:01.494Z</time>
      </trkpt>
      <trkpt lat="41.17969" lon="41.85281">
        <ele>242.912809</ele>
        <time>2021-12-02T05:59:08.517Z</time>
      </trkpt>
      <trkpt lat="41.17973" lon="41.85269">
        <ele>243.701195</ele>
        <time>2021-12-02T05:59:14.498Z</time>
      </trkpt>
      <trkpt lat="41.17976" lon="41.85258">
        <ele>244.456865</ele>
        <time>2021-12-02T05:59:20.494Z</time>
      </trkpt>
      <trkpt lat="41.17981" lon="41.85246">
        <ele>245.305022</ele>
        <time>2021-12-02T05:59:27.523Z</time>
      </trkpt>
      <trkpt lat="41.17984" lon="41.85234">
        <ele>246.073108</ele>
        <time>2021-12-02T05:59:34.498Z</time>
      </trkpt>
      <trkpt lat="41.17987" lon="41.85222">
        <ele>246.998854</ele>
        <time>2021-12-02T05:59:40.500Z</time>
      </trkpt>
      <trkpt lat="41.17989" lon="41.8521">
        <ele>247.95492</ele>
        <time>2021-12-02T05:59:46.497Z</time>
      </trkpt>
      <trkpt lat="41.17993" lon="41.85197">
        <ele>248.994962</ele>
        <time>2021-12-02T05:59:53.518Z</time>
      </trkpt>
      <trkpt lat="41.17997" lon="41.85185">
        <ele>249.968246</ele>
        <time>2021-12-02T05:59:59.492Z</time>
      </trkpt>
      <trkpt lat="41.17999" lon="41.85173">
        <ele>250.876632</ele>
        <time>2021-12-02T06:00:05.493Z</time>
      </trkpt>
      <trkpt lat="41.18002" lon="41.85162">
        <ele>251.783992</ele>
        <time>2021-12-02T06:00:12.508Z</time>
      </trkpt>
      <trkpt lat="41.18007" lon="41.85149">
        <ele>252.813885</ele>
        <time>2021-12-02T06:00:19.498Z</time>
      </trkpt>
      <trkpt lat="41.1801" lon="41.85137">
        <ele>253.81112</ele>
        <time>2021-12-02T06:00:26.504Z</time>
      </trkpt>
      <trkpt lat="41.18013" lon="41.85124">
        <ele>254.784746</ele>
        <time>2021-12-02T06:00:33.494Z</time>
      </trkpt>
      <trkpt lat="41.18016" lon="41.85113">
        <ele>255.688991</ele>
        <time>2021-12-02T06:00:40.496Z</time>
      </trkpt>
      <trkpt lat="41.18019" lon="41.85101">
        <ele>256.596231</ele>
        <time>2021-12-02T06:00:47.506Z</time>
      </trkpt>
      <trkpt lat="41.18022" lon="41.8509">
        <ele>257.499479</ele>
        <time>2021-12-02T06:00:53.502Z</time>
      </trkpt>
      <trkpt lat="41.18025" lon="41.85078">
        <ele>258.45192</ele>
        <time>2021-12-02T06:00:59.529Z</time>
      </trkpt>
      <trkpt lat="41.18028" lon="41.85067">
        <ele>259.362483</ele>
        <time>2021-12-02T06:01:05.500Z</time>
      </trkpt>
      <trkpt lat="41.18031" lon="41.85054">
        <ele>260.336107</ele>
        <time>2021-12-02T06:01:12.491Z</time>
      </trkpt>
      <trkpt lat="41.18032" lon="41.85042">
        <ele>261.241399</ele>
        <time>2021-12-02T06:01:19.512Z</time>
      </trkpt>
      <trkpt lat="41.18032" lon="41.85029">
        <ele>262.203174</ele>
        <time>2021-12-02T06:01:26.490Z</time>
      </trkpt>
      <trkpt lat="41.18034" lon="41.85016">
        <ele>263.213961</ele>
        <time>2021-12-02T06:01:33.509Z</time>
      </trkpt>
      <trkpt lat="41.18033" lon="41.85003">
        <ele>264.11756</ele>
        <time>2021-12-02T06:01:40.504Z</time>
      </trkpt>
      <trkpt lat="41.18032" lon="41.84989">
        <ele>264.694226</ele>
        <time>2021-12-02T06:01:47.537Z</time>
      </trkpt>
      <trkpt lat="41.18032" lon="41.84977">
        <ele>265.196859</ele>
        <time>2021-12-02T06:01:53.501Z</time>
      </trkpt>
      <trkpt lat="41.18032" lon="41.84965">
        <ele>265.716142</ele>
        <time>2021-12-02T06:02:00.504Z</time>
      </trkpt>
      <trkpt lat="41.1803" lon="41.84953">
        <ele>266.240113</ele>
        <time>2021-12-02T06:02:06.512Z</time>
      </trkpt>
      <trkpt lat="41.18029" lon="41.8494">
        <ele>266.801849</ele>
        <time>2021-12-02T06:02:13.498Z</time>
      </trkpt>
      <trkpt lat="41.18027" lon="41.84927">
        <ele>267.328711</ele>
        <time>2021-12-02T06:02:20.489Z</time>
      </trkpt>
      <trkpt lat="41.18025" lon="41.84915">
        <ele>267.867597</ele>
        <time>2021-12-02T06:02:27.528Z</time>
      </trkpt>
      <trkpt lat="41.18024" lon="41.84902">
        <ele>268.410609</ele>
        <time>2021-12-02T06:02:35.509Z</time>
      </trkpt>
      <trkpt lat="41.18022" lon="41.84889">
        <ele>268.9849</ele>
        <time>2021-12-02T06:02:43.490Z</time>
      </trkpt>
      <trkpt lat="41.18019" lon="41.84877">
        <ele>269.492668</ele>
        <time>2021-12-02T06:02:49.530Z</time>
      </trkpt>
      <trkpt lat="41.18015" lon="41.84866">
        <ele>270.018201</ele>
        <time>2021-12-02T06:02:55.504Z</time>
      </trkpt>
      <trkpt lat="41.18012" lon="41.84854">
        <ele>270.573179</ele>
        <time>2021-12-02T06:03:02.497Z</time>
      </trkpt>
      <trkpt lat="41.18007" lon="41.84842">
        <ele>271.129074</ele>
        <time>2021-12-02T06:03:09.533Z</time>
      </trkpt>
      <trkpt lat="41.18001" lon="41.84832">
        <ele>271.678664</ele>
        <time>2021-12-02T06:03:16.506Z</time>
      </trkpt>
      <trkpt lat="41.17995" lon="41.84822">
        <ele>272.228816</ele>
        <time>2021-12-02T06:03:24.505Z</time>
      </trkpt>
      <trkpt lat="41.17986" lon="41.84816">
        <ele>272.772449</ele>
        <time>2021-12-02T06:03:32.497Z</time>
      </trkpt>
      <trkpt lat="41.17977" lon="41.84811">
        <ele>273.328136</ele>
        <time>2021-12-02T06:03:39.494Z</time>
      </trkpt>
      <trkpt lat="41.17968" lon="41.84807">
        <ele>273.868274</ele>
        <time>2021-12-02T06:03:46.492Z</time>
      </trkpt>
      <trkpt lat="41.17958" lon="41.84806">
        <ele>274.607899</ele>
        <time>2021-12-02T06:03:53.506Z</time>
      </trkpt>
      <trkpt lat="41.17948" lon="41.84803">
        <ele>275.458118</ele>
        <time>2021-12-02T06:04:00.508Z</time>
      </trkpt>
      <trkpt lat="41.17938" lon="41.848">
        <ele>276.289076</ele>
        <time>2021-12-02T06:04:07.515Z</time>
      </trkpt>
      <trkpt lat="41.17928" lon="41.84798">
        <ele>277.127121</ele>
        <time>2021-12-02T06:04:15.505Z</time>
      </trkpt>
      <trkpt lat="41.17919" lon="41.84796">
        <ele>277.962964</ele>
        <time>2021-12-02T06:04:22.495Z</time>
      </trkpt>
      <trkpt lat="41.17909" lon="41.84793">
        <ele>278.819819</ele>
        <time>2021-12-02T06:04:29.526Z</time>
      </trkpt>
      <trkpt lat="41.17899" lon="41.8479">
        <ele>279.671045</ele>
        <time>2021-12-02T06:04:36.488Z</time>
      </trkpt>
      <trkpt lat="41.17889" lon="41.84786">
        <ele>280.565137</ele>
        <time>2021-12-02T06:04:43.498Z</time>
      </trkpt>
      <trkpt lat="41.17879" lon="41.84786">
        <ele>281.382092</ele>
        <time>2021-12-02T06:04:51.508Z</time>
      </trkpt>
      <trkpt lat="41.17869" lon="41.84784">
        <ele>282.177565</ele>
        <time>2021-12-02T06:04:58.499Z</time>
      </trkpt>
      <trkpt lat="41.1786" lon="41.84781">
        <ele>283.012348</ele>
        <time>2021-12-02T06:05:06.536Z</time>
      </trkpt>
      <trkpt lat="41.1785" lon="41.84779">
        <ele>283.86694</ele>
        <time>2021-12-02T06:05:13.511Z</time>
      </trkpt>
      <trkpt lat="41.1784" lon="41.84775">
        <ele>284.689013</ele>
        <time>2021-12-02T06:05:21.502Z</time>
      </trkpt>
      <trkpt lat="41.17831" lon="41.84772">
        <ele>285.486974</ele>
        <time>2021-12-02T06:05:29.505Z</time>
      </trkpt>
      <trkpt lat="41.17821" lon="41.84771">
        <ele>286.340342</ele>
        <time>2021-12-02T06:05:36.525Z</time>
      </trkpt>
      <trkpt lat="41.17811" lon="41.8477">
        <ele>287.183701</ele>
        <time>2021-12-02T06:05:43.522Z</time>
      </trkpt>
      <trkpt lat="41.17802" lon="41.84768">
        <ele>287.975007</ele>
        <time>2021-12-02T06:05:50.511Z</time>
      </trkpt>
      <trkpt lat="41.17792" lon="41.84765">
        <ele>288.799215</ele>
        <time>2021-12-02T06:05:57.509Z</time>
      </trkpt>
      <trkpt lat="41.17783" lon="41.84762">
        <ele>289.669469</ele>
        <time>2021-12-02T06:06:05.538Z</time>
      </trkpt>
      <trkpt lat="41.17774" lon="41.84761">
        <ele>290.644623</ele>
        <time>2021-12-02T06:06:13.505Z</time>
      </trkpt>
      <trkpt lat="41.17765" lon="41.84759">
        <ele>291.628147</ele>
        <time>2021-12-02T06:06:20.501Z</time>
      </trkpt>
      <trkpt lat="41.17755" lon="41.84757">
        <ele>292.670292</ele>
        <time>2021-12-02T06:06:27.493Z</time>
      </trkpt>
      <trkpt lat="41.17746" lon="41.84758">
        <ele>293.636666</ele>
        <time>2021-12-02T06:06:33.503Z</time>
      </trkpt>
      <trkpt lat="41.17736" lon="41.8476">
        <ele>294.658087</ele>
        <time>2021-12-02T06:06:40.510Z</time>
      </trkpt>
      <trkpt lat="41.17727" lon="41.84764">
        <ele>295.650886</ele>
        <time>2021-12-02T06:06:47.503Z</time>
      </trkpt>
      <trkpt lat="41.17718" lon="41.8477">
        <ele>296.711594</ele>
        <time>2021-12-02T06:06:54.549Z</time>
      </trkpt>
      <trkpt lat="41.17711" lon="41.84779">
        <ele>297.752572</ele>
        <time>2021-12-02T06:07:01.491Z</time>
      </trkpt>
      <trkpt lat="41.17704" lon="41.84787">
        <ele>298.72993</ele>
        <time>2021-12-02T06:07:09.564Z</time>
      </trkpt>
      <trkpt lat="41.17699" lon="41.84797">
        <ele>299.686104</ele>
        <time>2021-12-02T06:07:16.499Z</time>
      </trkpt>
      <trkpt lat="41.17695" lon="41.84809">
        <ele>300.732794</ele>
        <time>2021-12-02T06:07:24.506Z</time>
      </trkpt>
      <trkpt lat="41.17693" lon="41.84821">
        <ele>301.701079</ele>
        <time>2021-12-02T06:07:31.501Z</time>
      </trkpt>
      <trkpt lat="41.17691" lon="41.84834">
        <ele>302.767185</ele>
        <time>2021-12-02T06:07:39.525Z</time>
      </trkpt>
      <trkpt lat="41.17689" lon="41.84847">
        <ele>303.775211</ele>
        <time>2021-12-02T06:07:47.498Z</time>
      </trkpt>
      <trkpt lat="41.1769" lon="41.8486">
        <ele>304.854996</ele>
        <time>2021-12-02T06:07:55.485Z</time>
      </trkpt>
      <trkpt lat="41.17693" lon="41.84872">
        <ele>305.814453</ele>
        <time>2021-12-02T06:08:02.517Z</time>
      </trkpt>
      <trkpt lat="41.17698" lon="41.84882">
        <ele>306.752767</ele>
        <time>2021-12-02T06:08:09.550Z</time>
      </trkpt>
      <trkpt lat="41.17705" lon="41.84891">
        <ele>307.819091</ele>
        <time>2021-12-02T06:08:16.508Z</time>
      </trkpt>
      <trkpt lat="41.17712" lon="41.84901">
        <ele>308.591922</ele>
        <time>2021-12-02T06:08:24.509Z</time>
      </trkpt>
      <trkpt lat="41.1772" lon="41.84907">
        <ele>309.227659</ele>
        <time>2021-12-02T06:08:30.518Z</time>
      </trkpt>
      <trkpt lat="41.17727" lon="41.84915">
        <ele>309.838889</ele>
        <time>2021-12-02T06:08:37.488Z</time>
      </trkpt>
      <trkpt lat="41.17735" lon="41.84922">
        <ele>310.498267</ele>
        <time>2021-12-02T06:08:44.500Z</time>
      </trkpt>
      <trkpt lat="41.17743" lon="41.84928">
        <ele>311.114171</ele>
        <time>2021-12-02T06:08:51.565Z</time>
      </trkpt>
      <trkpt lat="41.17751" lon="41.84935">
        <ele>311.739157</ele>
        <time>2021-12-02T06:08:59.499Z</time>
      </trkpt>
      <trkpt lat="41.1776" lon="41.84939">
        <ele>312.397789</ele>
        <time>2021-12-02T06:09:07.501Z</time>
      </trkpt>
      <trkpt lat="41.17768" lon="41.84947">
        <ele>313.081545</ele>
        <time>2021-12-02T06:09:16.510Z</time>
      </trkpt>
      <trkpt lat="41.17777" lon="41.84951">
        <ele>313.744792</ele>
        <time>2021-12-02T06:09:24.536Z</time>
      </trkpt>
      <trkpt lat="41.17786" lon="41.84957">
        <ele>314.386925</ele>
        <time>2021-12-02T06:09:32.499Z</time>
      </trkpt>
      <trkpt lat="41.17795" lon="41.8496">
        <ele>315.051708</ele>
        <time>2021-12-02T06:09:41.556Z</time>
      </trkpt>
      <trkpt lat="41.17805" lon="41.84964">
        <ele>315.741394</ele>
        <time>2021-12-02T06:09:49.508Z</time>
      </trkpt>
      <trkpt lat="41.17814" lon="41.84968">
        <ele>316.419134</ele>
        <time>2021-12-02T06:09:57.498Z</time>
      </trkpt>
      <trkpt lat="41.17824" lon="41.8497">
        <ele>317.075416</ele>
        <time>2021-12-02T06:10:05.498Z</time>
      </trkpt>
      <trkpt lat="41.17834" lon="41.84972">
        <ele>317.765631</ele>
        <time>2021-12-02T06:10:13.498Z</time>
      </trkpt>
      <trkpt lat="41.17843" lon="41.84974">
        <ele>318.393196</ele>
        <time>2021-12-02T06:10:21.526Z</time>
      </trkpt>
      <trkpt lat="41.17852" lon="41.84976">
        <ele>319.01243</ele>
        <time>2021-12-02T06:10:29.517Z</time>
      </trkpt>
      <trkpt lat="41.17862" lon="41.84976">
        <ele>319.684269</ele>
        <time>2021-12-02T06:10:38.500Z</time>
      </trkpt>
      <trkpt lat="41.17872" lon="41.84976">
        <ele>320.349258</ele>
        <time>2021-12-02T06:10:46.506Z</time>
      </trkpt>
      <trkpt lat="41.17881" lon="41.84979">
        <ele>321.042916</ele>
        <time>2021-12-02T06:10:54.492Z</time>
      </trkpt>
      <trkpt lat="41.17891" lon="41.84981">
        <ele>321.78351</ele>
        <time>2021-12-02T06:11:02.497Z</time>
      </trkpt>
      <trkpt lat="41.17899" lon="41.84986">
        <ele>322.493224</ele>
        <time>2021-12-02T06:11:09.503Z</time>
      </trkpt>
      <trkpt lat="41.17908" lon="41.84991">
        <ele>323.214068</ele>
        <time>2021-12-02T06:11:16.504Z</time>
      </trkpt>
      <trkpt lat="41.17916" lon="41.84998">
        <ele>323.92891</ele>
        <time>2021-12-02T06:11:24.503Z</time>
      </trkpt>
      <trkpt lat="41.17922" lon="41.85009">
        <ele>324.667053</ele>
        <time>2021-12-02T06:11:33.509Z</time>
      </trkpt>
      <trkpt lat="41.17928" lon="41.85018">
        <ele>325.351326</ele>
        <time>2021-12-02T06:11:40.492Z</time>
      </trkpt>
      <trkpt lat="41.17931" lon="41.8503">
        <ele>326.043025</ele>
        <time>2021-12-02T06:11:47.512Z</time>
      </trkpt>
      <trkpt lat="41.17929" lon="41.85043">
        <ele>326.787093</ele>
        <time>2021-12-02T06:11:58.495Z</time>
      </trkpt>
      <trkpt lat="41.17928" lon="41.85055">
        <ele>327.468017</ele>
        <time>2021-12-02T06:12:06.495Z</time>
      </trkpt>
      <trkpt lat="41.17927" lon="41.85068">
        <ele>328.189887</ele>
        <time>2021-12-02T06:12:13.518Z</time>
      </trkpt>
      <trkpt lat="41.17925" lon="41.85081">
        <ele>328.926604</ele>
        <time>2021-12-02T06:12:20.493Z</time>
      </trkpt>
      <trkpt lat="41.17922" lon="41.85092">
        <ele>329.609958</ele>
        <time>2021-12-02T06:12:27.522Z</time>
      </trkpt>
      <trkpt lat="41.17917" lon="41.85102">
        <ele>330.290225</ele>
        <time>2021-12-02T06:12:34.519Z</time>
      </trkpt>
      <trkpt lat="41.17914" lon="41.85114">
        <ele>330.973441</ele>
        <time>2021-12-02T06:12:41.514Z</time>
      </trkpt>
      <trkpt lat="41.17908" lon="41.85123">
        <ele>331.674139</ele>
        <time>2021-12-02T06:12:48.508Z</time>
      </trkpt>
      <trkpt lat="41.17904" lon="41.85136">
        <ele>332.42361</ele>
        <time>2021-12-02T06:12:56.530Z</time>
      </trkpt>
      <trkpt lat="41.179" lon="41.85148">
        <ele>333.158517</ele>
        <time>2021-12-02T06:13:04.511Z</time>
      </trkpt>
      <trkpt lat="41.17896" lon="41.85159">
        <ele>333.915158</ele>
        <time>2021-12-02T06:13:13.504Z</time>
      </trkpt>
      <trkpt lat="41.1789" lon="41.85168">
        <ele>334.722977</ele>
        <time>2021-12-02T06:13:21.496Z</time>
      </trkpt>
      <trkpt lat="41.17884" lon="41.85179">
        <ele>335.589443</ele>
        <time>2021-12-02T06:13:28.492Z</time>
      </trkpt>
      <trkpt lat="41.17879" lon="41.85189">
        <ele>336.417221</ele>
        <time>2021-12-02T06:13:34.490Z</time>
      </trkpt>
      <trkpt lat="41.17874" lon="41.85199">
        <ele>337.239545</ele>
        <time>2021-12-02T06:13:41.506Z</time>
      </trkpt>
      <trkpt lat="41.17867" lon="41.85209">
        <ele>338.089701</ele>
        <time>2021-12-02T06:13:49.516Z</time>
      </trkpt>
      <trkpt lat="41.17861" lon="41.85218">
        <ele>338.914333</ele>
        <time>2021-12-02T06:13:56.519Z</time>
      </trkpt>
      <trkpt lat="41.17857" lon="41.8523">
        <ele>339.810563</ele>
        <time>2021-12-02T06:14:07.511Z</time>
      </trkpt>
      <trkpt lat="41.17854" lon="41.85242">
        <ele>340.652954</ele>
        <time>2021-12-02T06:14:16.510Z</time>
      </trkpt>
      <trkpt lat="41.17849" lon="41.85252">
        <ele>341.493452</ele>
        <time>2021-12-02T06:14:23.497Z</time>
      </trkpt>
      <trkpt lat="41.17843" lon="41.85262">
        <ele>342.380511</ele>
        <time>2021-12-02T06:14:30.494Z</time>
      </trkpt>
      <trkpt lat="41.17836" lon="41.85272">
        <ele>343.215286</ele>
        <time>2021-12-02T06:14:38.500Z</time>
      </trkpt>
      <trkpt lat="41.17833" lon="41.85284">
        <ele>344.118616</ele>
        <time>2021-12-02T06:14:45.496Z</time>
      </trkpt>
      <trkpt lat="41.17832" lon="41.85297">
        <ele>344.966159</ele>
        <time>2021-12-02T06:14:52.521Z</time>
      </trkpt>
      <trkpt lat="41.17824" lon="41.85306">
        <ele>345.916282</ele>
        <time>2021-12-02T06:14:59.507Z</time>
      </trkpt>
      <trkpt lat="41.17818" lon="41.85317">
        <ele>346.819812</ele>
        <time>2021-12-02T06:15:06.498Z</time>
      </trkpt>
      <trkpt lat="41.17813" lon="41.85327">
        <ele>347.628905</ele>
        <time>2021-12-02T06:15:12.508Z</time>
      </trkpt>
      <trkpt lat="41.17808" lon="41.85339">
        <ele>348.500667</ele>
        <time>2021-12-02T06:15:18.503Z</time>
      </trkpt>
      <trkpt lat="41.17803" lon="41.85349">
        <ele>349.368648</ele>
        <time>2021-12-02T06:15:25.551Z</time>
      </trkpt>
      <trkpt lat="41.17799" lon="41.85361">
        <ele>350.213989</ele>
        <time>2021-12-02T06:15:31.495Z</time>
      </trkpt>
      <trkpt lat="41.178" lon="41.85374">
        <ele>351.083601</ele>
        <time>2021-12-02T06:15:38.498Z</time>
      </trkpt>
      <trkpt lat="41.17797" lon="41.85387">
        <ele>351.964905</ele>
        <time>2021-12-02T06:15:44.509Z</time>
      </trkpt>
      <trkpt lat="41.17793" lon="41.85399">
        <ele>352.77944</ele>
        <time>2021-12-02T06:15:50.510Z</time>
      </trkpt>
      <trkpt lat="41.17792" lon="41.85413">
        <ele>353.703711</ele>
        <time>2021-12-02T06:15:57.518Z</time>
      </trkpt>
      <trkpt lat="41.17789" lon="41.85424">
        <ele>354.479252</ele>
        <time>2021-12-02T06:16:02.520Z</time>
      </trkpt>
      <trkpt lat="41.17787" lon="41.85438">
        <ele>355.355175</ele>
        <time>2021-12-02T06:16:10.531Z</time>
      </trkpt>
      <trkpt lat="41.17785" lon="41.85451">
        <ele>356.21999</ele>
        <time>2021-12-02T06:16:18.500Z</time>
      </trkpt>
      <trkpt lat="41.17784" lon="41.85463">
        <ele>357.034834</ele>
        <time>2021-12-02T06:16:25.493Z</time>
      </trkpt>
      <trkpt lat="41.17782" lon="41.85476">
        <ele>357.897958</ele>
        <time>2021-12-02T06:16:33.498Z</time>
      </trkpt>
      <trkpt lat="41.17778" lon="41.85487">
        <ele>358.71184</ele>
        <time>2021-12-02T06:16:41.507Z</time>
      </trkpt>
      <trkpt lat="41.17778" lon="41.85499">
        <ele>359.494728</ele>
        <time>2021-12-02T06:16:48.493Z</time>
      </trkpt>
      <trkpt lat="41.17777" lon="41.85512">
        <ele>360.352923</ele>
        <time>2021-12-02T06:16:56.571Z</time>
      </trkpt>
      <trkpt lat="41.17776" lon="41.85525">
        <ele>361.15628</ele>
        <time>2021-12-02T06:17:03.509Z</time>
      </trkpt>
      <trkpt lat="41.17775" lon="41.85537">
        <ele>361.94001</ele>
        <time>2021-12-02T06:17:11.507Z</time>
      </trkpt>
      <trkpt lat="41.17776" lon="41.85549">
        <ele>362.782395</ele>
        <time>2021-12-02T06:17:20.511Z</time>
      </trkpt>
      <trkpt lat="41.17774" lon="41.85562">
        <ele>363.637501</ele>
        <time>2021-12-02T06:17:27.538Z</time>
      </trkpt>
      <trkpt lat="41.17771" lon="41.85575">
        <ele>364.477588</ele>
        <time>2021-12-02T06:17:35.515Z</time>
      </trkpt>
      <trkpt lat="41.17771" lon="41.85588">
        <ele>365.331404</ele>
        <time>2021-12-02T06:17:42.494Z</time>
      </trkpt>
      <trkpt lat="41.17773" lon="41.856">
        <ele>366.185575</ele>
        <time>2021-12-02T06:17:51.500Z</time>
      </trkpt>
      <trkpt lat="41.17776" lon="41.85611">
        <ele>367.036074</ele>
        <time>2021-12-02T06:18:00.513Z</time>
      </trkpt>
      <trkpt lat="41.17777" lon="41.85625">
        <ele>367.972551</ele>
        <time>2021-12-02T06:18:06.508Z</time>
      </trkpt>
      <trkpt lat="41.1778" lon="41.85636">
        <ele>368.830276</ele>
        <time>2021-12-02T06:18:12.491Z</time>
      </trkpt>
      <trkpt lat="41.17784" lon="41.85648">
        <ele>369.724177</ele>
        <time>2021-12-02T06:18:19.501Z</time>
      </trkpt>
      <trkpt lat="41.17789" lon="41.8566">
        <ele>370.65599</ele>
        <time>2021-12-02T06:18:26.508Z</time>
      </trkpt>
      <trkpt lat="41.17793" lon="41.85671">
        <ele>371.556139</ele>
        <time>2021-12-02T06:18:33.488Z</time>
      </trkpt>
      <trkpt lat="41.17798" lon="41.85683">
        <ele>372.50304</ele>
        <time>2021-12-02T06:18:41.511Z</time>
      </trkpt>
      <trkpt lat="41.17803" lon="41.85694">
        <ele>373.383007</ele>
        <time>2021-12-02T06:18:48.499Z</time>
      </trkpt>
      <trkpt lat="41.17807" lon="41.85706">
        <ele>374.341652</ele>
        <time>2021-12-02T06:18:55.498Z</time>
      </trkpt>
      <trkpt lat="41.17811" lon="41.85718">
        <ele>375.231741</ele>
        <time>2021-12-02T06:19:03.496Z</time>
      </trkpt>
      <trkpt lat="41.17813" lon="41.8573">
        <ele>376.118008</ele>
        <time>2021-12-02T06:19:11.505Z</time>
      </trkpt>
      <trkpt lat="41.17814" lon="41.85744">
        <ele>377.085211</ele>
        <time>2021-12-02T06:19:18.491Z</time>
      </trkpt>
      <trkpt lat="41.17813" lon="41.85757">
        <ele>377.982655</ele>
        <time>2021-12-02T06:19:26.513Z</time>
      </trkpt>
      <trkpt lat="41.1781" lon="41.85768">
        <ele>378.820564</ele>
        <time>2021-12-02T06:19:33.545Z</time>
      </trkpt>
      <trkpt lat="41.17807" lon="41.85779">
        <ele>379.662133</ele>
        <time>2021-12-02T06:19:40.512Z</time>
      </trkpt>
      <trkpt lat="41.17805" lon="41.85792">
        <ele>380.560742</ele>
        <time>2021-12-02T06:19:48.494Z</time>
      </trkpt>
      <trkpt lat="41.17801" lon="41.85804">
        <ele>381.478495</ele>
        <time>2021-12-02T06:19:55.495Z</time>
      </trkpt>
      <trkpt lat="41.17798" lon="41.85816">
        <ele>382.234223</ele>
        <time>2021-12-02T06:20:02.497Z</time>
      </trkpt>
      <trkpt lat="41.17798" lon="41.85829">
        <ele>382.694037</ele>
        <time>2021-12-02T06:20:09.504Z</time>
      </trkpt>
      <trkpt lat="41.17799" lon="41.85842">
        <ele>383.187935</ele>
        <time>2021-12-02T06:20:18.518Z</time>
      </trkpt>
      <trkpt lat="41.17801" lon="41.85855">
        <ele>383.684413</ele>
        <time>2021-12-02T06:20:26.540Z</time>
      </trkpt>
      <trkpt lat="41.17806" lon="41.85866">
        <ele>384.195858</ele>
        <time>2021-12-02T06:20:33.504Z</time>
      </trkpt>
      <trkpt lat="41.17812" lon="41.85878">
        <ele>384.709777</ele>
        <time>2021-12-02T06:20:40.514Z</time>
      </trkpt>
      <trkpt lat="41.17817" lon="41.85888">
        <ele>385.166759</ele>
        <time>2021-12-02T06:20:47.495Z</time>
      </trkpt>
      <trkpt lat="41.17821" lon="41.859">
        <ele>385.663072</ele>
        <time>2021-12-02T06:20:54.494Z</time>
      </trkpt>
      <trkpt lat="41.17825" lon="41.85912">
        <ele>386.128003</ele>
        <time>2021-12-02T06:21:02.515Z</time>
      </trkpt>
      <trkpt lat="41.17828" lon="41.85923">
        <ele>386.577993</ele>
        <time>2021-12-02T06:21:10.501Z</time>
      </trkpt>
      <trkpt lat="41.17831" lon="41.85935">
        <ele>387.060101</ele>
        <time>2021-12-02T06:21:18.494Z</time>
      </trkpt>
      <trkpt lat="41.17834" lon="41.85948">
        <ele>387.540854</ele>
        <time>2021-12-02T06:21:26.502Z</time>
      </trkpt>
      <trkpt lat="41.17833" lon="41.8596">
        <ele>388.001201</ele>
        <time>2021-12-02T06:21:33.508Z</time>
      </trkpt>
      <trkpt lat="41.17835" lon="41.85973">
        <ele>388.487976</ele>
        <time>2021-12-02T06:21:41.512Z</time>
      </trkpt>
      <trkpt lat="41.17835" lon="41.85985">
        <ele>388.944596</ele>
        <time>2021-12-02T06:21:47.515Z</time>
      </trkpt>
      <trkpt lat="41.17836" lon="41.85997">
        <ele>389.389731</ele>
        <time>2021-12-02T06:21:54.495Z</time>
      </trkpt>
      <trkpt lat="41.17836" lon="41.8601">
        <ele>389.884323</ele>
        <time>2021-12-02T06:22:02.494Z</time>
      </trkpt>
      <trkpt lat="41.17836" lon="41.86024">
        <ele>390.385183</ele>
        <time>2021-12-02T06:22:10.524Z</time>
      </trkpt>
      <trkpt lat="41.17834" lon="41.86036">
        <ele>390.848574</ele>
        <time>2021-12-02T06:22:18.502Z</time>
      </trkpt>
      <trkpt lat="41.17831" lon="41.86048">
        <ele>391.699604</ele>
        <time>2021-12-02T06:22:26.490Z</time>
      </trkpt>
      <trkpt lat="41.17827" lon="41.86061">
        <ele>392.723797</ele>
        <time>2021-12-02T06:22:33.535Z</time>
      </trkpt>
      <trkpt lat="41.17823" lon="41.86072">
        <ele>393.608603</ele>
        <time>2021-12-02T06:22:39.502Z</time>
      </trkpt>
      <trkpt lat="41.17819" lon="41.86084">
        <ele>394.604667</ele>
        <time>2021-12-02T06:22:46.516Z</time>
      </trkpt>
      <trkpt lat="41.17816" lon="41.86097">
        <ele>395.603252</ele>
        <time>2021-12-02T06:22:53.503Z</time>
      </trkpt>
      <trkpt lat="41.17814" lon="41.86109">
        <ele>396.534928</ele>
        <time>2021-12-02T06:23:01.514Z</time>
      </trkpt>
      <trkpt lat="41.17815" lon="41.86122">
        <ele>397.474447</ele>
        <time>2021-12-02T06:23:11.533Z</time>
      </trkpt>
      <trkpt lat="41.17819" lon="41.86133">
        <ele>398.389742</ele>
        <time>2021-12-02T06:23:19.504Z</time>
      </trkpt>
      <trkpt lat="41.17823" lon="41.86144">
        <ele>399.315993</ele>
        <time>2021-12-02T06:23:27.502Z</time>
      </trkpt>
      <trkpt lat="41.17828" lon="41.86155">
        <ele>400.197913</ele>
        <time>2021-12-02T06:23:34.489Z</time>
      </trkpt>
      <trkpt lat="41.17834" lon="41.86166">
        <ele>401.20775</ele>
        <time>2021-12-02T06:23:41.500Z</time>
      </trkpt>
      <trkpt lat="41.17838" lon="41.86178">
        <ele>402.189022</ele>
        <time>2021-12-02T06:23:49.503Z</time>
      </trkpt>
      <trkpt lat="41.1784" lon="41.8619">
        <ele>403.099675</ele>
        <time>2021-12-02T06:23:56.530Z</time>
      </trkpt>
      <trkpt lat="41.17843" lon="41.86202">
        <ele>404.080994</ele>
        <time>2021-12-02T06:24:04.503Z</time>
      </trkpt>
      <trkpt lat="41.17847" lon="41.86215">
        <ele>405.048832</ele>
        <time>2021-12-02T06:24:12.525Z</time>
      </trkpt>
      <trkpt lat="41.1785" lon="41.86227">
        <ele>406.04389</ele>
        <time>2021-12-02T06:24:20.496Z</time>
      </trkpt>
      <trkpt lat="41.17851" lon="41.86241">
        <ele>407.016053</ele>
        <time>2021-12-02T06:24:28.495Z</time>
      </trkpt>
      <trkpt lat="41.17855" lon="41.86252">
        <ele>407.921411</ele>
        <time>2021-12-02T06:24:36.500Z</time>
      </trkpt>
      <trkpt lat="41.17857" lon="41.86264">
        <ele>408.825434</ele>
        <time>2021-12-02T06:24:44.496Z</time>
      </trkpt>
      <trkpt lat="41.1786" lon="41.86277">
        <ele>409.641552</ele>
        <time>2021-12-02T06:24:52.520Z</time>
      </trkpt>
      <trkpt lat="41.17861" lon="41.8629">
        <ele>410.427809</ele>
        <time>2021-12-02T06:25:01.493Z</time>
      </trkpt>
      <trkpt lat="41.17862" lon="41.86302">
        <ele>411.181026</ele>
        <time>2021-12-02T06:25:08.499Z</time>
      </trkpt>
      <trkpt lat="41.17865" lon="41.86314">
        <ele>411.93561</ele>
        <time>2021-12-02T06:25:15.503Z</time>
      </trkpt>
      <trkpt lat="41.17866" lon="41.86327">
        <ele>412.72983</ele>
        <time>2021-12-02T06:25:23.506Z</time>
      </trkpt>
      <trkpt lat="41.17867" lon="41.8634">
        <ele>413.528975</ele>
        <time>2021-12-02T06:25:30.542Z</time>
      </trkpt>
      <trkpt lat="41.17866" lon="41.86352">
        <ele>414.277607</ele>
        <time>2021-12-02T06:25:36.489Z</time>
      </trkpt>
      <trkpt lat="41.17863" lon="41.86363">
        <ele>415.013324</ele>
        <time>2021-12-02T06:25:42.512Z</time>
      </trkpt>
      <trkpt lat="41.17859" lon="41.86374">
        <ele>415.755868</ele>
        <time>2021-12-02T06:25:50.508Z</time>
      </trkpt>
      <trkpt lat="41.17853" lon="41.86383">
        <ele>416.482511</ele>
        <time>2021-12-02T06:25:58.514Z</time>
      </trkpt>
      <trkpt lat="41.17845" lon="41.86391">
        <ele>417.291978</ele>
        <time>2021-12-02T06:26:05.510Z</time>
      </trkpt>
      <trkpt lat="41.17836" lon="41.86395">
        <ele>418.025751</ele>
        <time>2021-12-02T06:26:11.518Z</time>
      </trkpt>
      <trkpt lat="41.17827" lon="41.86396">
        <ele>418.784988</ele>
        <time>2021-12-02T06:26:17.511Z</time>
      </trkpt>
      <trkpt lat="41.17817" lon="41.864">
        <ele>419.561476</ele>
        <time>2021-12-02T06:26:25.507Z</time>
      </trkpt>
      <trkpt lat="41.17808" lon="41.86399">
        <ele>420.309911</ele>
        <time>2021-12-02T06:26:33.506Z</time>
      </trkpt>
      <trkpt lat="41.178" lon="41.86393">
        <ele>421.045809</ele>
        <time>2021-12-02T06:26:41.500Z</time>
      </trkpt>
      <trkpt lat="41.17792" lon="41.86386">
        <ele>421.841752</ele>
        <time>2021-12-02T06:26:50.499Z</time>
      </trkpt>
      <trkpt lat="41.17783" lon="41.8638">
        <ele>422.649773</ele>
        <time>2021-12-02T06:26:57.522Z</time>
      </trkpt>
      <trkpt lat="41.17774" lon="41.86377">
        <ele>423.380676</ele>
        <time>2021-12-02T06:27:05.499Z</time>
      </trkpt>
      <trkpt lat="41.17764" lon="41.86373">
        <ele>423.986891</ele>
        <time>2021-12-02T06:27:14.520Z</time>
      </trkpt>
      <trkpt lat="41.17757" lon="41.86366">
        <ele>424.557586</ele>
        <time>2021-12-02T06:27:21.516Z</time>
      </trkpt>
      <trkpt lat="41.17751" lon="41.86356">
        <ele>425.154623</ele>
        <time>2021-12-02T06:27:29.512Z</time>
      </trkpt>
      <trkpt lat="41.17744" lon="41.86348">
        <ele>425.721854</ele>
        <time>2021-12-02T06:27:36.512Z</time>
      </trkpt>
      <trkpt lat="41.17734" lon="41.86343">
        <ele>426.351211</ele>
        <time>2021-12-02T06:27:43.542Z</time>
      </trkpt>
      <trkpt lat="41.17725" lon="41.86341">
        <ele>426.923063</ele>
        <time>2021-12-02T06:27:50.514Z</time>
      </trkpt>
      <trkpt lat="41.17715" lon="41.86339">
        <ele>427.567773</ele>
        <time>2021-12-02T06:27:59.558Z</time>
      </trkpt>
      <trkpt lat="41.17705" lon="41.86338">
        <ele>428.175644</ele>
        <time>2021-12-02T06:28:06.489Z</time>
      </trkpt>
      <trkpt lat="41.17695" lon="41.86338">
        <ele>428.783246</ele>
        <time>2021-12-02T06:28:15.491Z</time>
      </trkpt>
      <trkpt lat="41.17686" lon="41.86335">
        <ele>429.383806</ele>
        <time>2021-12-02T06:28:24.521Z</time>
      </trkpt>
      <trkpt lat="41.17677" lon="41.86332">
        <ele>429.964202</ele>
        <time>2021-12-02T06:28:31.495Z</time>
      </trkpt>
      <trkpt lat="41.17667" lon="41.86332">
        <ele>430.590404</ele>
        <time>2021-12-02T06:28:38.491Z</time>
      </trkpt>
      <trkpt lat="41.17656" lon="41.86333">
        <ele>431.247736</ele>
        <time>2021-12-02T06:28:45.496Z</time>
      </trkpt>
      <trkpt lat="41.17646" lon="41.86334">
        <ele>431.858823</ele>
        <time>2021-12-02T06:28:52.521Z</time>
      </trkpt>
      <trkpt lat="41.17636" lon="41.86333">
        <ele>432.473741</ele>
        <time>2021-12-02T06:29:00.500Z</time>
      </trkpt>
      <trkpt lat="41.17627" lon="41.86331">
        <ele>433.053292</ele>
        <time>2021-12-02T06:29:07.509Z</time>
      </trkpt>
      <trkpt lat="41.17617" lon="41.8633">
        <ele>433.677756</ele>
        <time>2021-12-02T06:29:16.509Z</time>
      </trkpt>
      <trkpt lat="41.17608" lon="41.86328">
        <ele>434.281742</ele>
        <time>2021-12-02T06:29:24.508Z</time>
      </trkpt>
      <trkpt lat="41.17597" lon="41.86327">
        <ele>434.506883</ele>
        <time>2021-12-02T06:29:32.516Z</time>
      </trkpt>
      <trkpt lat="41.17588" lon="41.86325">
        <ele>434.68754</ele>
        <time>2021-12-02T06:29:40.525Z</time>
      </trkpt>
      <trkpt lat="41.17578" lon="41.86326">
        <ele>434.874413</ele>
        <time>2021-12-02T06:29:48.498Z</time>
      </trkpt>
      <trkpt lat="41.17567" lon="41.86326">
        <ele>435.070294</ele>
        <time>2021-12-02T06:29:55.517Z</time>
      </trkpt>
      <trkpt lat="41.17558" lon="41.86324">
        <ele>435.246445</ele>
        <time>2021-12-02T06:30:02.524Z</time>
      </trkpt>
      <trkpt lat="41.17549" lon="41.86323">
        <ele>435.419344</ele>
        <time>2021-12-02T06:30:10.508Z</time>
      </trkpt>
      <trkpt lat="41.17539" lon="41.86322">
        <ele>435.592964</ele>
        <time>2021-12-02T06:30:17.521Z</time>
      </trkpt>
      <trkpt lat="41.1753" lon="41.86319">
        <ele>435.779034</ele>
        <time>2021-12-02T06:30:22.151Z</time>
      </trkpt>
      <trkpt lat="41.17521" lon="41.86315">
        <ele>435.958592</ele>
        <time>2021-12-02T06:30:29.165Z</time>
      </trkpt>
      <trkpt lat="41.17512" lon="41.86311">
        <ele>436.1268</ele>
        <time>2021-12-02T06:30:36.170Z</time>
      </trkpt>
      <trkpt lat="41.17504" lon="41.86306">
        <ele>436.29629</ele>
        <time>2021-12-02T06:30:44.188Z</time>
      </trkpt>
      <trkpt lat="41.17494" lon="41.86303">
        <ele>436.478765</ele>
        <time>2021-12-02T06:30:50.181Z</time>
      </trkpt>
      <trkpt lat="41.17485" lon="41.86299">
        <ele>436.655903</ele>
        <time>2021-12-02T06:30:58.180Z</time>
      </trkpt>
      <trkpt lat="41.16588" lon="41.86831">
        <ele>438.460777</ele>
        <time>2021-12-02T06:35:36.269Z</time>
      </trkpt>
      <trkpt lat="41.1658" lon="41.86846">
        <ele>438.731426</ele>
        <time>2021-12-02T06:35:40.168Z</time>
      </trkpt>
      <trkpt lat="41.16577" lon="41.86857">
        <ele>438.91378</ele>
        <time>2021-12-02T06:35:45.181Z</time>
      </trkpt>
      <trkpt lat="41.16572" lon="41.86869">
        <ele>439.116576</ele>
        <time>2021-12-02T06:35:53.186Z</time>
      </trkpt>
      <trkpt lat="41.16565" lon="41.86879">
        <ele>439.32844</ele>
        <time>2021-12-02T06:35:59.199Z</time>
      </trkpt>
      <trkpt lat="41.16556" lon="41.86889">
        <ele>439.567835</ele>
        <time>2021-12-02T06:36:04.162Z</time>
      </trkpt>
      <trkpt lat="41.16547" lon="41.86893">
        <ele>439.764528</ele>
        <time>2021-12-02T06:36:07.193Z</time>
      </trkpt>
      <trkpt lat="41.16537" lon="41.86901">
        <ele>439.998249</ele>
        <time>2021-12-02T06:36:10.173Z</time>
      </trkpt>
      <trkpt lat="41.1653" lon="41.86913">
        <ele>440.22718</ele>
        <time>2021-12-02T06:36:14.188Z</time>
      </trkpt>
      <trkpt lat="41.16523" lon="41.86924">
        <ele>440.451026</ele>
        <time>2021-12-02T06:36:17.169Z</time>
      </trkpt>
      <trkpt lat="41.16517" lon="41.86936">
        <ele>440.674663</ele>
        <time>2021-12-02T06:36:20.220Z</time>
      </trkpt>
      <trkpt lat="41.1651" lon="41.86948">
        <ele>440.904763</ele>
        <time>2021-12-02T06:36:23.168Z</time>
      </trkpt>
      <trkpt lat="41.16503" lon="41.8696">
        <ele>441.132263</ele>
        <time>2021-12-02T06:36:26.175Z</time>
      </trkpt>
      <trkpt lat="41.16494" lon="41.86972">
        <ele>441.402888</ele>
        <time>2021-12-02T06:36:29.181Z</time>
      </trkpt>
      <trkpt lat="41.16484" lon="41.86984">
        <ele>441.622095</ele>
        <time>2021-12-02T06:36:32.171Z</time>
      </trkpt>
      <trkpt lat="41.16476" lon="41.86991">
        <ele>441.749271</ele>
        <time>2021-12-02T06:36:36.162Z</time>
      </trkpt>
      <trkpt lat="41.16467" lon="41.86988">
        <ele>441.868772</ele>
        <time>2021-12-02T06:36:39.183Z</time>
      </trkpt>
      <trkpt lat="41.16354" lon="41.87218">
        <ele>447.767265</ele>
        <time>2021-12-02T06:37:26.180Z</time>
      </trkpt>
      <trkpt lat="41.16347" lon="41.87227">
        <ele>448.461125</ele>
        <time>2021-12-02T06:37:27.206Z</time>
      </trkpt>
      <trkpt lat="41.16339" lon="41.87241">
        <ele>449.434782</ele>
        <time>2021-12-02T06:37:30.175Z</time>
      </trkpt>
      <trkpt lat="41.16334" lon="41.87253">
        <ele>450.201735</ele>
        <time>2021-12-02T06:37:33.191Z</time>
      </trkpt>
      <trkpt lat="41.16328" lon="41.87264">
        <ele>450.971741</ele>
        <time>2021-12-02T06:37:36.190Z</time>
      </trkpt>
      <trkpt lat="41.16321" lon="41.87276">
        <ele>451.778063</ele>
        <time>2021-12-02T06:37:39.185Z</time>
      </trkpt>
      <trkpt lat="41.16314" lon="41.87287">
        <ele>452.587973</ele>
        <time>2021-12-02T06:37:42.182Z</time>
      </trkpt>
      <trkpt lat="41.16308" lon="41.873">
        <ele>453.392753</ele>
        <time>2021-12-02T06:37:46.184Z</time>
      </trkpt>
      <trkpt lat="41.16304" lon="41.87313">
        <ele>454.207618</ele>
        <time>2021-12-02T06:37:50.180Z</time>
      </trkpt>
      <trkpt lat="41.16302" lon="41.87326">
        <ele>454.950692</ele>
        <time>2021-12-02T06:37:54.172Z</time>
      </trkpt>
      <trkpt lat="41.16301" lon="41.8734">
        <ele>455.735068</ele>
        <time>2021-12-02T06:37:58.186Z</time>
      </trkpt>
      <trkpt lat="41.163" lon="41.87353">
        <ele>456.411013</ele>
        <time>2021-12-02T06:38:02.175Z</time>
      </trkpt>
      <trkpt lat="41.16302" lon="41.87365">
        <ele>457.122154</ele>
        <time>2021-12-02T06:38:06.184Z</time>
      </trkpt>
      <trkpt lat="41.16305" lon="41.87379">
        <ele>457.222195</ele>
        <time>2021-12-02T06:38:10.172Z</time>
      </trkpt>
      <trkpt lat="41.1631" lon="41.8739">
        <ele>457.309436</ele>
        <time>2021-12-02T06:38:13.176Z</time>
      </trkpt>
      <trkpt lat="41.16316" lon="41.87402">
        <ele>457.406634</ele>
        <time>2021-12-02T06:38:16.184Z</time>
      </trkpt>
      <trkpt lat="41.1632" lon="41.87414">
        <ele>457.500627</ele>
        <time>2021-12-02T06:38:19.180Z</time>
      </trkpt>
      <trkpt lat="41.16324" lon="41.87428">
        <ele>457.597803</ele>
        <time>2021-12-02T06:38:22.181Z</time>
      </trkpt>
      <trkpt lat="41.16325" lon="41.8744">
        <ele>457.685106</ele>
        <time>2021-12-02T06:38:25.181Z</time>
      </trkpt>
      <trkpt lat="41.16326" lon="41.87453">
        <ele>457.778037</ele>
        <time>2021-12-02T06:38:28.175Z</time>
      </trkpt>
      <trkpt lat="41.16329" lon="41.87468">
        <ele>457.884747</ele>
        <time>2021-12-02T06:38:32.179Z</time>
      </trkpt>
      <trkpt lat="41.16329" lon="41.87482">
        <ele>457.977134</ele>
        <time>2021-12-02T06:38:36.195Z</time>
      </trkpt>
      <trkpt lat="41.16332" lon="41.87496">
        <ele>458.078241</ele>
        <time>2021-12-02T06:38:41.174Z</time>
      </trkpt>
      <trkpt lat="41.16333" lon="41.8751">
        <ele>458.174938</ele>
        <time>2021-12-02T06:38:44.175Z</time>
      </trkpt>
      <trkpt lat="41.16335" lon="41.87524">
        <ele>458.274039</ele>
        <time>2021-12-02T06:38:47.208Z</time>
      </trkpt>
      <trkpt lat="41.16336" lon="41.87539">
        <ele>458.380565</ele>
        <time>2021-12-02T06:38:50.176Z</time>
      </trkpt>
      <trkpt lat="41.16337" lon="41.87553">
        <ele>458.478185</ele>
        <time>2021-12-02T06:38:53.179Z</time>
      </trkpt>
      <trkpt lat="41.16336" lon="41.87567">
        <ele>458.574462</ele>
        <time>2021-12-02T06:38:56.185Z</time>
      </trkpt>
      <trkpt lat="41.16336" lon="41.87581">
        <ele>458.66925</ele>
        <time>2021-12-02T06:38:59.197Z</time>
      </trkpt>
      <trkpt lat="41.16338" lon="41.87594">
        <ele>458.758494</ele>
        <time>2021-12-02T06:39:02.179Z</time>
      </trkpt>
      <trkpt lat="41.16337" lon="41.87606">
        <ele>458.683643</ele>
        <time>2021-12-02T06:39:05.175Z</time>
      </trkpt>
      <trkpt lat="41.16333" lon="41.87618">
        <ele>458.567384</ele>
        <time>2021-12-02T06:39:08.168Z</time>
      </trkpt>
      <trkpt lat="41.16331" lon="41.8763">
        <ele>458.456999</ele>
        <time>2021-12-02T06:39:11.181Z</time>
      </trkpt>
      <trkpt lat="41.16326" lon="41.87646">
        <ele>458.312467</ele>
        <time>2021-12-02T06:39:14.186Z</time>
      </trkpt>
      <trkpt lat="41.16322" lon="41.87662">
        <ele>458.159731</ele>
        <time>2021-12-02T06:39:17.194Z</time>
      </trkpt>
      <trkpt lat="41.16318" lon="41.87678">
        <ele>458.011492</ele>
        <time>2021-12-02T06:39:20.244Z</time>
      </trkpt>
      <trkpt lat="41.16313" lon="41.87693">
        <ele>457.871887</ele>
        <time>2021-12-02T06:39:23.168Z</time>
      </trkpt>
      <trkpt lat="41.16308" lon="41.87706">
        <ele>457.738175</ele>
        <time>2021-12-02T06:39:26.186Z</time>
      </trkpt>
      <trkpt lat="41.16302" lon="41.87717">
        <ele>457.623383</ele>
        <time>2021-12-02T06:39:30.185Z</time>
      </trkpt>
      <trkpt lat="41.15844" lon="41.89031">
        <ele>434.867215</ele>
        <time>2021-12-02T06:44:22.260Z</time>
      </trkpt>
      <trkpt lat="41.15818" lon="41.8899">
        <ele>431.480108</ele>
        <time>2021-12-02T06:44:23.274Z</time>
      </trkpt>
      <trkpt lat="41.15842" lon="41.89036">
        <ele>429.211602</ele>
        <time>2021-12-02T06:44:25.175Z</time>
      </trkpt>
      <trkpt lat="41.15839" lon="41.89049">
        <ele>429.347516</ele>
        <time>2021-12-02T06:44:27.218Z</time>
      </trkpt>
      <trkpt lat="41.15833" lon="41.89062">
        <ele>429.50388</ele>
        <time>2021-12-02T06:44:30.193Z</time>
      </trkpt>
      <trkpt lat="41.15826" lon="41.89071">
        <ele>429.623738</ele>
        <time>2021-12-02T06:44:33.184Z</time>
      </trkpt>
      <trkpt lat="41.15822" lon="41.89083">
        <ele>429.75763</ele>
        <time>2021-12-02T06:44:38.202Z</time>
      </trkpt>
      <trkpt lat="41.15049" lon="41.89198">
        <ele>441.615771</ele>
        <time>2021-12-02T06:47:12.191Z</time>
      </trkpt>
      <trkpt lat="41.15033" lon="41.89202">
        <ele>442.076953</ele>
        <time>2021-12-02T06:47:15.216Z</time>
      </trkpt>
      <trkpt lat="41.15021" lon="41.89199">
        <ele>442.414954</ele>
        <time>2021-12-02T06:47:18.206Z</time>
      </trkpt>
      <trkpt lat="41.1501" lon="41.89195">
        <ele>442.721544</ele>
        <time>2021-12-02T06:47:21.177Z</time>
      </trkpt>
      <trkpt lat="41.14999" lon="41.89192">
        <ele>443.031003</ele>
        <time>2021-12-02T06:47:24.193Z</time>
      </trkpt>
      <trkpt lat="41.14989" lon="41.89186">
        <ele>443.329712</ele>
        <time>2021-12-02T06:47:27.208Z</time>
      </trkpt>
      <trkpt lat="41.1498" lon="41.8918">
        <ele>443.367393</ele>
        <time>2021-12-02T06:47:30.178Z</time>
      </trkpt>
      <trkpt lat="41.14581" lon="41.89042">
        <ele>437.277964</ele>
        <time>2021-12-02T06:49:23.223Z</time>
      </trkpt>
      <trkpt lat="41.14571" lon="41.89047">
        <ele>437.815122</ele>
        <time>2021-12-02T06:49:26.177Z</time>
      </trkpt>
      <trkpt lat="41.14561" lon="41.89049">
        <ele>438.300719</ele>
        <time>2021-12-02T06:49:29.179Z</time>
      </trkpt>
      <trkpt lat="41.14551" lon="41.8905">
        <ele>438.832103</ele>
        <time>2021-12-02T06:49:32.180Z</time>
      </trkpt>
      <trkpt lat="41.1454" lon="41.89052">
        <ele>439.360447</ele>
        <time>2021-12-02T06:49:35.172Z</time>
      </trkpt>
      <trkpt lat="41.1453" lon="41.8905">
        <ele>439.879783</ele>
        <time>2021-12-02T06:49:38.174Z</time>
      </trkpt>
      <trkpt lat="41.14356" lon="41.89076">
        <ele>441.57892</ele>
        <time>2021-12-02T06:50:26.221Z</time>
      </trkpt>
      <trkpt lat="41.14345" lon="41.89076">
        <ele>441.38528</ele>
        <time>2021-12-02T06:50:28.193Z</time>
      </trkpt>
      <trkpt lat="41.14333" lon="41.89073">
        <ele>441.165338</ele>
        <time>2021-12-02T06:50:32.169Z</time>
      </trkpt>
      <trkpt lat="41.14321" lon="41.89078">
        <ele>440.951636</ele>
        <time>2021-12-02T06:50:35.195Z</time>
      </trkpt>
      <trkpt lat="41.14311" lon="41.89082">
        <ele>440.768565</ele>
        <time>2021-12-02T06:50:39.168Z</time>
      </trkpt>
      <trkpt lat="41.14301" lon="41.89077">
        <ele>440.580994</ele>
        <time>2021-12-02T06:50:44.201Z</time>
      </trkpt>
      <trkpt lat="41.14292" lon="41.89073">
        <ele>440.412988</ele>
        <time>2021-12-02T06:50:49.180Z</time>
      </trkpt>
      <trkpt lat="41.14284" lon="41.89068">
        <ele>440.252694</ele>
        <time>2021-12-02T06:50:53.192Z</time>
      </trkpt>
      <trkpt lat="41.14276" lon="41.89061">
        <ele>440.328814</ele>
        <time>2021-12-02T06:50:57.181Z</time>
      </trkpt>
      <trkpt lat="41.14268" lon="41.89052">
        <ele>440.423856</ele>
        <time>2021-12-02T06:51:02.177Z</time>
      </trkpt>
      <trkpt lat="41.14264" lon="41.89038">
        <ele>440.521667</ele>
        <time>2021-12-02T06:51:07.189Z</time>
      </trkpt>
      <trkpt lat="41.14262" lon="41.89026">
        <ele>440.605093</ele>
        <time>2021-12-02T06:51:10.177Z</time>
      </trkpt>
      <trkpt lat="41.1426" lon="41.89013">
        <ele>440.690631</ele>
        <time>2021-12-02T06:51:13.181Z</time>
      </trkpt>
      <trkpt lat="41.14256" lon="41.89002">
        <ele>440.773643</ele>
        <time>2021-12-02T06:51:16.189Z</time>
      </trkpt>
      <trkpt lat="41.1425" lon="41.88989">
        <ele>440.87411</ele>
        <time>2021-12-02T06:51:20.172Z</time>
      </trkpt>
      <trkpt lat="41.14243" lon="41.88977">
        <ele>440.974243</ele>
        <time>2021-12-02T06:51:24.188Z</time>
      </trkpt>
      <trkpt lat="41.14235" lon="41.88967">
        <ele>441.075013</ele>
        <time>2021-12-02T06:51:28.175Z</time>
      </trkpt>
      <trkpt lat="41.14224" lon="41.88959">
        <ele>441.18192</ele>
        <time>2021-12-02T06:51:32.185Z</time>
      </trkpt>
      <trkpt lat="41.14215" lon="41.88954">
        <ele>441.26942</ele>
        <time>2021-12-02T06:51:35.179Z</time>
      </trkpt>
      <trkpt lat="41.14206" lon="41.88948">
        <ele>441.361492</ele>
        <time>2021-12-02T06:51:38.181Z</time>
      </trkpt>
      <trkpt lat="41.14196" lon="41.88944">
        <ele>441.450308</ele>
        <time>2021-12-02T06:51:41.198Z</time>
      </trkpt>
      <trkpt lat="41.14187" lon="41.8894">
        <ele>441.53388</ele>
        <time>2021-12-02T06:51:44.176Z</time>
      </trkpt>
      <trkpt lat="41.14178" lon="41.88938">
        <ele>441.618796</ele>
        <time>2021-12-02T06:51:47.242Z</time>
      </trkpt>
      <trkpt lat="41.14166" lon="41.88934">
        <ele>441.72226</ele>
        <time>2021-12-02T06:51:51.190Z</time>
      </trkpt>
      <trkpt lat="41.14156" lon="41.88933">
        <ele>441.815404</ele>
        <time>2021-12-02T06:51:54.210Z</time>
      </trkpt>
      <trkpt lat="41.14145" lon="41.88931">
        <ele>441.99954</ele>
        <time>2021-12-02T06:51:57.186Z</time>
      </trkpt>
      <trkpt lat="41.14134" lon="41.88932">
        <ele>442.216586</ele>
        <time>2021-12-02T06:52:00.187Z</time>
      </trkpt>
      <trkpt lat="41.14124" lon="41.88934">
        <ele>442.412638</ele>
        <time>2021-12-02T06:52:03.230Z</time>
      </trkpt>
      <trkpt lat="41.14113" lon="41.8894">
        <ele>442.643532</ele>
        <time>2021-12-02T06:52:07.183Z</time>
      </trkpt>
      <trkpt lat="41.14104" lon="41.88947">
        <ele>442.843758</ele>
        <time>2021-12-02T06:52:11.192Z</time>
      </trkpt>
      <trkpt lat="41.14097" lon="41.88956">
        <ele>443.046206</ele>
        <time>2021-12-02T06:52:15.186Z</time>
      </trkpt>
      <trkpt lat="41.14089" lon="41.88966">
        <ele>443.255181</ele>
        <time>2021-12-02T06:52:18.179Z</time>
      </trkpt>
      <trkpt lat="41.14082" lon="41.88976">
        <ele>443.45343</ele>
        <time>2021-12-02T06:52:21.180Z</time>
      </trkpt>
      <trkpt lat="41.14075" lon="41.88988">
        <ele>443.676719</ele>
        <time>2021-12-02T06:52:25.181Z</time>
      </trkpt>
      <trkpt lat="41.14069" lon="41.88997">
        <ele>443.854904</ele>
        <time>2021-12-02T06:52:29.168Z</time>
      </trkpt>
      <trkpt lat="41.1406" lon="41.89002">
        <ele>444.040709</ele>
        <time>2021-12-02T06:52:34.203Z</time>
      </trkpt>
      <trkpt lat="41.1405" lon="41.89006">
        <ele>444.253026</ele>
        <time>2021-12-02T06:52:39.155Z</time>
      </trkpt>
      <trkpt lat="41.1404" lon="41.8901">
        <ele>444.461822</ele>
        <time>2021-12-02T06:52:44.188Z</time>
      </trkpt>
      <trkpt lat="41.1403" lon="41.89009">
        <ele>444.639949</ele>
        <time>2021-12-02T06:52:48.166Z</time>
      </trkpt>
      <trkpt lat="41.14021" lon="41.89008">
        <ele>444.830369</ele>
        <time>2021-12-02T06:52:51.183Z</time>
      </trkpt>
      <trkpt lat="41.14009" lon="41.89006">
        <ele>445.052328</ele>
        <time>2021-12-02T06:52:54.177Z</time>
      </trkpt>
      <trkpt lat="41.13998" lon="41.89006">
        <ele>445.269209</ele>
        <time>2021-12-02T06:52:57.201Z</time>
      </trkpt>
      <trkpt lat="41.13988" lon="41.89006">
        <ele>445.367456</ele>
        <time>2021-12-02T06:53:00.200Z</time>
      </trkpt>
      <trkpt lat="40.86705" lon="41.7016">
        <ele>555.516887</ele>
        <time>2021-12-02T10:02:38.512Z</time>
      </trkpt>
      <trkpt lat="40.86699" lon="41.7015">
        <ele>555.922612</ele>
        <time>2021-12-02T10:02:40.284Z</time>
      </trkpt>
      <trkpt lat="40.86687" lon="41.70146">
        <ele>556.414286</ele>
        <time>2021-12-02T10:02:42.249Z</time>
      </trkpt>
      <trkpt lat="40.86679" lon="41.70137">
        <ele>556.876766</ele>
        <time>2021-12-02T10:02:46.292Z</time>
      </trkpt>
      <trkpt lat="40.86669" lon="41.70129">
        <ele>557.356975</ele>
        <time>2021-12-02T10:02:50.259Z</time>
      </trkpt>
      <trkpt lat="40.86659" lon="41.70121">
        <ele>557.859999</ele>
        <time>2021-12-02T10:02:54.256Z</time>
      </trkpt>
      <trkpt lat="40.86651" lon="41.70113">
        <ele>558.278815</ele>
        <time>2021-12-02T10:02:57.259Z</time>
      </trkpt>
      <trkpt lat="40.86642" lon="41.70106">
        <ele>558.735308</ele>
        <time>2021-12-02T10:03:00.242Z</time>
      </trkpt>
      <trkpt lat="40.86633" lon="41.70098">
        <ele>559.187325</ele>
        <time>2021-12-02T10:03:03.268Z</time>
      </trkpt>
      <trkpt lat="40.86624" lon="41.7009">
        <ele>559.646574</ele>
        <time>2021-12-02T10:03:06.262Z</time>
      </trkpt>
      <trkpt lat="40.86615" lon="41.70082">
        <ele>560.079368</ele>
        <time>2021-12-02T10:03:09.247Z</time>
      </trkpt>
      <trkpt lat="40.86605" lon="41.70075">
        <ele>560.574646</ele>
        <time>2021-12-02T10:03:12.274Z</time>
      </trkpt>
      <trkpt lat="40.86595" lon="41.70067">
        <ele>561.072661</ele>
        <time>2021-12-02T10:03:15.255Z</time>
      </trkpt>
      <trkpt lat="40.86585" lon="41.70061">
        <ele>561.531903</ele>
        <time>2021-12-02T10:03:18.257Z</time>
      </trkpt>
      <trkpt lat="40.86574" lon="41.70053">
        <ele>562.045701</ele>
        <time>2021-12-02T10:03:21.267Z</time>
      </trkpt>
      <trkpt lat="40.86565" lon="41.70047">
        <ele>562.324052</ele>
        <time>2021-12-02T10:03:24.236Z</time>
      </trkpt>
      <trkpt lat="40.86555" lon="41.7004">
        <ele>562.135272</ele>
        <time>2021-12-02T10:03:27.247Z</time>
      </trkpt>
      <trkpt lat="40.86546" lon="41.70032">
        <ele>561.953889</ele>
        <time>2021-12-02T10:03:30.249Z</time>
      </trkpt>
      <trkpt lat="40.86536" lon="41.70025">
        <ele>561.759914</ele>
        <time>2021-12-02T10:03:33.285Z</time>
      </trkpt>
      <trkpt lat="40.86526" lon="41.70018">
        <ele>561.552798</ele>
        <time>2021-12-02T10:03:36.258Z</time>
      </trkpt>
      <trkpt lat="40.86515" lon="41.7001">
        <ele>561.344589</ele>
        <time>2021-12-02T10:03:39.255Z</time>
      </trkpt>
      <trkpt lat="40.86505" lon="41.70002">
        <ele>561.141477</ele>
        <time>2021-12-02T10:03:42.243Z</time>
      </trkpt>
      <trkpt lat="40.86494" lon="41.69995">
        <ele>560.928335</ele>
        <time>2021-12-02T10:03:45.298Z</time>
      </trkpt>
      <trkpt lat="40.86482" lon="41.6999">
        <ele>560.71279</ele>
        <time>2021-12-02T10:03:48.259Z</time>
      </trkpt>
      <trkpt lat="40.86469" lon="41.69985">
        <ele>560.485643</ele>
        <time>2021-12-02T10:03:51.292Z</time>
      </trkpt>
      <trkpt lat="40.8646" lon="41.69982">
        <ele>560.32783</ele>
        <time>2021-12-02T10:03:53.251Z</time>
      </trkpt>
      <trkpt lat="40.86451" lon="41.6998">
        <ele>560.162169</ele>
        <time>2021-12-02T10:03:55.254Z</time>
      </trkpt>
      <trkpt lat="40.86441" lon="41.69978">
        <ele>559.993202</ele>
        <time>2021-12-02T10:03:57.328Z</time>
      </trkpt>
      <trkpt lat="40.86431" lon="41.69977">
        <ele>559.821823</ele>
        <time>2021-12-02T10:03:59.261Z</time>
      </trkpt>
      <trkpt lat="40.86421" lon="41.69976">
        <ele>559.643759</ele>
        <time>2021-12-02T10:04:01.249Z</time>
      </trkpt>
      <trkpt lat="40.86411" lon="41.69977">
        <ele>559.465694</ele>
        <time>2021-12-02T10:04:03.296Z</time>
      </trkpt>
      <trkpt lat="40.86402" lon="41.69978">
        <ele>559.304928</ele>
        <time>2021-12-02T10:04:05.242Z</time>
      </trkpt>
      <trkpt lat="40.86392" lon="41.69978">
        <ele>558.799501</ele>
        <time>2021-12-02T10:04:07.244Z</time>
      </trkpt>
      <trkpt lat="40.86382" lon="41.69981">
        <ele>558.146968</ele>
        <time>2021-12-02T10:04:09.242Z</time>
      </trkpt>
      <trkpt lat="40.86373" lon="41.69983">
        <ele>557.550093</ele>
        <time>2021-12-02T10:04:11.262Z</time>
      </trkpt>
      <trkpt lat="40.86363" lon="41.69985">
        <ele>556.909962</ele>
        <time>2021-12-02T10:04:13.274Z</time>
      </trkpt>
      <trkpt lat="40.86353" lon="41.69988">
        <ele>556.276103</ele>
        <time>2021-12-02T10:04:15.256Z</time>
      </trkpt>
      <trkpt lat="40.86342" lon="41.69991">
        <ele>555.601114</ele>
        <time>2021-12-02T10:04:17.277Z</time>
      </trkpt>
      <trkpt lat="40.86332" lon="41.69993">
        <ele>554.95683</ele>
        <time>2021-12-02T10:04:19.291Z</time>
      </trkpt>
      <trkpt lat="40.86322" lon="41.69995">
        <ele>554.330496</ele>
        <time>2021-12-02T10:04:21.267Z</time>
      </trkpt>
      <trkpt lat="40.86312" lon="41.69997">
        <ele>553.695789</ele>
        <time>2021-12-02T10:04:23.256Z</time>
      </trkpt>
      <trkpt lat="40.86302" lon="41.7">
        <ele>553.052712</ele>
        <time>2021-12-02T10:04:25.257Z</time>
      </trkpt>
      <trkpt lat="40.86293" lon="41.70002">
        <ele>552.454186</ele>
        <time>2021-12-02T10:04:27.273Z</time>
      </trkpt>
      <trkpt lat="40.86283" lon="41.70004">
        <ele>551.853316</ele>
        <time>2021-12-02T10:04:29.261Z</time>
      </trkpt>
      <trkpt lat="40.86274" lon="41.70003">
        <ele>551.264306</ele>
        <time>2021-12-02T10:04:31.286Z</time>
      </trkpt>
      <trkpt lat="40.86264" lon="41.70007">
        <ele>550.656579</ele>
        <time>2021-12-02T10:04:33.265Z</time>
      </trkpt>
      <trkpt lat="40.86252" lon="41.70011">
        <ele>549.846697</ele>
        <time>2021-12-02T10:04:36.266Z</time>
      </trkpt>
      <trkpt lat="40.86239" lon="41.70015">
        <ele>549.013759</ele>
        <time>2021-12-02T10:04:39.277Z</time>
      </trkpt>
      <trkpt lat="40.86228" lon="41.70019">
        <ele>548.303114</ele>
        <time>2021-12-02T10:04:42.263Z</time>
      </trkpt>
      <trkpt lat="40.86217" lon="41.70023">
        <ele>548.060012</ele>
        <time>2021-12-02T10:04:45.277Z</time>
      </trkpt>
      <trkpt lat="40.86205" lon="41.70025">
        <ele>548.145368</ele>
        <time>2021-12-02T10:04:48.279Z</time>
      </trkpt>
      <trkpt lat="40.86194" lon="41.70028">
        <ele>548.233501</ele>
        <time>2021-12-02T10:04:51.276Z</time>
      </trkpt>
      <trkpt lat="40.86181" lon="41.70029">
        <ele>548.326369</ele>
        <time>2021-12-02T10:04:54.251Z</time>
      </trkpt>
      <trkpt lat="40.86172" lon="41.7003">
        <ele>548.392831</ele>
        <time>2021-12-02T10:04:56.252Z</time>
      </trkpt>
      <trkpt lat="40.86162" lon="41.7003">
        <ele>548.462905</ele>
        <time>2021-12-02T10:04:58.251Z</time>
      </trkpt>
      <trkpt lat="40.86153" lon="41.70028">
        <ele>548.531363</ele>
        <time>2021-12-02T10:05:00.277Z</time>
      </trkpt>
      <trkpt lat="40.86144" lon="41.70026">
        <ele>548.599171</ele>
        <time>2021-12-02T10:05:02.255Z</time>
      </trkpt>
      <trkpt lat="40.86135" lon="41.70026">
        <ele>548.665598</ele>
        <time>2021-12-02T10:05:04.259Z</time>
      </trkpt>
      <trkpt lat="40.86125" lon="41.70027">
        <ele>548.73281</ele>
        <time>2021-12-02T10:05:06.259Z</time>
      </trkpt>
      <trkpt lat="40.86116" lon="41.70027">
        <ele>548.80292</ele>
        <time>2021-12-02T10:05:08.255Z</time>
      </trkpt>
      <trkpt lat="40.86106" lon="41.70028">
        <ele>548.871555</ele>
        <time>2021-12-02T10:05:10.261Z</time>
      </trkpt>
      <trkpt lat="40.86097" lon="41.70028">
        <ele>548.943098</ele>
        <time>2021-12-02T10:05:12.253Z</time>
      </trkpt>
      <trkpt lat="40.86087" lon="41.70028">
        <ele>549.014652</ele>
        <time>2021-12-02T10:05:14.267Z</time>
      </trkpt>
      <trkpt lat="40.86077" lon="41.70028">
        <ele>549.085466</ele>
        <time>2021-12-02T10:05:16.258Z</time>
      </trkpt>
      <trkpt lat="40.86067" lon="41.70029">
        <ele>549.15775</ele>
        <time>2021-12-02T10:05:18.251Z</time>
      </trkpt>
      <trkpt lat="40.86057" lon="41.70029">
        <ele>549.229293</ele>
        <time>2021-12-02T10:05:20.254Z</time>
      </trkpt>
      <trkpt lat="40.86048" lon="41.70026">
        <ele>549.29904</ele>
        <time>2021-12-02T10:05:22.273Z</time>
      </trkpt>
      <trkpt lat="40.86039" lon="41.70023">
        <ele>549.239866</ele>
        <time>2021-12-02T10:05:24.258Z</time>
      </trkpt>
      <trkpt lat="40.85841" lon="41.70018">
        <ele>547.042489</ele>
        <time>2021-12-02T10:06:02.311Z</time>
      </trkpt>
      <trkpt lat="40.85828" lon="41.7002">
        <ele>547.136566</ele>
        <time>2021-12-02T10:06:05.241Z</time>
      </trkpt>
      <trkpt lat="40.85815" lon="41.70019">
        <ele>547.228794</ele>
        <time>2021-12-02T10:06:07.254Z</time>
      </trkpt>
      <trkpt lat="40.85803" lon="41.70019">
        <ele>547.315827</ele>
        <time>2021-12-02T10:06:09.287Z</time>
      </trkpt>
      <trkpt lat="40.85794" lon="41.7002">
        <ele>547.384898</ele>
        <time>2021-12-02T10:06:11.255Z</time>
      </trkpt>
      <trkpt lat="40.85784" lon="41.7002">
        <ele>547.451074</ele>
        <time>2021-12-02T10:06:13.259Z</time>
      </trkpt>
      <trkpt lat="40.85771" lon="41.70018">
        <ele>547.549114</ele>
        <time>2021-12-02T10:06:16.289Z</time>
      </trkpt>
      <trkpt lat="40.85762" lon="41.70018">
        <ele>547.615308</ele>
        <time>2021-12-02T10:06:18.312Z</time>
      </trkpt>
      <trkpt lat="40.85752" lon="41.70018">
        <ele>547.682203</ele>
        <time>2021-12-02T10:06:20.275Z</time>
      </trkpt>
      <trkpt lat="40.85743" lon="41.70018">
        <ele>547.747694</ele>
        <time>2021-12-02T10:06:22.277Z</time>
      </trkpt>
      <trkpt lat="40.8573" lon="41.70017">
        <ele>547.844299</ele>
        <time>2021-12-02T10:06:25.267Z</time>
      </trkpt>
      <trkpt lat="40.8572" lon="41.70017">
        <ele>547.911227</ele>
        <time>2021-12-02T10:06:27.265Z</time>
      </trkpt>
      <trkpt lat="40.85711" lon="41.70017">
        <ele>547.979579</ele>
        <time>2021-12-02T10:06:29.254Z</time>
      </trkpt>
      <trkpt lat="40.85701" lon="41.70017">
        <ele>548.047913</ele>
        <time>2021-12-02T10:06:31.244Z</time>
      </trkpt>
      <trkpt lat="40.85692" lon="41.70016">
        <ele>548.114947</ele>
        <time>2021-12-02T10:06:33.258Z</time>
      </trkpt>
      <trkpt lat="40.85683" lon="41.70016">
        <ele>548.205958</ele>
        <time>2021-12-02T10:06:35.291Z</time>
      </trkpt>
      <trkpt lat="40.85674" lon="41.70015">
        <ele>548.349697</ele>
        <time>2021-12-02T10:06:37.260Z</time>
      </trkpt>
      <trkpt lat="40.85664" lon="41.70015">
        <ele>548.496229</ele>
        <time>2021-12-02T10:06:39.253Z</time>
      </trkpt>
      <trkpt lat="40.85655" lon="41.70014">
        <ele>548.649134</ele>
        <time>2021-12-02T10:06:41.258Z</time>
      </trkpt>
      <trkpt lat="40.85645" lon="41.70013">
        <ele>548.804054</ele>
        <time>2021-12-02T10:06:43.257Z</time>
      </trkpt>
      <trkpt lat="40.85636" lon="41.70012">
        <ele>548.946795</ele>
        <time>2021-12-02T10:06:45.273Z</time>
      </trkpt>
      <trkpt lat="40.85627" lon="41.70009">
        <ele>549.09251</ele>
        <time>2021-12-02T10:06:47.270Z</time>
      </trkpt>
      <trkpt lat="40.85613" lon="41.70006">
        <ele>549.305234</ele>
        <time>2021-12-02T10:06:50.251Z</time>
      </trkpt>
      <trkpt lat="40.85601" lon="41.70003">
        <ele>549.506495</ele>
        <time>2021-12-02T10:06:53.253Z</time>
      </trkpt>
      <trkpt lat="40.8559" lon="41.69998">
        <ele>549.691987</ele>
        <time>2021-12-02T10:06:56.249Z</time>
      </trkpt>
      <trkpt lat="40.85579" lon="41.69993">
        <ele>549.866296</ele>
        <time>2021-12-02T10:06:59.243Z</time>
      </trkpt>
      <trkpt lat="40.85568" lon="41.69987">
        <ele>550.056802</ele>
        <time>2021-12-02T10:07:02.265Z</time>
      </trkpt>
      <trkpt lat="40.85556" lon="41.69979">
        <ele>550.263737</ele>
        <time>2021-12-02T10:07:05.242Z</time>
      </trkpt>
      <trkpt lat="40.85544" lon="41.69972">
        <ele>550.470818</ele>
        <time>2021-12-02T10:07:08.248Z</time>
      </trkpt>
      <trkpt lat="40.85532" lon="41.69964">
        <ele>550.681101</ele>
        <time>2021-12-02T10:07:11.297Z</time>
      </trkpt>
      <trkpt lat="40.85521" lon="41.69956">
        <ele>550.887182</ele>
        <time>2021-12-02T10:07:14.265Z</time>
      </trkpt>
      <trkpt lat="40.85509" lon="41.69949">
        <ele>550.986122</ele>
        <time>2021-12-02T10:07:17.263Z</time>
      </trkpt>
      <trkpt lat="40.85497" lon="41.69944">
        <ele>550.960308</ele>
        <time>2021-12-02T10:07:20.259Z</time>
      </trkpt>
      <trkpt lat="40.85484" lon="41.69939">
        <ele>550.933395</ele>
        <time>2021-12-02T10:07:23.247Z</time>
      </trkpt>
      <trkpt lat="40.85474" lon="41.69936">
        <ele>550.914364</ele>
        <time>2021-12-02T10:07:25.250Z</time>
      </trkpt>
      <trkpt lat="40.85465" lon="41.69934">
        <ele>550.894942</ele>
        <time>2021-12-02T10:07:27.255Z</time>
      </trkpt>
      <trkpt lat="40.85455" lon="41.69932">
        <ele>550.875097</ele>
        <time>2021-12-02T10:07:29.255Z</time>
      </trkpt>
      <trkpt lat="40.85442" lon="41.69931">
        <ele>550.849986</ele>
        <time>2021-12-02T10:07:32.242Z</time>
      </trkpt>
      <trkpt lat="40.8543" lon="41.69928">
        <ele>550.825789</ele>
        <time>2021-12-02T10:07:35.242Z</time>
      </trkpt>
      <trkpt lat="40.85421" lon="41.69927">
        <ele>550.807241</ele>
        <time>2021-12-02T10:07:37.241Z</time>
      </trkpt>
      <trkpt lat="40.85411" lon="41.69927">
        <ele>550.787713</ele>
        <time>2021-12-02T10:07:39.238Z</time>
      </trkpt>
      <trkpt lat="40.85401" lon="41.69926">
        <ele>550.767832</ele>
        <time>2021-12-02T10:07:41.255Z</time>
      </trkpt>
      <trkpt lat="40.84852" lon="41.69172">
        <ele>534.688052</ele>
        <time>2021-12-02T10:10:20.314Z</time>
      </trkpt>
      <trkpt lat="40.8484" lon="41.69171">
        <ele>535.96735</ele>
        <time>2021-12-02T10:10:21.261Z</time>
      </trkpt>
      <trkpt lat="40.84816" lon="41.69162">
        <ele>538.603482</ele>
        <time>2021-12-02T10:10:24.305Z</time>
      </trkpt>
      <trkpt lat="40.84809" lon="41.69151">
        <ele>539.765322</ele>
        <time>2021-12-02T10:10:27.259Z</time>
      </trkpt>
      <trkpt lat="40.84802" lon="41.69136">
        <ele>541.182102</ele>
        <time>2021-12-02T10:10:30.290Z</time>
      </trkpt>
      <trkpt lat="40.84795" lon="41.69125">
        <ele>542.317365</ele>
        <time>2021-12-02T10:10:33.272Z</time>
      </trkpt>
      <trkpt lat="40.84785" lon="41.69126">
        <ele>543.386203</ele>
        <time>2021-12-02T10:10:37.246Z</time>
      </trkpt>
      <trkpt lat="40.84365" lon="41.68257">
        <ele>578.970716</ele>
        <time>2021-12-02T10:15:32.294Z</time>
      </trkpt>
      <trkpt lat="40.84351" lon="41.68268">
        <ele>581.790806</ele>
        <time>2021-12-02T10:15:34.265Z</time>
      </trkpt>
      <trkpt lat="40.84361" lon="41.68241">
        <ele>584.768916</ele>
        <time>2021-12-02T10:15:44.262Z</time>
      </trkpt>
      <trkpt lat="40.84363" lon="41.68228">
        <ele>585.376371</ele>
        <time>2021-12-02T10:15:48.244Z</time>
      </trkpt>
      <trkpt lat="40.84091" lon="41.67811">
        <ele>575.028693</ele>
        <time>2021-12-02T10:17:52.283Z</time>
      </trkpt>
      <trkpt lat="40.84087" lon="41.67826">
        <ele>576.602762</ele>
        <time>2021-12-02T10:17:53.271Z</time>
      </trkpt>
      <trkpt lat="40.84094" lon="41.6779">
        <ele>580.396611</ele>
        <time>2021-12-02T10:17:57.257Z</time>
      </trkpt>
      <trkpt lat="40.84085" lon="41.67783">
        <ele>581.801222</ele>
        <time>2021-12-02T10:18:00.259Z</time>
      </trkpt>
      <trkpt lat="40.84073" lon="41.67779">
        <ele>583.396759</ele>
        <time>2021-12-02T10:18:03.259Z</time>
      </trkpt>
      <trkpt lat="40.84063" lon="41.67773">
        <ele>584.927091</ele>
        <time>2021-12-02T10:18:06.267Z</time>
      </trkpt>
      <trkpt lat="40.8405" lon="41.67769">
        <ele>586.682875</ele>
        <time>2021-12-02T10:18:09.269Z</time>
      </trkpt>
      <trkpt lat="40.84039" lon="41.67765">
        <ele>588.250128</ele>
        <time>2021-12-02T10:18:12.259Z</time>
      </trkpt>
      <trkpt lat="40.84029" lon="41.67762">
        <ele>589.062087</ele>
        <time>2021-12-02T10:18:15.265Z</time>
      </trkpt>
      <trkpt lat="40.8402" lon="41.67758">
        <ele>588.845592</ele>
        <time>2021-12-02T10:18:18.249Z</time>
      </trkpt>
      <trkpt lat="40.84009" lon="41.67755">
        <ele>588.588401</ele>
        <time>2021-12-02T10:18:21.281Z</time>
      </trkpt>
      <trkpt lat="40.83999" lon="41.67752">
        <ele>588.349736</ele>
        <time>2021-12-02T10:18:24.264Z</time>
      </trkpt>
      <trkpt lat="40.8399" lon="41.67748">
        <ele>588.124712</ele>
        <time>2021-12-02T10:18:27.259Z</time>
      </trkpt>
      <trkpt lat="40.83979" lon="41.67745">
        <ele>587.848124</ele>
        <time>2021-12-02T10:18:31.259Z</time>
      </trkpt>
      <trkpt lat="40.83968" lon="41.67742">
        <ele>587.594424</ele>
        <time>2021-12-02T10:18:35.274Z</time>
      </trkpt>
      <trkpt lat="40.83957" lon="41.67738">
        <ele>587.336405</ele>
        <time>2021-12-02T10:18:39.303Z</time>
      </trkpt>
      <trkpt lat="40.83947" lon="41.67735">
        <ele>587.092592</ele>
        <time>2021-12-02T10:18:43.254Z</time>
      </trkpt>
      <trkpt lat="40.83937" lon="41.67733">
        <ele>586.865482</ele>
        <time>2021-12-02T10:18:47.258Z</time>
      </trkpt>
      <trkpt lat="40.83927" lon="41.6773">
        <ele>586.608948</ele>
        <time>2021-12-02T10:18:52.259Z</time>
      </trkpt>
      <trkpt lat="40.83917" lon="41.6773">
        <ele>586.39349</ele>
        <time>2021-12-02T10:18:56.263Z</time>
      </trkpt>
      <trkpt lat="40.83906" lon="41.67729">
        <ele>586.129044</ele>
        <time>2021-12-02T10:19:01.259Z</time>
      </trkpt>
      <trkpt lat="40.83895" lon="41.67727">
        <ele>585.869802</ele>
        <time>2021-12-02T10:19:06.268Z</time>
      </trkpt>
      <trkpt lat="40.83885" lon="41.67724">
        <ele>585.636593</ele>
        <time>2021-12-02T10:19:11.257Z</time>
      </trkpt>
      <trkpt lat="40.83875" lon="41.67721">
        <ele>585.394169</ele>
        <time>2021-12-02T10:19:15.261Z</time>
      </trkpt>
      <trkpt lat="40.83866" lon="41.6772">
        <ele>585.175434</ele>
        <time>2021-12-02T10:19:19.303Z</time>
      </trkpt>
      <trkpt lat="40.83857" lon="41.6772">
        <ele>584.958097</ele>
        <time>2021-12-02T10:19:23.254Z</time>
      </trkpt>
      <trkpt lat="40.83845" lon="41.67717">
        <ele>585.547952</ele>
        <time>2021-12-02T10:19:28.248Z</time>
      </trkpt>
      <trkpt lat="40.83836" lon="41.67717">
        <ele>586.050059</ele>
        <time>2021-12-02T10:19:32.257Z</time>
      </trkpt>
      <trkpt lat="40.83827" lon="41.67715">
        <ele>586.532264</ele>
        <time>2021-12-02T10:19:36.259Z</time>
      </trkpt>
      <trkpt lat="40.83817" lon="41.67715">
        <ele>587.093343</ele>
        <time>2021-12-02T10:19:41.275Z</time>
      </trkpt>
      <trkpt lat="40.83807" lon="41.67715">
        <ele>587.584767</ele>
        <time>2021-12-02T10:19:45.263Z</time>
      </trkpt>
      <trkpt lat="40.83797" lon="41.67713">
        <ele>588.153937</ele>
        <time>2021-12-02T10:19:50.250Z</time>
      </trkpt>
      <trkpt lat="40.83787" lon="41.67712">
        <ele>588.679277</ele>
        <time>2021-12-02T10:19:55.260Z</time>
      </trkpt>
      <trkpt lat="40.83776" lon="41.67712">
        <ele>589.26683</ele>
        <time>2021-12-02T10:20:00.249Z</time>
      </trkpt>
      <trkpt lat="40.83766" lon="41.67708">
        <ele>589.84851</ele>
        <time>2021-12-02T10:20:05.248Z</time>
      </trkpt>
      <trkpt lat="40.83755" lon="41.67706">
        <ele>590.436372</ele>
        <time>2021-12-02T10:20:10.266Z</time>
      </trkpt>
      <trkpt lat="40.83746" lon="41.67705">
        <ele>590.92259</ele>
        <time>2021-12-02T10:20:14.246Z</time>
      </trkpt>
      <trkpt lat="40.83735" lon="41.67706">
        <ele>591.489008</ele>
        <time>2021-12-02T10:20:19.261Z</time>
      </trkpt>
      <trkpt lat="40.83725" lon="41.67705">
        <ele>592.017867</ele>
        <time>2021-12-02T10:20:24.265Z</time>
      </trkpt>
      <trkpt lat="40.83716" lon="41.67706">
        <ele>592.526087</ele>
        <time>2021-12-02T10:20:30.260Z</time>
      </trkpt>
      <trkpt lat="40.83705" lon="41.67705">
        <ele>593.093196</ele>
        <time>2021-12-02T10:20:36.271Z</time>
      </trkpt>
      <trkpt lat="40.83695" lon="41.67703">
        <ele>593.626313</ele>
        <time>2021-12-02T10:20:41.257Z</time>
      </trkpt>
      <trkpt lat="40.83685" lon="41.67701">
        <ele>594.164351</ele>
        <time>2021-12-02T10:20:47.260Z</time>
      </trkpt>
      <trkpt lat="40.83676" lon="41.67697">
        <ele>594.594113</ele>
        <time>2021-12-02T10:20:56.255Z</time>
      </trkpt>
      <trkpt lat="40.83667" lon="41.67695">
        <ele>594.712677</ele>
        <time>2021-12-02T10:21:01.255Z</time>
      </trkpt>
      <trkpt lat="40.83657" lon="41.67692">
        <ele>594.84224</ele>
        <time>2021-12-02T10:21:06.274Z</time>
      </trkpt>
      <trkpt lat="40.83647" lon="41.67688">
        <ele>594.979335</ele>
        <time>2021-12-02T10:21:11.251Z</time>
      </trkpt>
      <trkpt lat="40.83637" lon="41.67683">
        <ele>595.114555</ele>
        <time>2021-12-02T10:21:16.262Z</time>
      </trkpt>
      <trkpt lat="40.83627" lon="41.67679">
        <ele>595.246155</ele>
        <time>2021-12-02T10:21:21.271Z</time>
      </trkpt>
      <trkpt lat="40.83618" lon="41.67674">
        <ele>595.368824</ele>
        <time>2021-12-02T10:21:26.258Z</time>
      </trkpt>
      <trkpt lat="40.83609" lon="41.6767">
        <ele>595.495569</ele>
        <time>2021-12-02T10:21:31.257Z</time>
      </trkpt>
      <trkpt lat="40.836" lon="41.67665">
        <ele>595.617027</ele>
        <time>2021-12-02T10:21:36.270Z</time>
      </trkpt>
      <trkpt lat="40.83592" lon="41.67657">
        <ele>595.751996</ele>
        <time>2021-12-02T10:21:42.270Z</time>
      </trkpt>
      <trkpt lat="40.83583" lon="41.6765">
        <ele>595.883224</ele>
        <time>2021-12-02T10:21:45.279Z</time>
      </trkpt>
      <trkpt lat="40.83575" lon="41.67641">
        <ele>596.022773</ele>
        <time>2021-12-02T10:21:47.248Z</time>
      </trkpt>
      <trkpt lat="40.83565" lon="41.67631">
        <ele>596.176258</ele>
        <time>2021-12-02T10:21:49.263Z</time>
      </trkpt>
      <trkpt lat="40.83556" lon="41.67622">
        <ele>596.323463</ele>
        <time>2021-12-02T10:21:51.258Z</time>
      </trkpt>
      <trkpt lat="40.83548" lon="41.67613">
        <ele>596.465523</ele>
        <time>2021-12-02T10:21:53.256Z</time>
      </trkpt>
      <trkpt lat="40.8354" lon="41.67606">
        <ele>596.588773</ele>
        <time>2021-12-02T10:21:55.277Z</time>
      </trkpt>
      <trkpt lat="40.8353" lon="41.67596">
        <ele>596.748031</ele>
        <time>2021-12-02T10:21:58.283Z</time>
      </trkpt>
      <trkpt lat="40.83521" lon="41.67587">
        <ele>596.937007</ele>
        <time>2021-12-02T10:22:01.266Z</time>
      </trkpt>
      <trkpt lat="40.83512" lon="41.67577">
        <ele>597.359592</ele>
        <time>2021-12-02T10:22:04.268Z</time>
      </trkpt>
      <trkpt lat="40.83504" lon="41.67566">
        <ele>597.813598</ele>
        <time>2021-12-02T10:22:07.265Z</time>
      </trkpt>
      <trkpt lat="40.83496" lon="41.67556">
        <ele>598.245222</ele>
        <time>2021-12-02T10:22:10.258Z</time>
      </trkpt>
      <trkpt lat="40.83489" lon="41.67545">
        <ele>598.641578</ele>
        <time>2021-12-02T10:22:13.242Z</time>
      </trkpt>
      <trkpt lat="40.83482" lon="41.67536">
        <ele>599.016525</ele>
        <time>2021-12-02T10:22:16.261Z</time>
      </trkpt>
      <trkpt lat="40.83473" lon="41.67535">
        <ele>599.399121</ele>
        <time>2021-12-02T10:22:21.308Z</time>
      </trkpt>
      <trkpt lat="40.8346" lon="41.66863">
        <ele>616.640815</ele>
        <time>2021-12-02T10:25:32.279Z</time>
      </trkpt>
      <trkpt lat="40.83471" lon="41.66881">
        <ele>616.267692</ele>
        <time>2021-12-02T10:25:33.277Z</time>
      </trkpt>
      <trkpt lat="40.83475" lon="41.66871">
        <ele>616.068509</ele>
        <time>2021-12-02T10:25:38.259Z</time>
      </trkpt>
      <trkpt lat="40.83472" lon="41.66859">
        <ele>615.862468</ele>
        <time>2021-12-02T10:25:41.266Z</time>
      </trkpt>
      <trkpt lat="40.83467" lon="41.66846">
        <ele>615.616004</ele>
        <time>2021-12-02T10:25:45.273Z</time>
      </trkpt>
      <trkpt lat="40.83466" lon="41.66832">
        <ele>615.393062</ele>
        <time>2021-12-02T10:25:49.282Z</time>
      </trkpt>
      <trkpt lat="40.83463" lon="41.66819">
        <ele>615.173707</ele>
        <time>2021-12-02T10:25:53.307Z</time>
      </trkpt>
      <trkpt lat="40.83459" lon="41.66806">
        <ele>614.950297</ele>
        <time>2021-12-02T10:25:57.269Z</time>
      </trkpt>
      <trkpt lat="40.83456" lon="41.66793">
        <ele>614.725914</ele>
        <time>2021-12-02T10:26:01.281Z</time>
      </trkpt>
      <trkpt lat="40.83453" lon="41.6678">
        <ele>614.502459</ele>
        <time>2021-12-02T10:26:05.250Z</time>
      </trkpt>
      <trkpt lat="40.83451" lon="41.66767">
        <ele>614.286165</ele>
        <time>2021-12-02T10:26:09.278Z</time>
      </trkpt>
      <trkpt lat="40.83448" lon="41.66753">
        <ele>614.053277</ele>
        <time>2021-12-02T10:26:13.272Z</time>
      </trkpt>
      <trkpt lat="40.83447" lon="41.66741">
        <ele>613.848239</ele>
        <time>2021-12-02T10:26:17.267Z</time>
      </trkpt>
      <trkpt lat="40.83444" lon="41.66728">
        <ele>613.631054</ele>
        <time>2021-12-02T10:26:21.270Z</time>
      </trkpt>
      <trkpt lat="40.8344" lon="41.66716">
        <ele>613.614458</ele>
        <time>2021-12-02T10:26:25.262Z</time>
      </trkpt>
      <trkpt lat="40.83438" lon="41.66704">
        <ele>613.94565</ele>
        <time>2021-12-02T10:26:29.279Z</time>
      </trkpt>
      <trkpt lat="40.83436" lon="41.66692">
        <ele>614.270941</ele>
        <time>2021-12-02T10:26:33.273Z</time>
      </trkpt>
      <trkpt lat="40.83433" lon="41.66677">
        <ele>614.648796</ele>
        <time>2021-12-02T10:26:37.265Z</time>
      </trkpt>
      <trkpt lat="40.83431" lon="41.66664">
        <ele>615.013234</ele>
        <time>2021-12-02T10:26:41.278Z</time>
      </trkpt>
      <trkpt lat="40.83428" lon="41.6665">
        <ele>615.376139</ele>
        <time>2021-12-02T10:26:45.280Z</time>
      </trkpt>
      <trkpt lat="40.83425" lon="41.66638">
        <ele>615.702959</ele>
        <time>2021-12-02T10:26:49.262Z</time>
      </trkpt>
      <trkpt lat="40.83423" lon="41.66626">
        <ele>616.019744</ele>
        <time>2021-12-02T10:26:53.282Z</time>
      </trkpt>
      <trkpt lat="40.8342" lon="41.66615">
        <ele>616.324775</ele>
        <time>2021-12-02T10:26:57.272Z</time>
      </trkpt>
      <trkpt lat="40.83418" lon="41.66603">
        <ele>616.643286</ele>
        <time>2021-12-02T10:27:01.273Z</time>
      </trkpt>
      <trkpt lat="40.83416" lon="41.66589">
        <ele>617.014262</ele>
        <time>2021-12-02T10:27:06.279Z</time>
      </trkpt>
      <trkpt lat="40.83414" lon="41.66577">
        <ele>617.324449</ele>
        <time>2021-12-02T10:27:10.268Z</time>
      </trkpt>
      <trkpt lat="40.83412" lon="41.66563">
        <ele>617.70051</ele>
        <time>2021-12-02T10:27:15.274Z</time>
      </trkpt>
      <trkpt lat="40.8341" lon="41.66551">
        <ele>618.01561</ele>
        <time>2021-12-02T10:27:19.245Z</time>
      </trkpt>
      <trkpt lat="40.83409" lon="41.66537">
        <ele>618.380797</ele>
        <time>2021-12-02T10:27:24.267Z</time>
      </trkpt>
      <trkpt lat="40.83406" lon="41.66523">
        <ele>618.741931</ele>
        <time>2021-12-02T10:27:29.264Z</time>
      </trkpt>
      <trkpt lat="40.83404" lon="41.66512">
        <ele>619.057923</ele>
        <time>2021-12-02T10:27:33.256Z</time>
      </trkpt>
      <trkpt lat="40.83402" lon="41.66498">
        <ele>619.421278</ele>
        <time>2021-12-02T10:27:38.298Z</time>
      </trkpt>
      <trkpt lat="40.83401" lon="41.66486">
        <ele>619.659631</ele>
        <time>2021-12-02T10:27:42.278Z</time>
      </trkpt>
      <trkpt lat="40.83399" lon="41.66473">
        <ele>619.713201</ele>
        <time>2021-12-02T10:27:47.262Z</time>
      </trkpt>
      <trkpt lat="40.83199" lon="41.65973">
        <ele>620.045184</ele>
        <time>2021-12-02T10:31:30.285Z</time>
      </trkpt>
      <trkpt lat="40.83171" lon="41.65946">
        <ele>620.369477</ele>
        <time>2021-12-02T10:31:33.270Z</time>
      </trkpt>
      <trkpt lat="40.83174" lon="41.65961">
        <ele>620.479414</ele>
        <time>2021-12-02T10:31:37.358Z</time>
      </trkpt>
      <trkpt lat="40.8316" lon="41.65977">
        <ele>620.649699</ele>
        <time>2021-12-02T10:32:10.313Z</time>
      </trkpt>
      <trkpt lat="40.83185" lon="41.65979">
        <ele>620.878479</ele>
        <time>2021-12-02T10:32:13.280Z</time>
      </trkpt>
      <trkpt lat="40.8322" lon="41.66015">
        <ele>620.687846</ele>
        <time>2021-12-02T10:32:17.283Z</time>
      </trkpt>
      <trkpt lat="40.83368" lon="41.66093">
        <ele>619.99379</ele>
        <time>2021-12-02T10:33:15.278Z</time>
      </trkpt>
      <trkpt lat="40.83388" lon="41.66099">
        <ele>620.598017</ele>
        <time>2021-12-02T10:33:18.295Z</time>
      </trkpt>
      <trkpt lat="40.83374" lon="41.66083">
        <ele>621.163881</ele>
        <time>2021-12-02T10:33:21.283Z</time>
      </trkpt>
      <trkpt lat="40.82463" lon="41.60752">
        <ele>747.989051</ele>
        <time>2021-12-02T11:03:57.296Z</time>
      </trkpt>
      <trkpt lat="40.82459" lon="41.60715">
        <ele>748.867186</ele>
        <time>2021-12-02T11:04:00.284Z</time>
      </trkpt>
      <trkpt lat="40.82457" lon="41.60703">
        <ele>749.168158</ele>
        <time>2021-12-02T11:04:01.268Z</time>
      </trkpt>
      <trkpt lat="40.82456" lon="41.60689">
        <ele>749.501636</ele>
        <time>2021-12-02T11:04:02.271Z</time>
      </trkpt>
      <trkpt lat="40.82455" lon="41.60676">
        <ele>749.79865</ele>
        <time>2021-12-02T11:04:03.321Z</time>
      </trkpt>
      <trkpt lat="40.82455" lon="41.60664">
        <ele>750.088294</ele>
        <time>2021-12-02T11:04:04.286Z</time>
      </trkpt>
      <trkpt lat="40.82453" lon="41.60652">
        <ele>750.382159</ele>
        <time>2021-12-02T11:04:05.266Z</time>
      </trkpt>
      <trkpt lat="40.82451" lon="41.60629">
        <ele>750.937902</ele>
        <time>2021-12-02T11:04:07.285Z</time>
      </trkpt>
      <trkpt lat="40.82448" lon="41.60607">
        <ele>751.466609</ele>
        <time>2021-12-02T11:04:09.295Z</time>
      </trkpt>
      <trkpt lat="40.82446" lon="41.60586">
        <ele>751.984324</ele>
        <time>2021-12-02T11:04:11.290Z</time>
      </trkpt>
      <trkpt lat="40.82443" lon="41.60565">
        <ele>751.599826</ele>
        <time>2021-12-02T11:04:13.290Z</time>
      </trkpt>
      <trkpt lat="40.82441" lon="41.60546">
        <ele>751.182041</ele>
        <time>2021-12-02T11:04:15.289Z</time>
      </trkpt>
      <trkpt lat="40.82438" lon="41.60527">
        <ele>750.765921</ele>
        <time>2021-12-02T11:04:17.310Z</time>
      </trkpt>
      <trkpt lat="40.82435" lon="41.60508">
        <ele>750.356413</ele>
        <time>2021-12-02T11:04:19.300Z</time>
      </trkpt>
      <trkpt lat="40.82431" lon="41.6049">
        <ele>749.958119</ele>
        <time>2021-12-02T11:04:21.286Z</time>
      </trkpt>
      <trkpt lat="40.82428" lon="41.60473">
        <ele>749.574227</ele>
        <time>2021-12-02T11:04:23.294Z</time>
      </trkpt>
      <trkpt lat="40.82424" lon="41.60457">
        <ele>749.21744</ele>
        <time>2021-12-02T11:04:25.290Z</time>
      </trkpt>
      <trkpt lat="40.82421" lon="41.60442">
        <ele>748.871173</ele>
        <time>2021-12-02T11:04:27.287Z</time>
      </trkpt>
      <trkpt lat="40.82418" lon="41.60426">
        <ele>748.534522</ele>
        <time>2021-12-02T11:04:29.332Z</time>
      </trkpt>
      <trkpt lat="40.82415" lon="41.60412">
        <ele>748.220831</ele>
        <time>2021-12-02T11:04:31.290Z</time>
      </trkpt>
      <trkpt lat="40.82412" lon="41.60399">
        <ele>747.916494</ele>
        <time>2021-12-02T11:04:33.295Z</time>
      </trkpt>
      <trkpt lat="40.82408" lon="41.60386">
        <ele>747.62032</ele>
        <time>2021-12-02T11:04:35.268Z</time>
      </trkpt>
      <trkpt lat="40.82404" lon="41.60373">
        <ele>747.31092</ele>
        <time>2021-12-02T11:04:37.272Z</time>
      </trkpt>
      <trkpt lat="40.824" lon="41.60359">
        <ele>747.0067</ele>
        <time>2021-12-02T11:04:39.278Z</time>
      </trkpt>
      <trkpt lat="40.82397" lon="41.60348">
        <ele>746.924501</ele>
        <time>2021-12-02T11:04:41.271Z</time>
      </trkpt>
      <trkpt lat="40.82394" lon="41.60337">
        <ele>746.937687</ele>
        <time>2021-12-02T11:04:43.305Z</time>
      </trkpt>
      <trkpt lat="40.82389" lon="41.60326">
        <ele>746.951626</ele>
        <time>2021-12-02T11:04:45.318Z</time>
      </trkpt>
      <trkpt lat="40.82384" lon="41.60315">
        <ele>746.965346</ele>
        <time>2021-12-02T11:04:47.291Z</time>
      </trkpt>
      <trkpt lat="40.81843" lon="41.56174">
        <ele>758.603751</ele>
        <time>2021-12-02T11:22:24.319Z</time>
      </trkpt>
      <trkpt lat="40.81833" lon="41.56182">
        <ele>759.167356</ele>
        <time>2021-12-02T11:22:26.320Z</time>
      </trkpt>
      <trkpt lat="40.81829" lon="41.56155">
        <ele>760.011073</ele>
        <time>2021-12-02T11:22:27.282Z</time>
      </trkpt>
      <trkpt lat="40.81842" lon="41.56154">
        <ele>760.438682</ele>
        <time>2021-12-02T11:22:31.296Z</time>
      </trkpt>
      <trkpt lat="40.81833" lon="41.56159">
        <ele>760.769441</ele>
        <time>2021-12-02T11:22:36.282Z</time>
      </trkpt>
      <trkpt lat="40.81811" lon="41.56163">
        <ele>761.488735</ele>
        <time>2021-12-02T11:27:58.300Z</time>
      </trkpt>
      <trkpt lat="40.818" lon="41.56164">
        <ele>761.860469</ele>
        <time>2021-12-02T11:28:02.318Z</time>
      </trkpt>
      <trkpt lat="40.81789" lon="41.56166">
        <ele>762.1945</ele>
        <time>2021-12-02T11:28:05.282Z</time>
      </trkpt>
      <trkpt lat="40.81779" lon="41.56168">
        <ele>762.533018</ele>
        <time>2021-12-02T11:28:08.319Z</time>
      </trkpt>
      <trkpt lat="40.81769" lon="41.56171">
        <ele>762.856201</ele>
        <time>2021-12-02T11:28:11.294Z</time>
      </trkpt>
      <trkpt lat="40.8176" lon="41.56173">
        <ele>763.18524</ele>
        <time>2021-12-02T11:28:14.291Z</time>
      </trkpt>
      <trkpt lat="40.81748" lon="41.56177">
        <ele>763.562473</ele>
        <time>2021-12-02T11:28:17.279Z</time>
      </trkpt>
      <trkpt lat="40.81736" lon="41.56181">
        <ele>763.97347</ele>
        <time>2021-12-02T11:28:20.290Z</time>
      </trkpt>
      <trkpt lat="40.81724" lon="41.56186">
        <ele>764.379189</ele>
        <time>2021-12-02T11:28:23.289Z</time>
      </trkpt>
      <trkpt lat="40.81712" lon="41.56191">
        <ele>764.776527</ele>
        <time>2021-12-02T11:28:26.287Z</time>
      </trkpt>
      <trkpt lat="40.81701" lon="41.56194">
        <ele>765.152915</ele>
        <time>2021-12-02T11:28:29.294Z</time>
      </trkpt>
      <trkpt lat="40.81689" lon="41.56199">
        <ele>765.469849</ele>
        <time>2021-12-02T11:28:32.295Z</time>
      </trkpt>
      <trkpt lat="40.81677" lon="41.56206">
        <ele>764.573683</ele>
        <time>2021-12-02T11:28:35.271Z</time>
      </trkpt>
      <trkpt lat="40.81666" lon="41.56215">
        <ele>763.706618</ele>
        <time>2021-12-02T11:28:38.289Z</time>
      </trkpt>
      <trkpt lat="40.81655" lon="41.56227">
        <ele>762.796851</ele>
        <time>2021-12-02T11:28:41.337Z</time>
      </trkpt>
      <trkpt lat="40.81648" lon="41.56237">
        <ele>762.088667</ele>
        <time>2021-12-02T11:28:43.293Z</time>
      </trkpt>
      <trkpt lat="40.81639" lon="41.56245">
        <ele>761.367896</ele>
        <time>2021-12-02T11:28:45.302Z</time>
      </trkpt>
      <trkpt lat="40.81629" lon="41.5625">
        <ele>760.640339</ele>
        <time>2021-12-02T11:28:47.293Z</time>
      </trkpt>
      <trkpt lat="40.81617" lon="41.5625">
        <ele>759.840897</ele>
        <time>2021-12-02T11:28:49.287Z</time>
      </trkpt>
      <trkpt lat="40.81607" lon="41.56242">
        <ele>759.084994</ele>
        <time>2021-12-02T11:28:51.296Z</time>
      </trkpt>
      <trkpt lat="40.81601" lon="41.56227">
        <ele>758.248629</ele>
        <time>2021-12-02T11:28:53.306Z</time>
      </trkpt>
      <trkpt lat="40.81599" lon="41.56209">
        <ele>757.305519</ele>
        <time>2021-12-02T11:28:55.278Z</time>
      </trkpt>
      <trkpt lat="40.81603" lon="41.56193">
        <ele>756.462063</ele>
        <time>2021-12-02T11:28:57.289Z</time>
      </trkpt>
      <trkpt lat="40.81611" lon="41.5618">
        <ele>755.607337</ele>
        <time>2021-12-02T11:28:59.289Z</time>
      </trkpt>
      <trkpt lat="40.81624" lon="41.56174">
        <ele>754.72016</ele>
        <time>2021-12-02T11:29:01.288Z</time>
      </trkpt>
      <trkpt lat="40.81639" lon="41.56171">
        <ele>753.663427</ele>
        <time>2021-12-02T11:29:03.299Z</time>
      </trkpt>
      <trkpt lat="40.81654" lon="41.56166">
        <ele>751.164776</ele>
        <time>2021-12-02T11:29:05.284Z</time>
      </trkpt>
      <trkpt lat="40.81666" lon="41.5616">
        <ele>748.825371</ele>
        <time>2021-12-02T11:29:07.291Z</time>
      </trkpt>
      <trkpt lat="40.81678" lon="41.56153">
        <ele>746.531527</ele>
        <time>2021-12-02T11:29:09.295Z</time>
      </trkpt>
      <trkpt lat="40.8169" lon="41.56146">
        <ele>744.232341</ele>
        <time>2021-12-02T11:29:11.282Z</time>
      </trkpt>
      <trkpt lat="40.817" lon="41.5614">
        <ele>742.189011</ele>
        <time>2021-12-02T11:29:13.286Z</time>
      </trkpt>
      <trkpt lat="40.81708" lon="41.56133">
        <ele>740.435012</ele>
        <time>2021-12-02T11:29:15.281Z</time>
      </trkpt>
      <trkpt lat="40.81716" lon="41.56124">
        <ele>738.647877</ele>
        <time>2021-12-02T11:29:17.290Z</time>
      </trkpt>
      <trkpt lat="40.81722" lon="41.56112">
        <ele>736.715145</ele>
        <time>2021-12-02T11:29:19.290Z</time>
      </trkpt>
      <trkpt lat="40.81723" lon="41.56099">
        <ele>734.950674</ele>
        <time>2021-12-02T11:29:21.284Z</time>
      </trkpt>
      <trkpt lat="40.81719" lon="41.56087">
        <ele>733.121657</ele>
        <time>2021-12-02T11:29:23.295Z</time>
      </trkpt>
      <trkpt lat="40.81711" lon="41.56079">
        <ele>731.401651</ele>
        <time>2021-12-02T11:29:25.288Z</time>
      </trkpt>
      <trkpt lat="40.81701" lon="41.56076">
        <ele>729.427786</ele>
        <time>2021-12-02T11:29:27.281Z</time>
      </trkpt>
      <trkpt lat="40.81689" lon="41.56078">
        <ele>727.30417</ele>
        <time>2021-12-02T11:29:29.307Z</time>
      </trkpt>
      <trkpt lat="40.81678" lon="41.56084">
        <ele>725.301483</ele>
        <time>2021-12-02T11:29:31.321Z</time>
      </trkpt>
      <trkpt lat="40.81669" lon="41.5609">
        <ele>723.431104</ele>
        <time>2021-12-02T11:29:33.288Z</time>
      </trkpt>
      <trkpt lat="40.81659" lon="41.56094">
        <ele>721.557052</ele>
        <time>2021-12-02T11:29:35.286Z</time>
      </trkpt>
      <trkpt lat="40.81648" lon="41.56095">
        <ele>719.288026</ele>
        <time>2021-12-02T11:29:37.332Z</time>
      </trkpt>
      <trkpt lat="40.81636" lon="41.56092">
        <ele>716.817475</ele>
        <time>2021-12-02T11:29:39.297Z</time>
      </trkpt>
      <trkpt lat="40.81623" lon="41.56085">
        <ele>714.06067</ele>
        <time>2021-12-02T11:29:41.288Z</time>
      </trkpt>
      <trkpt lat="40.81609" lon="41.56079">
        <ele>711.137324</ele>
        <time>2021-12-02T11:29:43.329Z</time>
      </trkpt>
      <trkpt lat="40.81597" lon="41.56073">
        <ele>708.502725</ele>
        <time>2021-12-02T11:29:45.306Z</time>
      </trkpt>
      <trkpt lat="40.81585" lon="41.5607">
        <ele>706.158557</ele>
        <time>2021-12-02T11:29:47.301Z</time>
      </trkpt>
      <trkpt lat="40.81574" lon="41.56065">
        <ele>703.843555</ele>
        <time>2021-12-02T11:29:49.319Z</time>
      </trkpt>
      <trkpt lat="40.81564" lon="41.5606">
        <ele>701.513768</ele>
        <time>2021-12-02T11:29:51.285Z</time>
      </trkpt>
      <trkpt lat="40.81552" lon="41.56054">
        <ele>699.125097</ele>
        <time>2021-12-02T11:29:53.309Z</time>
      </trkpt>
      <trkpt lat="40.81542" lon="41.56053">
        <ele>696.976549</ele>
        <time>2021-12-02T11:29:55.283Z</time>
      </trkpt>
      <trkpt lat="40.81532" lon="41.56055">
        <ele>694.871193</ele>
        <time>2021-12-02T11:29:57.309Z</time>
      </trkpt>
      <trkpt lat="40.81523" lon="41.56059">
        <ele>692.985096</ele>
        <time>2021-12-02T11:29:59.299Z</time>
      </trkpt>
      <trkpt lat="40.81513" lon="41.56061">
        <ele>691.103176</ele>
        <time>2021-12-02T11:30:01.277Z</time>
      </trkpt>
      <trkpt lat="40.81502" lon="41.56069">
        <ele>688.459098</ele>
        <time>2021-12-02T11:30:04.288Z</time>
      </trkpt>
      <trkpt lat="40.81494" lon="41.56079">
        <ele>686.37004</ele>
        <time>2021-12-02T11:30:06.300Z</time>
      </trkpt>
      <trkpt lat="40.81487" lon="41.56089">
        <ele>684.418859</ele>
        <time>2021-12-02T11:30:08.291Z</time>
      </trkpt>
      <trkpt lat="40.8148" lon="41.56101">
        <ele>682.506512</ele>
        <time>2021-12-02T11:30:10.301Z</time>
      </trkpt>
      <trkpt lat="40.81471" lon="41.56113">
        <ele>680.351249</ele>
        <time>2021-12-02T11:30:12.298Z</time>
      </trkpt>
      <trkpt lat="40.81462" lon="41.56124">
        <ele>678.285446</ele>
        <time>2021-12-02T11:30:14.286Z</time>
      </trkpt>
      <trkpt lat="40.81451" lon="41.56133">
        <ele>676.234633</ele>
        <time>2021-12-02T11:30:16.293Z</time>
      </trkpt>
      <trkpt lat="40.81441" lon="41.56142">
        <ele>674.155779</ele>
        <time>2021-12-02T11:30:18.298Z</time>
      </trkpt>
      <trkpt lat="40.81431" lon="41.56151">
        <ele>672.11154</ele>
        <time>2021-12-02T11:30:20.301Z</time>
      </trkpt>
      <trkpt lat="40.81421" lon="41.5616">
        <ele>670.158064</ele>
        <time>2021-12-02T11:30:22.282Z</time>
      </trkpt>
      <trkpt lat="40.81412" lon="41.56169">
        <ele>668.210124</ele>
        <time>2021-12-02T11:30:24.279Z</time>
      </trkpt>
      <trkpt lat="40.81402" lon="41.56178">
        <ele>666.240882</ele>
        <time>2021-12-02T11:30:26.298Z</time>
      </trkpt>
      <trkpt lat="40.81394" lon="41.56188">
        <ele>664.414674</ele>
        <time>2021-12-02T11:30:28.350Z</time>
      </trkpt>
      <trkpt lat="40.81387" lon="41.56197">
        <ele>662.724338</ele>
        <time>2021-12-02T11:30:30.305Z</time>
      </trkpt>
      <trkpt lat="40.81382" lon="41.56209">
        <ele>661.045905</ele>
        <time>2021-12-02T11:30:32.297Z</time>
      </trkpt>
      <trkpt lat="40.81377" lon="41.56223">
        <ele>659.120138</ele>
        <time>2021-12-02T11:30:34.322Z</time>
      </trkpt>
      <trkpt lat="40.81369" lon="41.56234">
        <ele>657.145593</ele>
        <time>2021-12-02T11:30:36.299Z</time>
      </trkpt>
      <trkpt lat="40.81359" lon="41.56243">
        <ele>655.146193</ele>
        <time>2021-12-02T11:30:38.289Z</time>
      </trkpt>
      <trkpt lat="40.81347" lon="41.56251">
        <ele>653.10316</ele>
        <time>2021-12-02T11:30:40.287Z</time>
      </trkpt>
      <trkpt lat="40.81337" lon="41.56259">
        <ele>651.160113</ele>
        <time>2021-12-02T11:30:42.285Z</time>
      </trkpt>
      <trkpt lat="40.81329" lon="41.5627">
        <ele>649.43045</ele>
        <time>2021-12-02T11:30:44.286Z</time>
      </trkpt>
      <trkpt lat="40.81323" lon="41.56281">
        <ele>647.792508</ele>
        <time>2021-12-02T11:30:46.293Z</time>
      </trkpt>
      <trkpt lat="40.81317" lon="41.56294">
        <ele>646.055375</ele>
        <time>2021-12-02T11:30:48.286Z</time>
      </trkpt>
      <trkpt lat="40.81312" lon="41.56307">
        <ele>644.285999</ele>
        <time>2021-12-02T11:30:50.290Z</time>
      </trkpt>
      <trkpt lat="40.81307" lon="41.5632">
        <ele>642.552934</ele>
        <time>2021-12-02T11:30:52.296Z</time>
      </trkpt>
      <trkpt lat="40.81302" lon="41.56333">
        <ele>640.874785</ele>
        <time>2021-12-02T11:30:54.281Z</time>
      </trkpt>
      <trkpt lat="40.81299" lon="41.56345">
        <ele>639.308204</ele>
        <time>2021-12-02T11:30:56.294Z</time>
      </trkpt>
      <trkpt lat="40.81297" lon="41.56358">
        <ele>637.782502</ele>
        <time>2021-12-02T11:30:58.302Z</time>
      </trkpt>
      <trkpt lat="40.81295" lon="41.5637">
        <ele>636.321733</ele>
        <time>2021-12-02T11:31:00.290Z</time>
      </trkpt>
      <trkpt lat="40.81292" lon="41.56387">
        <ele>634.21726</ele>
        <time>2021-12-02T11:31:03.321Z</time>
      </trkpt>
      <trkpt lat="40.81286" lon="41.56403">
        <ele>632.120701</ele>
        <time>2021-12-02T11:31:06.323Z</time>
      </trkpt>
      <trkpt lat="40.81279" lon="41.5641">
        <ele>630.697701</ele>
        <time>2021-12-02T11:31:08.334Z</time>
      </trkpt>
      <trkpt lat="40.81269" lon="41.56413">
        <ele>629.225843</ele>
        <time>2021-12-02T11:31:10.285Z</time>
      </trkpt>
      <trkpt lat="40.81259" lon="41.5641">
        <ele>627.511766</ele>
        <time>2021-12-02T11:31:12.309Z</time>
      </trkpt>
      <trkpt lat="40.81249" lon="41.56401">
        <ele>626.52656</ele>
        <time>2021-12-02T11:31:14.284Z</time>
      </trkpt>
      <trkpt lat="40.81244" lon="41.56389">
        <ele>625.809637</ele>
        <time>2021-12-02T11:31:16.316Z</time>
      </trkpt>
      <trkpt lat="40.81241" lon="41.56375">
        <ele>625.105444</ele>
        <time>2021-12-02T11:31:18.290Z</time>
      </trkpt>
      <trkpt lat="40.81242" lon="41.56361">
        <ele>624.408979</ele>
        <time>2021-12-02T11:31:20.328Z</time>
      </trkpt>
      <trkpt lat="40.81244" lon="41.56348">
        <ele>623.770134</ele>
        <time>2021-12-02T11:31:22.279Z</time>
      </trkpt>
      <trkpt lat="40.81247" lon="41.56332">
        <ele>622.938524</ele>
        <time>2021-12-02T11:31:25.283Z</time>
      </trkpt>
      <trkpt lat="40.81251" lon="41.56317">
        <ele>622.181682</ele>
        <time>2021-12-02T11:31:28.285Z</time>
      </trkpt>
      <trkpt lat="40.81254" lon="41.56303">
        <ele>621.433483</ele>
        <time>2021-12-02T11:31:31.275Z</time>
      </trkpt>
      <trkpt lat="40.81256" lon="41.5629">
        <ele>620.783236</ele>
        <time>2021-12-02T11:31:35.290Z</time>
      </trkpt>
      <trkpt lat="40.81248" lon="41.5628">
        <ele>620.076125</ele>
        <time>2021-12-02T11:31:41.296Z</time>
      </trkpt>
      <trkpt lat="40.81238" lon="41.56281">
        <ele>619.4266</ele>
        <time>2021-12-02T11:31:45.299Z</time>
      </trkpt>
      <trkpt lat="40.81234" lon="41.56294">
        <ele>618.755121</ele>
        <time>2021-12-02T11:31:49.294Z</time>
      </trkpt>
      <trkpt lat="40.81243" lon="41.56289">
        <ele>618.131226</ele>
        <time>2021-12-02T11:35:16.282Z</time>
      </trkpt>
      <trkpt lat="40.81247" lon="41.56275">
        <ele>617.395653</ele>
        <time>2021-12-02T11:35:20.279Z</time>
      </trkpt>
      <trkpt lat="40.8125" lon="41.5626">
        <ele>616.641985</ele>
        <time>2021-12-02T11:35:24.276Z</time>
      </trkpt>
      <trkpt lat="40.81253" lon="41.56246">
        <ele>615.924627</ele>
        <time>2021-12-02T11:35:28.267Z</time>
      </trkpt>
      <trkpt lat="40.81257" lon="41.56234">
        <ele>615.518359</ele>
        <time>2021-12-02T11:35:32.275Z</time>
      </trkpt>
      <trkpt lat="40.81263" lon="41.56224">
        <ele>616.168145</ele>
        <time>2021-12-02T11:35:36.275Z</time>
      </trkpt>
      <trkpt lat="40.81272" lon="41.56213">
        <ele>616.927638</ele>
        <time>2021-12-02T11:35:40.259Z</time>
      </trkpt>
      <trkpt lat="40.81279" lon="41.56203">
        <ele>617.59614</ele>
        <time>2021-12-02T11:35:44.268Z</time>
      </trkpt>
      <trkpt lat="40.81287" lon="41.56194">
        <ele>618.259294</ele>
        <time>2021-12-02T11:35:48.275Z</time>
      </trkpt>
      <trkpt lat="40.81295" lon="41.56183">
        <ele>618.988266</ele>
        <time>2021-12-02T11:35:52.279Z</time>
      </trkpt>
      <trkpt lat="40.81302" lon="41.56175">
        <ele>619.579159</ele>
        <time>2021-12-02T11:35:55.286Z</time>
      </trkpt>
      <trkpt lat="40.81308" lon="41.56167">
        <ele>620.151137</ele>
        <time>2021-12-02T11:35:58.282Z</time>
      </trkpt>
      <trkpt lat="40.81314" lon="41.56157">
        <ele>620.746308</ele>
        <time>2021-12-02T11:36:01.275Z</time>
      </trkpt>
      <trkpt lat="40.81319" lon="41.56145">
        <ele>621.447891</ele>
        <time>2021-12-02T11:36:05.321Z</time>
      </trkpt>
      <trkpt lat="40.81321" lon="41.56132">
        <ele>622.071671</ele>
        <time>2021-12-02T11:36:10.268Z</time>
      </trkpt>
      <trkpt lat="40.81322" lon="41.56119">
        <ele>622.712394</ele>
        <time>2021-12-02T11:36:15.294Z</time>
      </trkpt>
      <trkpt lat="40.81322" lon="41.56105">
        <ele>623.376221</ele>
        <time>2021-12-02T11:36:20.282Z</time>
      </trkpt>
      <trkpt lat="40.81319" lon="41.56092">
        <ele>624.020047</ele>
        <time>2021-12-02T11:36:25.277Z</time>
      </trkpt>
      <trkpt lat="40.81318" lon="41.56079">
        <ele>624.681512</ele>
        <time>2021-12-02T11:36:30.282Z</time>
      </trkpt>
      <trkpt lat="40.81317" lon="41.56067">
        <ele>625.271999</ele>
        <time>2021-12-02T11:36:35.271Z</time>
      </trkpt>
      <trkpt lat="40.81318" lon="41.56054">
        <ele>625.87366</ele>
        <time>2021-12-02T11:36:40.279Z</time>
      </trkpt>
      <trkpt lat="40.8132" lon="41.56041">
        <ele>626.520478</ele>
        <time>2021-12-02T11:36:46.265Z</time>
      </trkpt>
      <trkpt lat="40.81324" lon="41.5603">
        <ele>627.06084</ele>
        <time>2021-12-02T11:36:51.282Z</time>
      </trkpt>
      <trkpt lat="40.81328" lon="41.56019">
        <ele>627.464958</ele>
        <time>2021-12-02T11:36:56.283Z</time>
      </trkpt>
      <trkpt lat="40.81333" lon="41.56007">
        <ele>627.911903</ele>
        <time>2021-12-02T11:37:00.277Z</time>
      </trkpt>
      <trkpt lat="40.81338" lon="41.55995">
        <ele>628.353251</ele>
        <time>2021-12-02T11:37:04.266Z</time>
      </trkpt>
      <trkpt lat="40.81342" lon="41.55982">
        <ele>628.809303</ele>
        <time>2021-12-02T11:37:09.280Z</time>
      </trkpt>
      <trkpt lat="40.81347" lon="41.55969">
        <ele>629.274348</ele>
        <time>2021-12-02T11:37:15.268Z</time>
      </trkpt>
      <trkpt lat="40.81352" lon="41.55956">
        <ele>629.759228</ele>
        <time>2021-12-02T11:37:20.299Z</time>
      </trkpt>
      <trkpt lat="40.81356" lon="41.55945">
        <ele>630.165174</ele>
        <time>2021-12-02T11:37:24.274Z</time>
      </trkpt>
      <trkpt lat="40.81361" lon="41.55933">
        <ele>630.61344</ele>
        <time>2021-12-02T11:37:28.320Z</time>
      </trkpt>
      <trkpt lat="40.81368" lon="41.55923">
        <ele>631.045893</ele>
        <time>2021-12-02T11:37:32.282Z</time>
      </trkpt>
      <trkpt lat="40.81377" lon="41.55916">
        <ele>631.507335</ele>
        <time>2021-12-02T11:37:37.270Z</time>
      </trkpt>
      <trkpt lat="40.81385" lon="41.55907">
        <ele>631.979092</ele>
        <time>2021-12-02T11:37:41.278Z</time>
      </trkpt>
      <trkpt lat="40.81392" lon="41.55898">
        <ele>632.398878</ele>
        <time>2021-12-02T11:37:44.263Z</time>
      </trkpt>
      <trkpt lat="40.81399" lon="41.55889">
        <ele>632.828145</ele>
        <time>2021-12-02T11:37:47.287Z</time>
      </trkpt>
      <trkpt lat="40.81407" lon="41.55878">
        <ele>633.334242</ele>
        <time>2021-12-02T11:37:50.281Z</time>
      </trkpt>
      <trkpt lat="40.81413" lon="41.55867">
        <ele>633.755289</ele>
        <time>2021-12-02T11:37:53.270Z</time>
      </trkpt>
      <trkpt lat="40.81417" lon="41.55855">
        <ele>634.180356</ele>
        <time>2021-12-02T11:37:57.323Z</time>
      </trkpt>
      <trkpt lat="40.8142" lon="41.55843">
        <ele>634.614157</ele>
        <time>2021-12-02T11:38:01.275Z</time>
      </trkpt>
      <trkpt lat="40.81424" lon="41.55831">
        <ele>634.420689</ele>
        <time>2021-12-02T11:38:05.289Z</time>
      </trkpt>
      <trkpt lat="40.81425" lon="41.55818">
        <ele>634.053871</ele>
        <time>2021-12-02T11:38:09.321Z</time>
      </trkpt>
      <trkpt lat="40.81427" lon="41.55806">
        <ele>633.70587</ele>
        <time>2021-12-02T11:38:12.285Z</time>
      </trkpt>
      <trkpt lat="40.81427" lon="41.55793">
        <ele>633.340477</ele>
        <time>2021-12-02T11:38:15.329Z</time>
      </trkpt>
      <trkpt lat="40.81427" lon="41.55776">
        <ele>632.876717</ele>
        <time>2021-12-02T11:38:18.287Z</time>
      </trkpt>
      <trkpt lat="40.81427" lon="41.55763">
        <ele>632.499807</ele>
        <time>2021-12-02T11:38:20.281Z</time>
      </trkpt>
      <trkpt lat="40.81427" lon="41.55747">
        <ele>632.055721</ele>
        <time>2021-12-02T11:38:22.268Z</time>
      </trkpt>
      <trkpt lat="40.81427" lon="41.5573">
        <ele>631.589032</ele>
        <time>2021-12-02T11:38:24.302Z</time>
      </trkpt>
      <trkpt lat="40.81427" lon="41.55714">
        <ele>631.127859</ele>
        <time>2021-12-02T11:38:26.326Z</time>
      </trkpt>
      <trkpt lat="40.81427" lon="41.55698">
        <ele>630.683539</ele>
        <time>2021-12-02T11:38:28.276Z</time>
      </trkpt>
      <trkpt lat="40.81427" lon="41.55684">
        <ele>630.281627</ele>
        <time>2021-12-02T11:38:30.285Z</time>
      </trkpt>
      <trkpt lat="40.81425" lon="41.5567">
        <ele>629.877563</ele>
        <time>2021-12-02T11:38:32.317Z</time>
      </trkpt>
      <trkpt lat="40.8142" lon="41.55655">
        <ele>629.431666</ele>
        <time>2021-12-02T11:38:34.275Z</time>
      </trkpt>
      <trkpt lat="40.81412" lon="41.55646">
        <ele>629.034638</ele>
        <time>2021-12-02T11:38:36.284Z</time>
      </trkpt>
      <trkpt lat="40.81402" lon="41.55635">
        <ele>628.554938</ele>
        <time>2021-12-02T11:38:39.287Z</time>
      </trkpt>
      <trkpt lat="40.81397" lon="41.55622">
        <ele>628.139184</ele>
        <time>2021-12-02T11:38:43.278Z</time>
      </trkpt>
      <trkpt lat="40.81392" lon="41.55608">
        <ele>628.025932</ele>
        <time>2021-12-02T11:38:47.279Z</time>
      </trkpt>
      <trkpt lat="40.81388" lon="41.55593">
        <ele>628.026011</ele>
        <time>2021-12-02T11:38:51.286Z</time>
      </trkpt>
      <trkpt lat="40.81385" lon="41.55581">
        <ele>628.026074</ele>
        <time>2021-12-02T11:38:54.287Z</time>
      </trkpt>
      <trkpt lat="40.81383" lon="41.55569">
        <ele>628.026138</ele>
        <time>2021-12-02T11:38:57.275Z</time>
      </trkpt>
      <trkpt lat="40.81381" lon="41.55554">
        <ele>628.026209</ele>
        <time>2021-12-02T11:39:00.310Z</time>
      </trkpt>
      <trkpt lat="40.8138" lon="41.55538">
        <ele>628.026292</ele>
        <time>2021-12-02T11:39:03.282Z</time>
      </trkpt>
      <trkpt lat="40.81379" lon="41.55521">
        <ele>628.026379</ele>
        <time>2021-12-02T11:39:06.317Z</time>
      </trkpt>
      <trkpt lat="40.81376" lon="41.55509">
        <ele>628.026441</ele>
        <time>2021-12-02T11:39:08.282Z</time>
      </trkpt>
      <trkpt lat="40.81369" lon="41.55495">
        <ele>628.026525</ele>
        <time>2021-12-02T11:39:11.295Z</time>
      </trkpt>
      <trkpt lat="40.81361" lon="41.55487">
        <ele>628.026589</ele>
        <time>2021-12-02T11:39:14.279Z</time>
      </trkpt>
      <trkpt lat="40.81352" lon="41.55477">
        <ele>628.026666</ele>
        <time>2021-12-02T11:39:18.279Z</time>
      </trkpt>
      <trkpt lat="40.81346" lon="41.55468">
        <ele>628.026726</ele>
        <time>2021-12-02T11:39:21.282Z</time>
      </trkpt>
      <trkpt lat="40.81341" lon="41.55455">
        <ele>628.0268</ele>
        <time>2021-12-02T11:39:25.277Z</time>
      </trkpt>
      <trkpt lat="40.81338" lon="41.55443">
        <ele>628.026861</ele>
        <time>2021-12-02T11:39:29.271Z</time>
      </trkpt>
      <trkpt lat="40.81334" lon="41.55429">
        <ele>628.026937</ele>
        <time>2021-12-02T11:39:34.325Z</time>
      </trkpt>
      <trkpt lat="40.81333" lon="41.55415">
        <ele>628.027006</ele>
        <time>2021-12-02T11:39:38.278Z</time>
      </trkpt>
      <trkpt lat="40.81332" lon="41.554">
        <ele>628.074327</ele>
        <time>2021-12-02T11:39:42.288Z</time>
      </trkpt>
      <trkpt lat="40.81331" lon="41.55385">
        <ele>628.263883</ele>
        <time>2021-12-02T11:39:46.282Z</time>
      </trkpt>
      <trkpt lat="40.81329" lon="41.55372">
        <ele>628.424556</ele>
        <time>2021-12-02T11:39:49.264Z</time>
      </trkpt>
      <trkpt lat="40.81326" lon="41.55359">
        <ele>628.587515</ele>
        <time>2021-12-02T11:39:52.289Z</time>
      </trkpt>
      <trkpt lat="40.81322" lon="41.55348">
        <ele>628.735377</ele>
        <time>2021-12-02T11:39:55.284Z</time>
      </trkpt>
      <trkpt lat="40.81318" lon="41.55334">
        <ele>628.911189</ele>
        <time>2021-12-02T11:39:59.275Z</time>
      </trkpt>
      <trkpt lat="40.81314" lon="41.55322">
        <ele>629.071015</ele>
        <time>2021-12-02T11:40:03.274Z</time>
      </trkpt>
      <trkpt lat="40.81309" lon="41.55312">
        <ele>629.217062</ele>
        <time>2021-12-02T11:40:06.278Z</time>
      </trkpt>
      <trkpt lat="40.81304" lon="41.553">
        <ele>629.376122</ele>
        <time>2021-12-02T11:40:09.278Z</time>
      </trkpt>
      <trkpt lat="40.813" lon="41.55289">
        <ele>629.535142</ele>
        <time>2021-12-02T11:40:12.278Z</time>
      </trkpt>
      <trkpt lat="40.81296" lon="41.55276">
        <ele>629.700217</ele>
        <time>2021-12-02T11:40:15.282Z</time>
      </trkpt>
      <trkpt lat="40.81293" lon="41.55263">
        <ele>629.86845</ele>
        <time>2021-12-02T11:40:18.273Z</time>
      </trkpt>
      <trkpt lat="40.8129" lon="41.55247">
        <ele>630.06935</ele>
        <time>2021-12-02T11:40:21.284Z</time>
      </trkpt>
      <trkpt lat="40.81285" lon="41.55232">
        <ele>630.262698</ele>
        <time>2021-12-02T11:40:24.292Z</time>
      </trkpt>
      <trkpt lat="40.81281" lon="41.55219">
        <ele>630.428989</ele>
        <time>2021-12-02T11:40:27.279Z</time>
      </trkpt>
      <trkpt lat="40.81277" lon="41.55206">
        <ele>630.59479</ele>
        <time>2021-12-02T11:40:30.322Z</time>
      </trkpt>
      <trkpt lat="40.81273" lon="41.55194">
        <ele>630.759254</ele>
        <time>2021-12-02T11:40:33.283Z</time>
      </trkpt>
      <trkpt lat="40.8127" lon="41.55181">
        <ele>630.865698</ele>
        <time>2021-12-02T11:40:36.269Z</time>
      </trkpt>
      <trkpt lat="40.8127" lon="41.55167">
        <ele>630.549163</ele>
        <time>2021-12-02T11:40:39.286Z</time>
      </trkpt>
      <trkpt lat="40.8127" lon="41.55151">
        <ele>630.210814</ele>
        <time>2021-12-02T11:40:42.315Z</time>
      </trkpt>
      <trkpt lat="40.81269" lon="41.55136">
        <ele>629.86864</ele>
        <time>2021-12-02T11:40:45.293Z</time>
      </trkpt>
      <trkpt lat="40.81265" lon="41.55121">
        <ele>629.523168</ele>
        <time>2021-12-02T11:40:48.319Z</time>
      </trkpt>
      <trkpt lat="40.81259" lon="41.55109">
        <ele>629.207234</ele>
        <time>2021-12-02T11:40:51.284Z</time>
      </trkpt>
      <trkpt lat="40.81252" lon="41.55098">
        <ele>628.907326</ele>
        <time>2021-12-02T11:40:54.288Z</time>
      </trkpt>
      <trkpt lat="40.81249" lon="41.55087">
        <ele>628.636901</ele>
        <time>2021-12-02T11:40:57.297Z</time>
      </trkpt>
      <trkpt lat="40.8125" lon="41.55074">
        <ele>628.35724</ele>
        <time>2021-12-02T11:41:00.284Z</time>
      </trkpt>
      <trkpt lat="40.81256" lon="41.55062">
        <ele>628.054461</ele>
        <time>2021-12-02T11:41:03.282Z</time>
      </trkpt>
      <trkpt lat="40.81264" lon="41.55051">
        <ele>627.725529</ele>
        <time>2021-12-02T11:41:06.289Z</time>
      </trkpt>
      <trkpt lat="40.81274" lon="41.55041">
        <ele>627.361285</ele>
        <time>2021-12-02T11:41:09.279Z</time>
      </trkpt>
      <trkpt lat="40.81282" lon="41.55035">
        <ele>627.100254</ele>
        <time>2021-12-02T11:41:11.319Z</time>
      </trkpt>
      <trkpt lat="40.81293" lon="41.55035">
        <ele>626.762908</ele>
        <time>2021-12-02T11:41:14.284Z</time>
      </trkpt>
      <trkpt lat="40.81303" lon="41.55039">
        <ele>626.473962</ele>
        <time>2021-12-02T11:41:17.287Z</time>
      </trkpt>
      <trkpt lat="40.81313" lon="41.55041">
        <ele>626.188054</ele>
        <time>2021-12-02T11:41:20.267Z</time>
      </trkpt>
      <trkpt lat="40.81323" lon="41.55041">
        <ele>625.890879</ele>
        <time>2021-12-02T11:41:23.274Z</time>
      </trkpt>
      <trkpt lat="40.81333" lon="41.55036">
        <ele>625.55003</ele>
        <time>2021-12-02T11:41:27.284Z</time>
      </trkpt>
      <trkpt lat="40.81341" lon="41.55026">
        <ele>625.128874</ele>
        <time>2021-12-02T11:41:31.286Z</time>
      </trkpt>
      <trkpt lat="40.81348" lon="41.55014">
        <ele>624.709749</ele>
        <time>2021-12-02T11:41:34.273Z</time>
      </trkpt>
      <trkpt lat="40.81353" lon="41.55004">
        <ele>624.366179</ele>
        <time>2021-12-02T11:41:36.290Z</time>
      </trkpt>
      <trkpt lat="40.81357" lon="41.54992">
        <ele>624.015045</ele>
        <time>2021-12-02T11:41:38.311Z</time>
      </trkpt>
      <trkpt lat="40.81361" lon="41.54981">
        <ele>623.667557</ele>
        <time>2021-12-02T11:41:40.280Z</time>
      </trkpt>
      <trkpt lat="40.81367" lon="41.54972">
        <ele>623.3239</ele>
        <time>2021-12-02T11:41:42.285Z</time>
      </trkpt>
      <trkpt lat="40.81378" lon="41.54965">
        <ele>622.862832</ele>
        <time>2021-12-02T11:41:45.264Z</time>
      </trkpt>
      <trkpt lat="40.8139" lon="41.54961">
        <ele>622.417332</ele>
        <time>2021-12-02T11:41:48.299Z</time>
      </trkpt>
      <trkpt lat="40.814" lon="41.54959">
        <ele>622.053918</ele>
        <time>2021-12-02T11:41:51.295Z</time>
      </trkpt>
      <trkpt lat="40.81409" lon="41.54954">
        <ele>621.69848</ele>
        <time>2021-12-02T11:41:54.287Z</time>
      </trkpt>
      <trkpt lat="40.81418" lon="41.54947">
        <ele>621.286673</ele>
        <time>2021-12-02T11:41:58.317Z</time>
      </trkpt>
      <trkpt lat="40.81428" lon="41.54943">
        <ele>620.896683</ele>
        <time>2021-12-02T11:42:02.279Z</time>
      </trkpt>
      <trkpt lat="40.81437" lon="41.54938">
        <ele>620.560689</ele>
        <time>2021-12-02T11:42:05.289Z</time>
      </trkpt>
      <trkpt lat="40.81444" lon="41.5493">
        <ele>620.197433</ele>
        <time>2021-12-02T11:42:08.281Z</time>
      </trkpt>
      <trkpt lat="40.81453" lon="41.54921">
        <ele>619.803898</ele>
        <time>2021-12-02T11:42:11.288Z</time>
      </trkpt>
      <trkpt lat="40.81463" lon="41.54912">
        <ele>619.352126</ele>
        <time>2021-12-02T11:42:14.270Z</time>
      </trkpt>
      <trkpt lat="40.8147" lon="41.54905">
        <ele>619.045505</ele>
        <time>2021-12-02T11:42:16.285Z</time>
      </trkpt>
      <trkpt lat="40.81478" lon="41.54897">
        <ele>619.067257</ele>
        <time>2021-12-02T11:42:18.278Z</time>
      </trkpt>
      <trkpt lat="40.81486" lon="41.5489">
        <ele>619.088195</ele>
        <time>2021-12-02T11:42:20.276Z</time>
      </trkpt>
      <trkpt lat="40.81494" lon="41.54885">
        <ele>619.108118</ele>
        <time>2021-12-02T11:42:22.283Z</time>
      </trkpt>
      <trkpt lat="40.81507" lon="41.54885">
        <ele>619.13766</ele>
        <time>2021-12-02T11:42:25.274Z</time>
      </trkpt>
      <trkpt lat="40.81519" lon="41.54883">
        <ele>619.165141</ele>
        <time>2021-12-02T11:42:28.294Z</time>
      </trkpt>
      <trkpt lat="40.81533" lon="41.54879">
        <ele>619.195157</ele>
        <time>2021-12-02T11:42:31.283Z</time>
      </trkpt>
      <trkpt lat="40.81544" lon="41.54876">
        <ele>619.221644</ele>
        <time>2021-12-02T11:42:34.284Z</time>
      </trkpt>
      <trkpt lat="40.81556" lon="41.54874">
        <ele>619.248724</ele>
        <time>2021-12-02T11:42:37.283Z</time>
      </trkpt>
      <trkpt lat="40.81566" lon="41.54873">
        <ele>619.269088</ele>
        <time>2021-12-02T11:42:39.328Z</time>
      </trkpt>
      <trkpt lat="40.81575" lon="41.54872">
        <ele>619.29003</ele>
        <time>2021-12-02T11:42:41.267Z</time>
      </trkpt>
      <trkpt lat="40.81585" lon="41.5487">
        <ele>619.312025</ele>
        <time>2021-12-02T11:42:43.284Z</time>
      </trkpt>
      <trkpt lat="40.81594" lon="41.54867">
        <ele>619.333366</ele>
        <time>2021-12-02T11:42:45.317Z</time>
      </trkpt>
      <trkpt lat="40.81603" lon="41.54862">
        <ele>619.355125</ele>
        <time>2021-12-02T11:42:47.282Z</time>
      </trkpt>
      <trkpt lat="40.81613" lon="41.54858">
        <ele>619.37716</ele>
        <time>2021-12-02T11:42:49.282Z</time>
      </trkpt>
      <trkpt lat="40.81622" lon="41.54855">
        <ele>619.398203</ele>
        <time>2021-12-02T11:42:51.293Z</time>
      </trkpt>
      <trkpt lat="40.81634" lon="41.54852">
        <ele>619.426795</ele>
        <time>2021-12-02T11:42:54.268Z</time>
      </trkpt>
      <trkpt lat="40.81645" lon="41.54848">
        <ele>619.629811</ele>
        <time>2021-12-02T11:42:57.278Z</time>
      </trkpt>
      <trkpt lat="40.81652" lon="41.54841">
        <ele>620.155052</ele>
        <time>2021-12-02T11:43:00.274Z</time>
      </trkpt>
      <trkpt lat="40.81658" lon="41.5483">
        <ele>620.724711</ele>
        <time>2021-12-02T11:43:03.273Z</time>
      </trkpt>
      <trkpt lat="40.81657" lon="41.54813">
        <ele>621.409908</ele>
        <time>2021-12-02T11:43:07.285Z</time>
      </trkpt>
      <trkpt lat="40.81653" lon="41.54798">
        <ele>622.097337</ele>
        <time>2021-12-02T11:43:10.273Z</time>
      </trkpt>
      <trkpt lat="40.81648" lon="41.54784">
        <ele>622.755525</ele>
        <time>2021-12-02T11:43:13.288Z</time>
      </trkpt>
      <trkpt lat="40.81646" lon="41.5477">
        <ele>623.34613</ele>
        <time>2021-12-02T11:43:17.286Z</time>
      </trkpt>
      <trkpt lat="40.81649" lon="41.54759">
        <ele>623.848591</ele>
        <time>2021-12-02T11:43:20.274Z</time>
      </trkpt>
      <trkpt lat="40.81655" lon="41.54747">
        <ele>624.464715</ele>
        <time>2021-12-02T11:43:23.280Z</time>
      </trkpt>
      <trkpt lat="40.81662" lon="41.54736">
        <ele>625.050713</ele>
        <time>2021-12-02T11:43:26.281Z</time>
      </trkpt>
      <trkpt lat="40.8167" lon="41.54727">
        <ele>625.645209</ele>
        <time>2021-12-02T11:43:31.286Z</time>
      </trkpt>
      <trkpt lat="40.81677" lon="41.54716">
        <ele>626.284037</ele>
        <time>2021-12-02T11:43:35.278Z</time>
      </trkpt>
      <trkpt lat="40.81686" lon="41.54705">
        <ele>626.961615</ele>
        <time>2021-12-02T11:43:39.278Z</time>
      </trkpt>
      <trkpt lat="40.81693" lon="41.54696">
        <ele>627.519625</ele>
        <time>2021-12-02T11:43:42.265Z</time>
      </trkpt>
      <trkpt lat="40.81701" lon="41.54686">
        <ele>628.128446</ele>
        <time>2021-12-02T11:43:45.269Z</time>
      </trkpt>
      <trkpt lat="40.81709" lon="41.54676">
        <ele>628.713828</ele>
        <time>2021-12-02T11:43:48.266Z</time>
      </trkpt>
      <trkpt lat="40.81715" lon="41.54668">
        <ele>629.222118</ele>
        <time>2021-12-02T11:43:51.268Z</time>
      </trkpt>
      <trkpt lat="40.81723" lon="41.54657">
        <ele>629.86678</ele>
        <time>2021-12-02T11:43:55.276Z</time>
      </trkpt>
      <trkpt lat="40.81733" lon="41.54648">
        <ele>630.520979</ele>
        <time>2021-12-02T11:43:59.265Z</time>
      </trkpt>
      <trkpt lat="40.81741" lon="41.54639">
        <ele>631.073016</ele>
        <time>2021-12-02T11:44:02.268Z</time>
      </trkpt>
      <trkpt lat="40.81747" lon="41.5463">
        <ele>631.60681</ele>
        <time>2021-12-02T11:44:06.269Z</time>
      </trkpt>
      <trkpt lat="40.81753" lon="41.54619">
        <ele>632.165309</ele>
        <time>2021-12-02T11:44:10.278Z</time>
      </trkpt>
      <trkpt lat="40.81761" lon="41.54609">
        <ele>632.740721</ele>
        <time>2021-12-02T11:44:14.284Z</time>
      </trkpt>
      <trkpt lat="40.81768" lon="41.54597">
        <ele>633.371656</ele>
        <time>2021-12-02T11:44:18.268Z</time>
      </trkpt>
      <trkpt lat="40.81776" lon="41.54585">
        <ele>634.022999</ele>
        <time>2021-12-02T11:44:22.264Z</time>
      </trkpt>
      <trkpt lat="40.81781" lon="41.54575">
        <ele>634.51265</ele>
        <time>2021-12-02T11:44:25.300Z</time>
      </trkpt>
      <trkpt lat="40.81789" lon="41.54564">
        <ele>635.139125</ele>
        <time>2021-12-02T11:44:29.279Z</time>
      </trkpt>
      <trkpt lat="40.81796" lon="41.54552">
        <ele>635.761046</ele>
        <time>2021-12-02T11:44:33.282Z</time>
      </trkpt>
      <trkpt lat="40.81805" lon="41.54544">
        <ele>636.336142</ele>
        <time>2021-12-02T11:44:37.266Z</time>
      </trkpt>
      <trkpt lat="40.81812" lon="41.54535">
        <ele>636.850921</ele>
        <time>2021-12-02T11:44:41.281Z</time>
      </trkpt>
      <trkpt lat="40.81819" lon="41.54526">
        <ele>637.415485</ele>
        <time>2021-12-02T11:44:45.269Z</time>
      </trkpt>
      <trkpt lat="40.81825" lon="41.54516">
        <ele>637.915853</ele>
        <time>2021-12-02T11:44:48.269Z</time>
      </trkpt>
      <trkpt lat="40.81835" lon="41.54508">
        <ele>638.567754</ele>
        <time>2021-12-02T11:44:52.265Z</time>
      </trkpt>
      <trkpt lat="40.81844" lon="41.54504">
        <ele>639.067901</ele>
        <time>2021-12-02T11:44:55.277Z</time>
      </trkpt>
      <trkpt lat="40.81855" lon="41.54499">
        <ele>639.701845</ele>
        <time>2021-12-02T11:44:59.276Z</time>
      </trkpt>
      <trkpt lat="40.81865" lon="41.54492">
        <ele>640.350052</ele>
        <time>2021-12-02T11:45:03.279Z</time>
      </trkpt>
      <trkpt lat="40.81873" lon="41.54487">
        <ele>640.856673</ele>
        <time>2021-12-02T11:45:06.277Z</time>
      </trkpt>
      <trkpt lat="40.81882" lon="41.54482">
        <ele>641.405509</ele>
        <time>2021-12-02T11:45:10.271Z</time>
      </trkpt>
      <trkpt lat="40.81891" lon="41.54478">
        <ele>641.934615</ele>
        <time>2021-12-02T11:45:14.282Z</time>
      </trkpt>
      <trkpt lat="40.81901" lon="41.54474">
        <ele>642.476832</ele>
        <time>2021-12-02T11:45:18.271Z</time>
      </trkpt>
      <trkpt lat="40.8191" lon="41.5447">
        <ele>643.019023</ele>
        <time>2021-12-02T11:45:22.279Z</time>
      </trkpt>
      <trkpt lat="40.81918" lon="41.54462">
        <ele>643.613989</ele>
        <time>2021-12-02T11:45:25.264Z</time>
      </trkpt>
      <trkpt lat="40.81928" lon="41.54453">
        <ele>644.255323</ele>
        <time>2021-12-02T11:45:28.275Z</time>
      </trkpt>
      <trkpt lat="40.81936" lon="41.54446">
        <ele>644.80184</ele>
        <time>2021-12-02T11:45:31.314Z</time>
      </trkpt>
      <trkpt lat="40.81945" lon="41.54439">
        <ele>645.382758</ele>
        <time>2021-12-02T11:45:35.279Z</time>
      </trkpt>
      <trkpt lat="40.81954" lon="41.54433">
        <ele>645.930471</ele>
        <time>2021-12-02T11:45:39.275Z</time>
      </trkpt>
      <trkpt lat="40.81962" lon="41.54426">
        <ele>646.48925</ele>
        <time>2021-12-02T11:45:43.285Z</time>
      </trkpt>
      <trkpt lat="40.81972" lon="41.54417">
        <ele>647.130672</ele>
        <time>2021-12-02T11:45:47.275Z</time>
      </trkpt>
      <trkpt lat="40.81982" lon="41.54411">
        <ele>647.761437</ele>
        <time>2021-12-02T11:45:51.277Z</time>
      </trkpt>
      <trkpt lat="40.81992" lon="41.54405">
        <ele>648.345949</ele>
        <time>2021-12-02T11:45:55.270Z</time>
      </trkpt>
      <trkpt lat="40.82002" lon="41.54398">
        <ele>648.987286</ele>
        <time>2021-12-02T11:45:59.278Z</time>
      </trkpt>
      <trkpt lat="40.82011" lon="41.54391">
        <ele>649.346673</ele>
        <time>2021-12-02T11:46:03.266Z</time>
      </trkpt>
      <trkpt lat="40.82019" lon="41.54384">
        <ele>649.346673</ele>
        <time>2021-12-02T11:46:07.269Z</time>
      </trkpt>
      <trkpt lat="40.82029" lon="41.54378">
        <ele>649.346673</ele>
        <time>2021-12-02T11:46:11.279Z</time>
      </trkpt>
      <trkpt lat="40.82038" lon="41.54369">
        <ele>649.346673</ele>
        <time>2021-12-02T11:46:15.267Z</time>
      </trkpt>
      <trkpt lat="40.82044" lon="41.5436">
        <ele>649.346673</ele>
        <time>2021-12-02T11:46:19.284Z</time>
      </trkpt>
      <trkpt lat="40.82042" lon="41.54348">
        <ele>649.346673</ele>
        <time>2021-12-02T11:46:26.300Z</time>
      </trkpt>
      <trkpt lat="40.82038" lon="41.54337">
        <ele>649.346673</ele>
        <time>2021-12-02T11:46:31.277Z</time>
      </trkpt>
      <trkpt lat="40.82034" lon="41.54324">
        <ele>649.346673</ele>
        <time>2021-12-02T11:46:35.277Z</time>
      </trkpt>
      <trkpt lat="40.82029" lon="41.54312">
        <ele>649.346673</ele>
        <time>2021-12-02T11:46:40.272Z</time>
      </trkpt>
      <trkpt lat="40.82024" lon="41.54303">
        <ele>649.346673</ele>
        <time>2021-12-02T11:46:45.272Z</time>
      </trkpt>
      <trkpt lat="40.82017" lon="41.54293">
        <ele>649.346673</ele>
        <time>2021-12-02T11:46:51.272Z</time>
      </trkpt>
      <trkpt lat="40.82009" lon="41.54285">
        <ele>649.346673</ele>
        <time>2021-12-02T11:46:57.316Z</time>
      </trkpt>
      <trkpt lat="40.82001" lon="41.54278">
        <ele>649.346673</ele>
        <time>2021-12-02T11:47:04.275Z</time>
      </trkpt>
      <trkpt lat="40.82004" lon="41.54303">
        <ele>649.346673</ele>
        <time>2021-12-02T11:48:03.277Z</time>
      </trkpt>
      <trkpt lat="40.82002" lon="41.54312">
        <ele>649.346673</ele>
        <time>2021-12-02T11:48:54.332Z</time>
      </trkpt>
    </trkseg>
  </trk>
</gpx>